<?xml version="1.0" encoding="UTF-8"?>
<gpx creator="Garmin Connect" version="1.1"
  xsi:schemaLocation="http://www.topografix.com/GPX/1/1 http://www.topografix.com/GPX/11.xsd"
  xmlns:ns3="http://www.garmin.com/xmlschemas/TrackPointExtension/v1"
  xmlns="http://www.topografix.com/GPX/1/1"
  xmlns:xsi="http://www.w3.org/2001/XMLSchema-instance" xmlns:ns2="http://www.garmin.com/xmlschemas/GpxExtensions/v3">
  <metadata>
    <name>LU - Dag 2</name>
    <link href="connect.garmin.com">
      <text>Garmin Connect</text>
    </link>
    <time>2024-12-29T14:56:48.000Z</time>
  </metadata>
  <wpt lat="49.846015" lon="6.083082">
    <ele>0.0</ele>
    <name>Camping Ettelbr</name>
    <cmt>Camping Ettelbruck</cmt>
    <type>GENERIC</type>
  </wpt>
  <wpt lat="49.84824855264892" lon="6.10193440858706">
    <ele>0.0</ele>
    <name>Boulangerie</name>
    <type>STORE</type>
  </wpt>
  <wpt lat="49.85147052552328" lon="6.10975481552523">
    <ele>0.0</ele>
    <name>General Patton</name>
    <type>GENERIC</type>
  </wpt>
  <wpt lat="49.85803230562153" lon="6.10426380609528">
    <ele>0.0</ele>
    <name>Hoogste punt 1</name>
    <type>GENERIC</type>
  </wpt>
  <wpt lat="49.86598899666775" lon="6.10596357139292">
    <ele>0.0</ele>
    <name>Waterpunt 1</name>
    <type>INFO</type>
  </wpt>
  <wpt lat="49.87423104594956" lon="6.12000853797027">
    <ele>0.0</ele>
    <name>Waterpunt 2</name>
    <type>INFO</type>
  </wpt>
  <wpt lat="49.87746302944053" lon="6.12587053600869">
    <ele>0.0</ele>
    <name>Waterpunt 3</name>
    <type>INFO</type>
  </wpt>
  <wpt lat="49.88218274398933" lon="6.12795983840178">
    <ele>0.0</ele>
    <name>Info</name>
    <type>INFO</type>
  </wpt>
  <wpt lat="49.88329191473301" lon="6.1323255522743">
    <ele>0.0</ele>
    <name>Waterpunt 5</name>
    <type>GENERIC</type>
  </wpt>
  <wpt lat="49.8932176199903" lon="6.12762125474062">
    <ele>0.0</ele>
    <name>Waterpunt 6</name>
    <type>INFO</type>
  </wpt>
  <wpt lat="49.90342686281566" lon="6.11564595189379">
    <ele>0.0</ele>
    <name>Hoogste punt 2</name>
    <type>GENERIC</type>
  </wpt>
  <wpt lat="49.90035261064661" lon="6.1103446692219">
    <ele>0.0</ele>
    <name>Waterpunt 7</name>
    <type>INFO</type>
  </wpt>
  <wpt lat="49.90044061072027" lon="6.10894314533326">
    <ele>0.0</ele>
    <name>Waterpunt 8</name>
    <type>INFO</type>
  </wpt>
  <wpt lat="49.91128916118281" lon="6.09376091155703">
    <ele>0.0</ele>
    <name>Hoogste punt 3</name>
    <type>GENERIC</type>
  </wpt>
  <wpt lat="49.91351126183921" lon="6.09730675034128">
    <ele>0.0</ele>
    <name>Waterpunt 9</name>
    <type>INFO</type>
  </wpt>
  <wpt lat="49.91573936819672" lon="6.09178417566099">
    <ele>0.0</ele>
    <name>Gringlay View P</name>
    <type>SUMMIT</type>
  </wpt>
  <trk>
    <name>LU - Dag 2</name>
    <trkseg>
      <trkpt lat="49.84605297446251" lon="6.083105877041817">
        <ele>252.15</ele>
        <time>2024-12-29T14:56:48.000Z</time>
      </trkpt>
      <trkpt lat="49.84601492062211" lon="6.083081988617778">
        <ele>250.83</ele>
        <time>2024-12-29T14:56:48.005Z</time>
      </trkpt>
      <trkpt lat="49.846047945320606" lon="6.083286926150322">
        <ele>249.11</ele>
        <time>2024-12-29T14:56:48.029Z</time>
      </trkpt>
      <trkpt lat="49.84611298888922" lon="6.083465963602066">
        <ele>247.29</ele>
        <time>2024-12-29T14:56:48.070Z</time>
      </trkpt>
      <trkpt lat="49.846219941973686" lon="6.083855973556638">
        <ele>245.26</ele>
        <time>2024-12-29T14:56:48.148Z</time>
      </trkpt>
      <trkpt lat="49.84626897610724" lon="6.0840769205242395">
        <ele>243.21</ele>
        <time>2024-12-29T14:56:48.246Z</time>
      </trkpt>
      <trkpt lat="49.84628892503679" lon="6.084435917437077">
        <ele>240.96</ele>
        <time>2024-12-29T14:56:48.375Z</time>
      </trkpt>
      <trkpt lat="49.84632404521108" lon="6.08478644862771">
        <ele>238.58</ele>
        <time>2024-12-29T14:56:48.535Z</time>
      </trkpt>
      <trkpt lat="49.8463589977473" lon="6.085134968161583">
        <ele>236.13</ele>
        <time>2024-12-29T14:56:48.725Z</time>
      </trkpt>
      <trkpt lat="49.84641909599304" lon="6.085446774959564">
        <ele>233.76</ele>
        <time>2024-12-29T14:56:48.943Z</time>
      </trkpt>
      <trkpt lat="49.846479278057814" lon="6.0857585817575455">
        <ele>231.41</ele>
        <time>2024-12-29T14:56:49.189Z</time>
      </trkpt>
      <trkpt lat="49.846538957208395" lon="6.086067957803607">
        <ele>229.1</ele>
        <time>2024-12-29T14:56:49.463Z</time>
      </trkpt>
      <trkpt lat="49.84665496274829" lon="6.086363922804594">
        <ele>226.92</ele>
        <time>2024-12-29T14:56:49.767Z</time>
      </trkpt>
      <trkpt lat="49.846692932769656" lon="6.086438940837979">
        <ele>225.07</ele>
        <time>2024-12-29T14:56:50.079Z</time>
      </trkpt>
      <trkpt lat="49.8468909971416" lon="6.086816964671016">
        <ele>223.33</ele>
        <time>2024-12-29T14:56:50.433Z</time>
      </trkpt>
      <trkpt lat="49.846986969932914" lon="6.086921989917755">
        <ele>221.87</ele>
        <time>2024-12-29T14:56:50.803Z</time>
      </trkpt>
      <trkpt lat="49.84700893051922" lon="6.087204962968826">
        <ele>220.58</ele>
        <time>2024-12-29T14:56:51.198Z</time>
      </trkpt>
      <trkpt lat="49.847099957987666" lon="6.087539987638593">
        <ele>219.39</ele>
        <time>2024-12-29T14:56:51.624Z</time>
      </trkpt>
      <trkpt lat="49.84717195853591" lon="6.08770796097815">
        <ele>218.4</ele>
        <time>2024-12-29T14:56:52.067Z</time>
      </trkpt>
      <trkpt lat="49.847267931327224" lon="6.087930919602513">
        <ele>217.52</ele>
        <time>2024-12-29T14:56:52.534Z</time>
      </trkpt>
      <trkpt lat="49.84730095602572" lon="6.088102916255593">
        <ele>216.83</ele>
        <time>2024-12-29T14:56:53.016Z</time>
      </trkpt>
      <trkpt lat="49.8472969327122" lon="6.088293939828873">
        <ele>216.29</ele>
        <time>2024-12-29T14:56:53.515Z</time>
      </trkpt>
      <trkpt lat="49.84724479727447" lon="6.088668443262577">
        <ele>215.92</ele>
        <time>2024-12-29T14:56:54.047Z</time>
      </trkpt>
      <trkpt lat="49.84719299711287" lon="6.08904093503952">
        <ele>215.52</ele>
        <time>2024-12-29T14:56:54.612Z</time>
      </trkpt>
      <trkpt lat="49.84717799350619" lon="6.08914696611464">
        <ele>215.17</ele>
        <time>2024-12-29T14:56:55.186Z</time>
      </trkpt>
      <trkpt lat="49.847116973251104" lon="6.089418958872557">
        <ele>214.79</ele>
        <time>2024-12-29T14:56:55.785Z</time>
      </trkpt>
      <trkpt lat="49.847097946330905" lon="6.089692963287234">
        <ele>214.41</ele>
        <time>2024-12-29T14:56:56.408Z</time>
      </trkpt>
      <trkpt lat="49.84710792079568" lon="6.09004894271493">
        <ele>214.09</ele>
        <time>2024-12-29T14:56:57.061Z</time>
      </trkpt>
      <trkpt lat="49.84711395576596" lon="6.090121949091554">
        <ele>213.82</ele>
        <time>2024-12-29T14:56:57.721Z</time>
      </trkpt>
      <trkpt lat="49.847138933837414" lon="6.090459991246462">
        <ele>213.57</ele>
        <time>2024-12-29T14:56:58.410Z</time>
      </trkpt>
      <trkpt lat="49.84719693660736" lon="6.090897945687175">
        <ele>213.19</ele>
        <time>2024-12-29T14:56:59.138Z</time>
      </trkpt>
      <trkpt lat="49.84721453860402" lon="6.091274041682482">
        <ele>212.86</ele>
        <time>2024-12-29T14:56:59.898Z</time>
      </trkpt>
      <trkpt lat="49.84723197296262" lon="6.091647958382964">
        <ele>212.75</ele>
        <time>2024-12-29T14:57:00.690Z</time>
      </trkpt>
      <trkpt lat="49.84723691828549" lon="6.091883992776275">
        <ele>212.57</ele>
        <time>2024-12-29T14:57:01.503Z</time>
      </trkpt>
      <trkpt lat="49.84723398461938" lon="6.092097982764244">
        <ele>212.41</ele>
        <time>2024-12-29T14:57:02.334Z</time>
      </trkpt>
      <trkpt lat="49.847204983234406" lon="6.092513976618648">
        <ele>212.26</ele>
        <time>2024-12-29T14:57:03.201Z</time>
      </trkpt>
      <trkpt lat="49.84721194021404" lon="6.092599974945188">
        <ele>212.07</ele>
        <time>2024-12-29T14:57:04.076Z</time>
      </trkpt>
      <trkpt lat="49.84712393023074" lon="6.092631993815303">
        <ele>211.84</ele>
        <time>2024-12-29T14:57:04.963Z</time>
      </trkpt>
      <trkpt lat="49.84710699878633" lon="6.092674992978573">
        <ele>211.61</ele>
        <time>2024-12-29T14:57:05.854Z</time>
      </trkpt>
      <trkpt lat="49.84701697714627" lon="6.0928939282894135">
        <ele>211.28</ele>
        <time>2024-12-29T14:57:06.768Z</time>
      </trkpt>
      <trkpt lat="49.84695780090988" lon="6.093131052330136">
        <ele>210.87</ele>
        <time>2024-12-29T14:57:07.704Z</time>
      </trkpt>
      <trkpt lat="49.84689895994961" lon="6.093366919085383">
        <ele>210.42</ele>
        <time>2024-12-29T14:57:08.661Z</time>
      </trkpt>
      <trkpt lat="49.846833916381" lon="6.093589961528778">
        <ele>209.94</ele>
        <time>2024-12-29T14:57:09.640Z</time>
      </trkpt>
      <trkpt lat="49.84672771766782" lon="6.093923728913069">
        <ele>209.43</ele>
        <time>2024-12-29T14:57:10.651Z</time>
      </trkpt>
      <trkpt lat="49.84662193804979" lon="6.094255987554789">
        <ele>209.01</ele>
        <time>2024-12-29T14:57:11.694Z</time>
      </trkpt>
      <trkpt lat="49.84658799134195" lon="6.094360928982496">
        <ele>208.65</ele>
        <time>2024-12-29T14:57:12.747Z</time>
      </trkpt>
      <trkpt lat="49.846624955534935" lon="6.09438993036747">
        <ele>208.34</ele>
        <time>2024-12-29T14:57:13.805Z</time>
      </trkpt>
      <trkpt lat="49.84681094996631" lon="6.094536948949099">
        <ele>208.1</ele>
        <time>2024-12-29T14:57:14.891Z</time>
      </trkpt>
      <trkpt lat="49.846857972443104" lon="6.094574918970466">
        <ele>207.91</ele>
        <time>2024-12-29T14:57:15.984Z</time>
      </trkpt>
      <trkpt lat="49.84693894162774" lon="6.09464499168098">
        <ele>207.77</ele>
        <time>2024-12-29T14:57:17.090Z</time>
      </trkpt>
      <trkpt lat="49.846986969932914" lon="6.094692936167121">
        <ele>207.65</ele>
        <time>2024-12-29T14:57:18.203Z</time>
      </trkpt>
      <trkpt lat="49.84708361327648" lon="6.094921929761767">
        <ele>207.56</ele>
        <time>2024-12-29T14:57:19.340Z</time>
      </trkpt>
      <trkpt lat="49.84717992134392" lon="6.095149917528033">
        <ele>207.5</ele>
        <time>2024-12-29T14:57:20.500Z</time>
      </trkpt>
      <trkpt lat="49.84719894826412" lon="6.095236921682954">
        <ele>207.45</ele>
        <time>2024-12-29T14:57:21.668Z</time>
      </trkpt>
      <trkpt lat="49.847264997661114" lon="6.09529098495841">
        <ele>207.49</ele>
        <time>2024-12-29T14:57:22.846Z</time>
      </trkpt>
      <trkpt lat="49.84724295325577" lon="6.095449989661574">
        <ele>207.44</ele>
        <time>2024-12-29T14:57:24.038Z</time>
      </trkpt>
      <trkpt lat="49.847207833081484" lon="6.095708655193448">
        <ele>207.46</ele>
        <time>2024-12-29T14:57:25.253Z</time>
      </trkpt>
      <trkpt lat="49.84717296436429" lon="6.095965979620814">
        <ele>207.52</ele>
        <time>2024-12-29T14:57:26.491Z</time>
      </trkpt>
      <trkpt lat="49.847162989899516" lon="6.096124984323978">
        <ele>207.57</ele>
        <time>2024-12-29T14:57:27.743Z</time>
      </trkpt>
      <trkpt lat="49.84717497602105" lon="6.096381135284901">
        <ele>207.56</ele>
        <time>2024-12-29T14:57:29.017Z</time>
      </trkpt>
      <trkpt lat="49.84718696214259" lon="6.0966359451413155">
        <ele>207.6</ele>
        <time>2024-12-29T14:57:30.313Z</time>
      </trkpt>
      <trkpt lat="49.84719391912222" lon="6.097038947045803">
        <ele>207.6</ele>
        <time>2024-12-29T14:57:31.644Z</time>
      </trkpt>
      <trkpt lat="49.847184950485826" lon="6.097410935908556">
        <ele>207.51</ele>
        <time>2024-12-29T14:57:33.007Z</time>
      </trkpt>
      <trkpt lat="49.84717397019267" lon="6.097570946440101">
        <ele>207.44</ele>
        <time>2024-12-29T14:57:34.384Z</time>
      </trkpt>
      <trkpt lat="49.84715293161571" lon="6.09767597168684">
        <ele>207.37</ele>
        <time>2024-12-29T14:57:35.770Z</time>
      </trkpt>
      <trkpt lat="49.84710892662406" lon="6.09782793559134">
        <ele>207.23</ele>
        <time>2024-12-29T14:57:37.171Z</time>
      </trkpt>
      <trkpt lat="49.847079925239086" lon="6.097925920039415">
        <ele>207.09</ele>
        <time>2024-12-29T14:57:38.581Z</time>
      </trkpt>
      <trkpt lat="49.84700792469084" lon="6.0981629602611065">
        <ele>206.93</ele>
        <time>2024-12-29T14:57:40.013Z</time>
      </trkpt>
      <trkpt lat="49.846987975761294" lon="6.098230937495828">
        <ele>206.8</ele>
        <time>2024-12-29T14:57:41.452Z</time>
      </trkpt>
      <trkpt lat="49.84687096439302" lon="6.098588928580284">
        <ele>206.64</ele>
        <time>2024-12-29T14:57:42.925Z</time>
      </trkpt>
      <trkpt lat="49.84681195579469" lon="6.0987719893455505">
        <ele>206.53</ele>
        <time>2024-12-29T14:57:44.416Z</time>
      </trkpt>
      <trkpt lat="49.846796952188015" lon="6.098808953538537">
        <ele>206.43</ele>
        <time>2024-12-29T14:57:45.911Z</time>
      </trkpt>
      <trkpt lat="49.84671598300338" lon="6.099001988768578">
        <ele>206.32</ele>
        <time>2024-12-29T14:57:47.426Z</time>
      </trkpt>
      <trkpt lat="49.84665697440505" lon="6.099120927974582">
        <ele>206.21</ele>
        <time>2024-12-29T14:57:48.954Z</time>
      </trkpt>
      <trkpt lat="49.84667994081974" lon="6.099163927137852">
        <ele>206.13</ele>
        <time>2024-12-29T14:57:50.487Z</time>
      </trkpt>
      <trkpt lat="49.84693692997098" lon="6.0994319804012775">
        <ele>206.18</ele>
        <time>2024-12-29T14:57:52.061Z</time>
      </trkpt>
      <trkpt lat="49.84708093106747" lon="6.099728951230645">
        <ele>206.22</ele>
        <time>2024-12-29T14:57:53.667Z</time>
      </trkpt>
      <trkpt lat="49.847074979916215" lon="6.0998269356787205">
        <ele>206.17</ele>
        <time>2024-12-29T14:57:55.281Z</time>
      </trkpt>
      <trkpt lat="49.84709098935127" lon="6.100243600085378">
        <ele>206.15</ele>
        <time>2024-12-29T14:57:56.931Z</time>
      </trkpt>
      <trkpt lat="49.84710699878633" lon="6.100657917559147">
        <ele>205.94</ele>
        <time>2024-12-29T14:57:58.617Z</time>
      </trkpt>
      <trkpt lat="49.84713692218065" lon="6.100954972207546">
        <ele>205.7</ele>
        <time>2024-12-29T14:58:00.329Z</time>
      </trkpt>
      <trkpt lat="49.847184950485826" lon="6.101192934438586">
        <ele>205.54</ele>
        <time>2024-12-29T14:58:02.063Z</time>
      </trkpt>
      <trkpt lat="49.84725108370185" lon="6.101480685174465">
        <ele>205.39</ele>
        <time>2024-12-29T14:58:03.823Z</time>
      </trkpt>
      <trkpt lat="49.84731696546078" lon="6.101766927167773">
        <ele>205.21</ele>
        <time>2024-12-29T14:58:05.609Z</time>
      </trkpt>
      <trkpt lat="49.847436994314194" lon="6.101663997396827">
        <ele>205.05</ele>
        <time>2024-12-29T14:58:07.414Z</time>
      </trkpt>
      <trkpt lat="49.84760094434023" lon="6.101470962166786">
        <ele>204.89</ele>
        <time>2024-12-29T14:58:09.246Z</time>
      </trkpt>
      <trkpt lat="49.8476819973439" lon="6.101329978555441">
        <ele>204.68</ele>
        <time>2024-12-29T14:58:11.094Z</time>
      </trkpt>
      <trkpt lat="49.84770295210183" lon="6.101291924715042">
        <ele>204.48</ele>
        <time>2024-12-29T14:58:12.947Z</time>
      </trkpt>
      <trkpt lat="49.847922809422016" lon="6.101550925523043">
        <ele>204.23</ele>
        <time>2024-12-29T14:58:14.837Z</time>
      </trkpt>
      <trkpt lat="49.84814275056124" lon="6.1018098425120115">
        <ele>203.97</ele>
        <time>2024-12-29T14:58:16.764Z</time>
      </trkpt>
      <trkpt lat="49.84824853017926" lon="6.101934397593141">
        <ele>203.7</ele>
        <time>2024-12-29T14:58:18.708Z</time>
      </trkpt>
      <trkpt lat="49.84836193732917" lon="6.102067921310663">
        <ele>203.43</ele>
        <time>2024-12-29T14:58:20.671Z</time>
      </trkpt>
      <trkpt lat="49.848344922065735" lon="6.102087954059243">
        <ele>203.21</ele>
        <time>2024-12-29T14:58:22.637Z</time>
      </trkpt>
      <trkpt lat="49.848319943994284" lon="6.102120978757739">
        <ele>202.99</ele>
        <time>2024-12-29T14:58:24.608Z</time>
      </trkpt>
      <trkpt lat="49.848345927894115" lon="6.102173952385783">
        <ele>202.77</ele>
        <time>2024-12-29T14:58:26.584Z</time>
      </trkpt>
      <trkpt lat="49.84836998395622" lon="6.102222986519337">
        <ele>202.56</ele>
        <time>2024-12-29T14:58:28.566Z</time>
      </trkpt>
      <trkpt lat="49.84819899313152" lon="6.102437982335687">
        <ele>202.31</ele>
        <time>2024-12-29T14:58:30.577Z</time>
      </trkpt>
      <trkpt lat="49.84801425598562" lon="6.1026692390441895">
        <ele>202.14</ele>
        <time>2024-12-29T14:58:32.620Z</time>
      </trkpt>
      <trkpt lat="49.847829937934875" lon="6.102899992838502">
        <ele>201.99</ele>
        <time>2024-12-29T14:58:34.694Z</time>
      </trkpt>
      <trkpt lat="49.84776698984206" lon="6.102846935391426">
        <ele>201.87</ele>
        <time>2024-12-29T14:58:36.778Z</time>
      </trkpt>
      <trkpt lat="49.8476489726454" lon="6.102952966466546">
        <ele>201.73</ele>
        <time>2024-12-29T14:58:38.880Z</time>
      </trkpt>
      <trkpt lat="49.847546964883804" lon="6.103064948692918">
        <ele>201.57</ele>
        <time>2024-12-29T14:58:40.999Z</time>
      </trkpt>
      <trkpt lat="49.84744495712221" lon="6.1032099556177855">
        <ele>201.41</ele>
        <time>2024-12-29T14:58:43.136Z</time>
      </trkpt>
      <trkpt lat="49.847341272979975" lon="6.1034072656184435">
        <ele>201.27</ele>
        <time>2024-12-29T14:58:45.295Z</time>
      </trkpt>
      <trkpt lat="49.84723792411387" lon="6.1036039888858795">
        <ele>201.17</ele>
        <time>2024-12-29T14:58:47.476Z</time>
      </trkpt>
      <trkpt lat="49.847075985744596" lon="6.103915963321924">
        <ele>201.13</ele>
        <time>2024-12-29T14:58:49.692Z</time>
      </trkpt>
      <trkpt lat="49.847052935510874" lon="6.1040139477699995">
        <ele>201.04</ele>
        <time>2024-12-29T14:58:51.917Z</time>
      </trkpt>
      <trkpt lat="49.84703994356096" lon="6.104115955531597">
        <ele>200.96</ele>
        <time>2024-12-29T14:58:54.151Z</time>
      </trkpt>
      <trkpt lat="49.8470379319042" lon="6.104219974949956">
        <ele>200.88</ele>
        <time>2024-12-29T14:58:56.394Z</time>
      </trkpt>
      <trkpt lat="49.84704195521772" lon="6.104261968284845">
        <ele>200.81</ele>
        <time>2024-12-29T14:58:58.640Z</time>
      </trkpt>
      <trkpt lat="49.847047990188" lon="6.104321982711554">
        <ele>200.73</ele>
        <time>2024-12-29T14:59:00.892Z</time>
      </trkpt>
      <trkpt lat="49.84700792469084" lon="6.104343943297863">
        <ele>200.64</ele>
        <time>2024-12-29T14:59:03.149Z</time>
      </trkpt>
      <trkpt lat="49.846986969932914" lon="6.104396916925907">
        <ele>200.55</ele>
        <time>2024-12-29T14:59:05.412Z</time>
      </trkpt>
      <trkpt lat="49.847054947167635" lon="6.104462966322899">
        <ele>200.47</ele>
        <time>2024-12-29T14:59:07.685Z</time>
      </trkpt>
      <trkpt lat="49.84711093828082" lon="6.1045509763062">
        <ele>200.37</ele>
        <time>2024-12-29T14:59:09.969Z</time>
      </trkpt>
      <trkpt lat="49.84718897379935" lon="6.104796985164285">
        <ele>200.26</ele>
        <time>2024-12-29T14:59:12.277Z</time>
      </trkpt>
      <trkpt lat="49.847228955477476" lon="6.104928916320205">
        <ele>200.14</ele>
        <time>2024-12-29T14:59:14.597Z</time>
      </trkpt>
      <trkpt lat="49.847362227737904" lon="6.10536796040833">
        <ele>200.01</ele>
        <time>2024-12-29T14:59:16.959Z</time>
      </trkpt>
      <trkpt lat="49.84749499708414" lon="6.105804992839694">
        <ele>199.86</ele>
        <time>2024-12-29T14:59:19.363Z</time>
      </trkpt>
      <trkpt lat="49.84761896543205" lon="6.106229955330491">
        <ele>199.71</ele>
        <time>2024-12-29T14:59:21.807Z</time>
      </trkpt>
      <trkpt lat="49.8476679995656" lon="6.106367921456695">
        <ele>199.54</ele>
        <time>2024-12-29T14:59:24.265Z</time>
      </trkpt>
      <trkpt lat="49.847697922959924" lon="6.106407986953855">
        <ele>199.37</ele>
        <time>2024-12-29T14:59:26.728Z</time>
      </trkpt>
      <trkpt lat="49.84772591851652" lon="6.106445956975222">
        <ele>199.18</ele>
        <time>2024-12-29T14:59:29.196Z</time>
      </trkpt>
      <trkpt lat="49.84775399789214" lon="6.106464983895421">
        <ele>198.98</ele>
        <time>2024-12-29T14:59:31.668Z</time>
      </trkpt>
      <trkpt lat="49.84779993072152" lon="6.106482921168208">
        <ele>198.79</ele>
        <time>2024-12-29T14:59:34.146Z</time>
      </trkpt>
      <trkpt lat="49.847828932106495" lon="6.106483926996589">
        <ele>198.58</ele>
        <time>2024-12-29T14:59:36.628Z</time>
      </trkpt>
      <trkpt lat="49.847829937934875" lon="6.1065489705652">
        <ele>198.37</ele>
        <time>2024-12-29T14:59:39.116Z</time>
      </trkpt>
      <trkpt lat="49.84784393571317" lon="6.106616947799921">
        <ele>198.15</ele>
        <time>2024-12-29T14:59:41.610Z</time>
      </trkpt>
      <trkpt lat="49.847867991775274" lon="6.106676962226629">
        <ele>197.93</ele>
        <time>2024-12-29T14:59:44.110Z</time>
      </trkpt>
      <trkpt lat="49.84792691655457" lon="6.106777964159846">
        <ele>197.73</ele>
        <time>2024-12-29T14:59:46.622Z</time>
      </trkpt>
      <trkpt lat="49.8479719273746" lon="6.106840996071696">
        <ele>197.53</ele>
        <time>2024-12-29T14:59:49.142Z</time>
      </trkpt>
      <trkpt lat="49.84807795844972" lon="6.106984997168183">
        <ele>197.36</ele>
        <time>2024-12-29T14:59:51.681Z</time>
      </trkpt>
      <trkpt lat="49.84825582243502" lon="6.107221534475684">
        <ele>197.17</ele>
        <time>2024-12-29T14:59:54.251Z</time>
      </trkpt>
      <trkpt lat="49.84843368642032" lon="6.107458155602217">
        <ele>197.0</ele>
        <time>2024-12-29T14:59:56.852Z</time>
      </trkpt>
      <trkpt lat="49.8486109636724" lon="6.107693938538432">
        <ele>196.86</ele>
        <time>2024-12-29T14:59:59.484Z</time>
      </trkpt>
      <trkpt lat="49.84863393008709" lon="6.107724951580167">
        <ele>196.79</ele>
        <time>2024-12-29T15:00:02.121Z</time>
      </trkpt>
      <trkpt lat="49.84878991730511" lon="6.107996944338083">
        <ele>196.75</ele>
        <time>2024-12-29T15:00:04.789Z</time>
      </trkpt>
      <trkpt lat="49.84888262115419" lon="6.108215376734734">
        <ele>196.79</ele>
        <time>2024-12-29T15:00:07.479Z</time>
      </trkpt>
      <trkpt lat="49.84897498972714" lon="6.108432970941067">
        <ele>196.93</ele>
        <time>2024-12-29T15:00:10.192Z</time>
      </trkpt>
      <trkpt lat="49.84910692088306" lon="6.108689960092306">
        <ele>197.06</ele>
        <time>2024-12-29T15:00:12.933Z</time>
      </trkpt>
      <trkpt lat="49.849269948899746" lon="6.108925994485617">
        <ele>197.22</ele>
        <time>2024-12-29T15:00:15.704Z</time>
      </trkpt>
      <trkpt lat="49.84934798441827" lon="6.108988942578435">
        <ele>197.48</ele>
        <time>2024-12-29T15:00:18.487Z</time>
      </trkpt>
      <trkpt lat="49.84948595054448" lon="6.108887940645218">
        <ele>197.81</ele>
        <time>2024-12-29T15:00:21.290Z</time>
      </trkpt>
      <trkpt lat="49.84960195608437" lon="6.108803953975439">
        <ele>198.23</ele>
        <time>2024-12-29T15:00:24.110Z</time>
      </trkpt>
      <trkpt lat="49.849564991891384" lon="6.108713932335377">
        <ele>198.67</ele>
        <time>2024-12-29T15:00:26.939Z</time>
      </trkpt>
      <trkpt lat="49.84968493692577" lon="6.108628939837217">
        <ele>199.19</ele>
        <time>2024-12-29T15:00:29.786Z</time>
      </trkpt>
      <trkpt lat="49.84966498799622" lon="6.108555933460593">
        <ele>199.78</ele>
        <time>2024-12-29T15:00:32.640Z</time>
      </trkpt>
      <trkpt lat="49.84970496967435" lon="6.108532967045903">
        <ele>200.44</ele>
        <time>2024-12-29T15:00:35.500Z</time>
      </trkpt>
      <trkpt lat="49.8498126771301" lon="6.108907302841544">
        <ele>201.12</ele>
        <time>2024-12-29T15:00:38.395Z</time>
      </trkpt>
      <trkpt lat="49.8499199654907" lon="6.109279962256551">
        <ele>201.93</ele>
        <time>2024-12-29T15:00:41.325Z</time>
      </trkpt>
      <trkpt lat="49.84994594939053" lon="6.109268981963396">
        <ele>202.76</ele>
        <time>2024-12-29T15:00:44.259Z</time>
      </trkpt>
      <trkpt lat="49.850020967423916" lon="6.109240986406803">
        <ele>203.67</ele>
        <time>2024-12-29T15:00:47.203Z</time>
      </trkpt>
      <trkpt lat="49.85011392273009" lon="6.109228916466236">
        <ele>204.63</ele>
        <time>2024-12-29T15:00:50.160Z</time>
      </trkpt>
      <trkpt lat="49.85015499405563" lon="6.1092249769717455">
        <ele>205.66</ele>
        <time>2024-12-29T15:00:53.122Z</time>
      </trkpt>
      <trkpt lat="49.850363954901695" lon="6.10921299085021">
        <ele>206.99</ele>
        <time>2024-12-29T15:00:56.112Z</time>
      </trkpt>
      <trkpt lat="49.85041994601488" lon="6.109236963093281">
        <ele>208.09</ele>
        <time>2024-12-29T15:00:59.110Z</time>
      </trkpt>
      <trkpt lat="49.850640976801515" lon="6.109485989436507">
        <ele>209.29</ele>
        <time>2024-12-29T15:01:02.144Z</time>
      </trkpt>
      <trkpt lat="49.850641982629895" lon="6.109486995264888">
        <ele>210.34</ele>
        <time>2024-12-29T15:01:05.178Z</time>
      </trkpt>
      <trkpt lat="49.850749941542745" lon="6.109609957784414">
        <ele>211.41</ele>
        <time>2024-12-29T15:01:08.230Z</time>
      </trkpt>
      <trkpt lat="49.850784977898" lon="6.109699979424477">
        <ele>212.4</ele>
        <time>2024-12-29T15:01:11.291Z</time>
      </trkpt>
      <trkpt lat="49.85084298066795" lon="6.109722945839167">
        <ele>213.44</ele>
        <time>2024-12-29T15:01:14.360Z</time>
      </trkpt>
      <trkpt lat="49.85102394595742" lon="6.109725963324308">
        <ele>214.62</ele>
        <time>2024-12-29T15:01:17.453Z</time>
      </trkpt>
      <trkpt lat="49.85126391984522" lon="6.109741469845176">
        <ele>215.82</ele>
        <time>2024-12-29T15:01:20.579Z</time>
      </trkpt>
      <trkpt lat="49.85147044993937" lon="6.1097547970712185">
        <ele>216.88</ele>
        <time>2024-12-29T15:01:23.732Z</time>
      </trkpt>
      <trkpt lat="49.851503977552056" lon="6.109756976366043">
        <ele>217.75</ele>
        <time>2024-12-29T15:01:26.890Z</time>
      </trkpt>
      <trkpt lat="49.85155896283686" lon="6.109777931123972">
        <ele>218.55</ele>
        <time>2024-12-29T15:01:30.055Z</time>
      </trkpt>
      <trkpt lat="49.851692989468575" lon="6.109885973855853">
        <ele>219.25</ele>
        <time>2024-12-29T15:01:33.240Z</time>
      </trkpt>
      <trkpt lat="49.85187194310129" lon="6.110116979107261">
        <ele>219.63</ele>
        <time>2024-12-29T15:01:36.456Z</time>
      </trkpt>
      <trkpt lat="49.85192894004285" lon="6.110154949128628">
        <ele>220.21</ele>
        <time>2024-12-29T15:01:39.681Z</time>
      </trkpt>
      <trkpt lat="49.85194494947791" lon="6.110178921371698">
        <ele>220.76</ele>
        <time>2024-12-29T15:01:42.909Z</time>
      </trkpt>
      <trkpt lat="49.851953918114305" lon="6.110209934413433">
        <ele>221.25</ele>
        <time>2024-12-29T15:01:46.140Z</time>
      </trkpt>
      <trkpt lat="49.85199096612632" lon="6.110233990475535">
        <ele>221.74</ele>
        <time>2024-12-29T15:01:49.376Z</time>
      </trkpt>
      <trkpt lat="49.85216195695102" lon="6.110199959948659">
        <ele>222.33</ele>
        <time>2024-12-29T15:01:52.635Z</time>
      </trkpt>
      <trkpt lat="49.8522599413991" lon="6.110160984098911">
        <ele>222.86</ele>
        <time>2024-12-29T15:01:55.907Z</time>
      </trkpt>
      <trkpt lat="49.85248499549925" lon="6.110015977174044">
        <ele>223.38</ele>
        <time>2024-12-29T15:01:59.212Z</time>
      </trkpt>
      <trkpt lat="49.85262991860509" lon="6.109967948868871">
        <ele>223.76</ele>
        <time>2024-12-29T15:02:02.537Z</time>
      </trkpt>
      <trkpt lat="49.85270996578038" lon="6.109906928613782">
        <ele>224.17</ele>
        <time>2024-12-29T15:02:05.874Z</time>
      </trkpt>
      <trkpt lat="49.85280392691493" lon="6.109874993562698">
        <ele>224.55</ele>
        <time>2024-12-29T15:02:09.224Z</time>
      </trkpt>
      <trkpt lat="49.852876933291554" lon="6.109812967479229">
        <ele>224.98</ele>
        <time>2024-12-29T15:02:12.585Z</time>
      </trkpt>
      <trkpt lat="49.853026047348976" lon="6.109717916697264">
        <ele>225.32</ele>
        <time>2024-12-29T15:02:15.967Z</time>
      </trkpt>
      <trkpt lat="49.853174993768334" lon="6.10962294973433">
        <ele>225.7</ele>
        <time>2024-12-29T15:02:19.371Z</time>
      </trkpt>
      <trkpt lat="49.85325294546783" lon="6.109547931700945">
        <ele>226.23</ele>
        <time>2024-12-29T15:02:22.787Z</time>
      </trkpt>
      <trkpt lat="49.853390995413065" lon="6.109382975846529">
        <ele>226.88</ele>
        <time>2024-12-29T15:02:26.226Z</time>
      </trkpt>
      <trkpt lat="49.853476993739605" lon="6.109248949214816">
        <ele>227.5</ele>
        <time>2024-12-29T15:02:29.682Z</time>
      </trkpt>
      <trkpt lat="49.85353499650955" lon="6.109139984473586">
        <ele>228.08</ele>
        <time>2024-12-29T15:02:33.150Z</time>
      </trkpt>
      <trkpt lat="49.85358092933893" lon="6.109055997803807">
        <ele>228.6</ele>
        <time>2024-12-29T15:02:36.627Z</time>
      </trkpt>
      <trkpt lat="49.85367899760604" lon="6.108947955071926">
        <ele>229.07</ele>
        <time>2024-12-29T15:02:40.120Z</time>
      </trkpt>
      <trkpt lat="49.8537119384855" lon="6.108836978673935">
        <ele>229.47</ele>
        <time>2024-12-29T15:02:43.624Z</time>
      </trkpt>
      <trkpt lat="49.85389793291688" lon="6.108616953715682">
        <ele>229.91</ele>
        <time>2024-12-29T15:02:47.159Z</time>
      </trkpt>
      <trkpt lat="49.854060960933566" lon="6.108647966757417">
        <ele>230.01</ele>
        <time>2024-12-29T15:02:50.716Z</time>
      </trkpt>
      <trkpt lat="49.85414897091687" lon="6.108644949272275">
        <ele>230.1</ele>
        <time>2024-12-29T15:02:54.285Z</time>
      </trkpt>
      <trkpt lat="49.854337982833385" lon="6.108588455244899">
        <ele>230.14</ele>
        <time>2024-12-29T15:02:57.879Z</time>
      </trkpt>
      <trkpt lat="49.854526994749904" lon="6.108531961217523">
        <ele>230.28</ele>
        <time>2024-12-29T15:03:01.499Z</time>
      </trkpt>
      <trkpt lat="49.85466856509447" lon="6.108404891565442">
        <ele>230.44</ele>
        <time>2024-12-29T15:03:05.141Z</time>
      </trkpt>
      <trkpt lat="49.854809967800975" lon="6.108277989551425">
        <ele>230.7</ele>
        <time>2024-12-29T15:03:08.805Z</time>
      </trkpt>
      <trkpt lat="49.85486495308578" lon="6.1082869581878185">
        <ele>230.72</ele>
        <time>2024-12-29T15:03:12.476Z</time>
      </trkpt>
      <trkpt lat="49.85498992726207" lon="6.108187967911363">
        <ele>230.84</ele>
        <time>2024-12-29T15:03:16.166Z</time>
      </trkpt>
      <trkpt lat="49.85503594391048" lon="6.108192997053266">
        <ele>230.92</ele>
        <time>2024-12-29T15:03:19.862Z</time>
      </trkpt>
      <trkpt lat="49.855066956952214" lon="6.108155949041247">
        <ele>231.15</ele>
        <time>2024-12-29T15:03:23.563Z</time>
      </trkpt>
      <trkpt lat="49.8551229480654" lon="6.108136922121048">
        <ele>231.37</ele>
        <time>2024-12-29T15:03:27.272Z</time>
      </trkpt>
      <trkpt lat="49.85518195666373" lon="6.108072968199849">
        <ele>231.68</ele>
        <time>2024-12-29T15:03:30.991Z</time>
      </trkpt>
      <trkpt lat="49.85522696748376" lon="6.108065927401185">
        <ele>231.98</ele>
        <time>2024-12-29T15:03:34.716Z</time>
      </trkpt>
      <trkpt lat="49.85525194555521" lon="6.108027957379818">
        <ele>232.49</ele>
        <time>2024-12-29T15:03:38.445Z</time>
      </trkpt>
      <trkpt lat="49.85529695637524" lon="6.10801194794476">
        <ele>232.99</ele>
        <time>2024-12-29T15:03:42.180Z</time>
      </trkpt>
      <trkpt lat="49.85538496635854" lon="6.107932990416884">
        <ele>233.65</ele>
        <time>2024-12-29T15:03:45.929Z</time>
      </trkpt>
      <trkpt lat="49.85544296912849" lon="6.107893930748105">
        <ele>234.35</ele>
        <time>2024-12-29T15:03:49.686Z</time>
      </trkpt>
      <trkpt lat="49.855538941919804" lon="6.107801981270313">
        <ele>235.2</ele>
        <time>2024-12-29T15:03:53.459Z</time>
      </trkpt>
      <trkpt lat="49.85559895634651" lon="6.1077759973704815">
        <ele>236.11</ele>
        <time>2024-12-29T15:03:57.240Z</time>
      </trkpt>
      <trkpt lat="49.855647990480065" lon="6.107703996822238">
        <ele>237.25</ele>
        <time>2024-12-29T15:04:01.030Z</time>
      </trkpt>
      <trkpt lat="49.85576399601996" lon="6.107596959918737">
        <ele>238.51</ele>
        <time>2024-12-29T15:04:04.838Z</time>
      </trkpt>
      <trkpt lat="49.85578997991979" lon="6.107550943270326">
        <ele>239.84</ele>
        <time>2024-12-29T15:04:08.651Z</time>
      </trkpt>
      <trkpt lat="49.85593808814883" lon="6.107383305206895">
        <ele>241.42</ele>
        <time>2024-12-29T15:04:12.489Z</time>
      </trkpt>
      <trkpt lat="49.85608594492078" lon="6.107215918600559">
        <ele>242.97</ele>
        <time>2024-12-29T15:04:16.351Z</time>
      </trkpt>
      <trkpt lat="49.85611494630575" lon="6.107154982164502">
        <ele>244.54</ele>
        <time>2024-12-29T15:04:20.220Z</time>
      </trkpt>
      <trkpt lat="49.85623497515917" lon="6.1067799758166075">
        <ele>246.45</ele>
        <time>2024-12-29T15:04:24.125Z</time>
      </trkpt>
      <trkpt lat="49.85637595877051" lon="6.106481999158859">
        <ele>248.16</ele>
        <time>2024-12-29T15:04:28.062Z</time>
      </trkpt>
      <trkpt lat="49.8565389867872" lon="6.106345960870385">
        <ele>249.88</ele>
        <time>2024-12-29T15:04:32.023Z</time>
      </trkpt>
      <trkpt lat="49.8565389867872" lon="6.1063458770513535">
        <ele>251.56</ele>
        <time>2024-12-29T15:04:35.984Z</time>
      </trkpt>
      <trkpt lat="49.856784995645285" lon="6.106065921485424">
        <ele>255.15</ele>
        <time>2024-12-29T15:04:39.986Z</time>
      </trkpt>
      <trkpt lat="49.85685699619353" lon="6.105938935652375">
        <ele>256.93</ele>
        <time>2024-12-29T15:04:44.003Z</time>
      </trkpt>
      <trkpt lat="49.85688298009336" lon="6.105848997831345">
        <ele>258.65</ele>
        <time>2024-12-29T15:04:48.028Z</time>
      </trkpt>
      <trkpt lat="49.85699496231973" lon="6.105770962312818">
        <ele>260.41</ele>
        <time>2024-12-29T15:04:52.070Z</time>
      </trkpt>
      <trkpt lat="49.8571069445461" lon="6.105789989233017">
        <ele>261.92</ele>
        <time>2024-12-29T15:04:56.127Z</time>
      </trkpt>
      <trkpt lat="49.857150949537754" lon="6.105781942605972">
        <ele>263.43</ele>
        <time>2024-12-29T15:05:00.190Z</time>
      </trkpt>
      <trkpt lat="49.85728698782623" lon="6.105680940672755">
        <ele>264.95</ele>
        <time>2024-12-29T15:05:04.273Z</time>
      </trkpt>
      <trkpt lat="49.85737198032439" lon="6.105463933199644">
        <ele>266.65</ele>
        <time>2024-12-29T15:05:08.378Z</time>
      </trkpt>
      <trkpt lat="49.85738195478916" lon="6.105363937094808">
        <ele>268.0</ele>
        <time>2024-12-29T15:05:12.491Z</time>
      </trkpt>
      <trkpt lat="49.85735798254609" lon="6.105274921283126">
        <ele>269.24</ele>
        <time>2024-12-29T15:05:16.613Z</time>
      </trkpt>
      <trkpt lat="49.85745093785226" lon="6.105048945173621">
        <ele>270.44</ele>
        <time>2024-12-29T15:05:20.758Z</time>
      </trkpt>
      <trkpt lat="49.857639195397496" lon="6.104783657938242">
        <ele>271.62</ele>
        <time>2024-12-29T15:05:24.937Z</time>
      </trkpt>
      <trkpt lat="49.85782695002854" lon="6.104518957436085">
        <ele>272.53</ele>
        <time>2024-12-29T15:05:29.150Z</time>
      </trkpt>
      <trkpt lat="49.857969442382455" lon="6.104349307715893">
        <ele>273.17</ele>
        <time>2024-12-29T15:05:33.387Z</time>
      </trkpt>
      <trkpt lat="49.85802099108696" lon="6.104287952184677">
        <ele>273.72</ele>
        <time>2024-12-29T15:05:37.632Z</time>
      </trkpt>
      <trkpt lat="49.85803222283721" lon="6.104263728484511">
        <ele>274.2</ele>
        <time>2024-12-29T15:05:41.880Z</time>
      </trkpt>
      <trkpt lat="49.85803599469364" lon="6.104255933314562">
        <ele>274.57</ele>
        <time>2024-12-29T15:05:46.129Z</time>
      </trkpt>
      <trkpt lat="49.85803599469364" lon="6.104208994656801">
        <ele>274.84</ele>
        <time>2024-12-29T15:05:50.382Z</time>
      </trkpt>
      <trkpt lat="49.85802593640983" lon="6.104164989665151">
        <ele>275.01</ele>
        <time>2024-12-29T15:05:54.639Z</time>
      </trkpt>
      <trkpt lat="49.858037922531366" lon="6.104127941653132">
        <ele>275.05</ele>
        <time>2024-12-29T15:05:58.899Z</time>
      </trkpt>
      <trkpt lat="49.85809097997844" lon="6.10408091917634">
        <ele>274.93</ele>
        <time>2024-12-29T15:06:03.168Z</time>
      </trkpt>
      <trkpt lat="49.85818896442652" lon="6.1040919832885265">
        <ele>274.62</ele>
        <time>2024-12-29T15:06:07.450Z</time>
      </trkpt>
      <trkpt lat="49.85833799466491" lon="6.103968936949968">
        <ele>274.29</ele>
        <time>2024-12-29T15:06:11.754Z</time>
      </trkpt>
      <trkpt lat="49.8583659902215" lon="6.103917974978685">
        <ele>273.99</ele>
        <time>2024-12-29T15:06:16.064Z</time>
      </trkpt>
      <trkpt lat="49.858401948586106" lon="6.103886961936951">
        <ele>273.59</ele>
        <time>2024-12-29T15:06:20.379Z</time>
      </trkpt>
      <trkpt lat="49.85845299437642" lon="6.103811943903565">
        <ele>273.13</ele>
        <time>2024-12-29T15:06:24.704Z</time>
      </trkpt>
      <trkpt lat="49.858523989096284" lon="6.103734998032451">
        <ele>272.63</ele>
        <time>2024-12-29T15:06:29.040Z</time>
      </trkpt>
      <trkpt lat="49.8586009349674" lon="6.103672971948981">
        <ele>272.04</ele>
        <time>2024-12-29T15:06:33.388Z</time>
      </trkpt>
      <trkpt lat="49.85864393413067" lon="6.103624943643808">
        <ele>271.43</ele>
        <time>2024-12-29T15:06:37.743Z</time>
      </trkpt>
      <trkpt lat="49.8587579280138" lon="6.103422939777374">
        <ele>270.83</ele>
        <time>2024-12-29T15:06:42.121Z</time>
      </trkpt>
      <trkpt lat="49.85882297158241" lon="6.103320932015777">
        <ele>270.1</ele>
        <time>2024-12-29T15:06:46.512Z</time>
      </trkpt>
      <trkpt lat="49.85902899876237" lon="6.1030729953199625">
        <ele>269.47</ele>
        <time>2024-12-29T15:06:50.937Z</time>
      </trkpt>
      <trkpt lat="49.85921876505017" lon="6.102877110242844">
        <ele>268.53</ele>
        <time>2024-12-29T15:06:55.393Z</time>
      </trkpt>
      <trkpt lat="49.85940861515701" lon="6.1026813089847565">
        <ele>267.59</ele>
        <time>2024-12-29T15:06:59.879Z</time>
      </trkpt>
      <trkpt lat="49.85959796234965" lon="6.102485926821828">
        <ele>266.64</ele>
        <time>2024-12-29T15:07:04.396Z</time>
      </trkpt>
      <trkpt lat="49.85969393514097" lon="6.10244695097208">
        <ele>265.74</ele>
        <time>2024-12-29T15:07:08.926Z</time>
      </trkpt>
      <trkpt lat="49.859833996742964" lon="6.102279983460903">
        <ele>264.86</ele>
        <time>2024-12-29T15:07:13.480Z</time>
      </trkpt>
      <trkpt lat="49.85995595343411" lon="6.102104969322681">
        <ele>264.0</ele>
        <time>2024-12-29T15:07:18.056Z</time>
      </trkpt>
      <trkpt lat="49.85997296869755" lon="6.10208191908896">
        <ele>263.11</ele>
        <time>2024-12-29T15:07:22.635Z</time>
      </trkpt>
      <trkpt lat="49.86011805944145" lon="6.1019874550402164">
        <ele>262.24</ele>
        <time>2024-12-29T15:07:27.235Z</time>
      </trkpt>
      <trkpt lat="49.86026298254728" lon="6.101892990991473">
        <ele>261.35</ele>
        <time>2024-12-29T15:07:31.856Z</time>
      </trkpt>
      <trkpt lat="49.860376976430416" lon="6.101772962138057">
        <ele>260.5</ele>
        <time>2024-12-29T15:07:36.495Z</time>
      </trkpt>
      <trkpt lat="49.86061594448984" lon="6.101719988510013">
        <ele>259.5</ele>
        <time>2024-12-29T15:07:41.166Z</time>
      </trkpt>
      <trkpt lat="49.86066699028015" lon="6.101634996011853">
        <ele>258.66</ele>
        <time>2024-12-29T15:07:45.847Z</time>
      </trkpt>
      <trkpt lat="49.86081291921437" lon="6.10150096938014">
        <ele>257.77</ele>
        <time>2024-12-29T15:07:50.551Z</time>
      </trkpt>
      <trkpt lat="49.860935965552926" lon="6.101429974660277">
        <ele>257.03</ele>
        <time>2024-12-29T15:07:55.273Z</time>
      </trkpt>
      <trkpt lat="49.861106956377625" lon="6.101276921108365">
        <ele>256.31</ele>
        <time>2024-12-29T15:08:00.021Z</time>
      </trkpt>
      <trkpt lat="49.86124894581735" lon="6.101183965802193">
        <ele>255.65</ele>
        <time>2024-12-29T15:08:04.790Z</time>
      </trkpt>
      <trkpt lat="49.861431922763586" lon="6.101101990789175">
        <ele>255.05</ele>
        <time>2024-12-29T15:08:09.584Z</time>
      </trkpt>
      <trkpt lat="49.86151892691851" lon="6.1010759230703115">
        <ele>254.65</ele>
        <time>2024-12-29T15:08:14.390Z</time>
      </trkpt>
      <trkpt lat="49.861788991838694" lon="6.101110959425569">
        <ele>254.25</ele>
        <time>2024-12-29T15:08:19.232Z</time>
      </trkpt>
      <trkpt lat="49.861965011805296" lon="6.1012099497020245">
        <ele>254.03</ele>
        <time>2024-12-29T15:08:24.099Z</time>
      </trkpt>
      <trkpt lat="49.86214094795287" lon="6.10130893997848">
        <ele>254.07</ele>
        <time>2024-12-29T15:08:28.991Z</time>
      </trkpt>
      <trkpt lat="49.862306490540504" lon="6.101375492289662">
        <ele>254.37</ele>
        <time>2024-12-29T15:08:33.906Z</time>
      </trkpt>
      <trkpt lat="49.86247194930911" lon="6.101441960781813">
        <ele>254.76</ele>
        <time>2024-12-29T15:08:38.844Z</time>
      </trkpt>
      <trkpt lat="49.86251696012914" lon="6.101407930254936">
        <ele>255.2</ele>
        <time>2024-12-29T15:08:43.788Z</time>
      </trkpt>
      <trkpt lat="49.86266096122563" lon="6.101402984932065">
        <ele>255.78</ele>
        <time>2024-12-29T15:08:48.752Z</time>
      </trkpt>
      <trkpt lat="49.86274997703731" lon="6.101460987702012">
        <ele>256.28</ele>
        <time>2024-12-29T15:08:53.728Z</time>
      </trkpt>
      <trkpt lat="49.86300193704665" lon="6.101593924686313">
        <ele>256.88</ele>
        <time>2024-12-29T15:08:58.740Z</time>
      </trkpt>
      <trkpt lat="49.86319597810507" lon="6.101636923849583">
        <ele>257.62</ele>
        <time>2024-12-29T15:09:03.778Z</time>
      </trkpt>
      <trkpt lat="49.863381972536445" lon="6.101754941046238">
        <ele>258.4</ele>
        <time>2024-12-29T15:09:08.843Z</time>
      </trkpt>
      <trkpt lat="49.863551119342446" lon="6.101935151964426">
        <ele>259.13</ele>
        <time>2024-12-29T15:09:13.935Z</time>
      </trkpt>
      <trkpt lat="49.86371993087232" lon="6.102114943787456">
        <ele>259.86</ele>
        <time>2024-12-29T15:09:19.055Z</time>
      </trkpt>
      <trkpt lat="49.86380592919886" lon="6.1022719368338585">
        <ele>260.55</ele>
        <time>2024-12-29T15:09:24.192Z</time>
      </trkpt>
      <trkpt lat="49.86399997025728" lon="6.102457931265235">
        <ele>261.33</ele>
        <time>2024-12-29T15:09:29.360Z</time>
      </trkpt>
      <trkpt lat="49.86408395692706" lon="6.102507971227169">
        <ele>262.01</ele>
        <time>2024-12-29T15:09:34.540Z</time>
      </trkpt>
      <trkpt lat="49.8643409460783" lon="6.102635962888598">
        <ele>262.67</ele>
        <time>2024-12-29T15:09:39.756Z</time>
      </trkpt>
      <trkpt lat="49.86440397799015" lon="6.102621965110302">
        <ele>263.17</ele>
        <time>2024-12-29T15:09:44.981Z</time>
      </trkpt>
      <trkpt lat="49.864525934681296" lon="6.102548958733678">
        <ele>263.62</ele>
        <time>2024-12-29T15:09:50.223Z</time>
      </trkpt>
      <trkpt lat="49.86454554833472" lon="6.102905943989754">
        <ele>263.72</ele>
        <time>2024-12-29T15:09:55.496Z</time>
      </trkpt>
      <trkpt lat="49.864564994350076" lon="6.103260917589068">
        <ele>263.74</ele>
        <time>2024-12-29T15:10:00.800Z</time>
      </trkpt>
      <trkpt lat="49.864606987684965" lon="6.103442972525954">
        <ele>263.78</ele>
        <time>2024-12-29T15:10:06.120Z</time>
      </trkpt>
      <trkpt lat="49.86468393355608" lon="6.103696944192052">
        <ele>263.76</ele>
        <time>2024-12-29T15:10:11.464Z</time>
      </trkpt>
      <trkpt lat="49.864782923832536" lon="6.103973966091871">
        <ele>263.67</ele>
        <time>2024-12-29T15:10:16.836Z</time>
      </trkpt>
      <trkpt lat="49.864862971007824" lon="6.104232966899872">
        <ele>263.39</ele>
        <time>2024-12-29T15:10:22.233Z</time>
      </trkpt>
      <trkpt lat="49.86491896212101" lon="6.104325922206044">
        <ele>262.93</ele>
        <time>2024-12-29T15:10:27.641Z</time>
      </trkpt>
      <trkpt lat="49.86500395461917" lon="6.104373950511217">
        <ele>262.33</ele>
        <time>2024-12-29T15:10:33.061Z</time>
      </trkpt>
      <trkpt lat="49.86506598070264" lon="6.10437897965312">
        <ele>261.57</ele>
        <time>2024-12-29T15:10:38.489Z</time>
      </trkpt>
      <trkpt lat="49.86517192795873" lon="6.104347966611385">
        <ele>260.59</ele>
        <time>2024-12-29T15:10:43.931Z</time>
      </trkpt>
      <trkpt lat="49.86526798456907" lon="6.104523986577988">
        <ele>259.37</ele>
        <time>2024-12-29T15:10:49.393Z</time>
      </trkpt>
      <trkpt lat="49.865380972623825" lon="6.104870997369289">
        <ele>257.94</ele>
        <time>2024-12-29T15:10:54.889Z</time>
      </trkpt>
      <trkpt lat="49.86539396457374" lon="6.1049519665539265">
        <ele>256.41</ele>
        <time>2024-12-29T15:11:00.392Z</time>
      </trkpt>
      <trkpt lat="49.865465965121984" lon="6.10510996542871">
        <ele>254.62</ele>
        <time>2024-12-29T15:11:05.912Z</time>
      </trkpt>
      <trkpt lat="49.86558197066188" lon="6.105250949040055">
        <ele>252.66</ele>
        <time>2024-12-29T15:11:11.451Z</time>
      </trkpt>
      <trkpt lat="49.865682972595096" lon="6.1053109634667635">
        <ele>250.61</ele>
        <time>2024-12-29T15:11:17.005Z</time>
      </trkpt>
      <trkpt lat="49.865699987858534" lon="6.1053459998220205">
        <ele>248.49</ele>
        <time>2024-12-29T15:11:22.562Z</time>
      </trkpt>
      <trkpt lat="49.8657569848001" lon="6.105434931814671">
        <ele>246.2</ele>
        <time>2024-12-29T15:11:28.130Z</time>
      </trkpt>
      <trkpt lat="49.86579998396337" lon="6.105528976768255">
        <ele>243.78</ele>
        <time>2024-12-29T15:11:33.708Z</time>
      </trkpt>
      <trkpt lat="49.86584197729826" lon="6.105789989233017">
        <ele>241.2</ele>
        <time>2024-12-29T15:11:39.309Z</time>
      </trkpt>
      <trkpt lat="49.865895956754684" lon="6.105804992839694">
        <ele>238.6</ele>
        <time>2024-12-29T15:11:44.918Z</time>
      </trkpt>
      <trkpt lat="49.86598899587989" lon="6.105963494628668">
        <ele>235.92</ele>
        <time>2024-12-29T15:11:50.545Z</time>
      </trkpt>
      <trkpt lat="49.86605194397271" lon="6.106070950627327">
        <ele>233.18</ele>
        <time>2024-12-29T15:11:56.185Z</time>
      </trkpt>
      <trkpt lat="49.86607499420643" lon="6.106388960033655">
        <ele>230.23</ele>
        <time>2024-12-29T15:12:01.852Z</time>
      </trkpt>
      <trkpt lat="49.866046998649836" lon="6.106789950281382">
        <ele>227.12</ele>
        <time>2024-12-29T15:12:07.554Z</time>
      </trkpt>
      <trkpt lat="49.86600332893431" lon="6.10719203017652">
        <ele>223.75</ele>
        <time>2024-12-29T15:12:13.291Z</time>
      </trkpt>
      <trkpt lat="49.865959994494915" lon="6.1075919307768345">
        <ele>220.58</ele>
        <time>2024-12-29T15:12:19.063Z</time>
      </trkpt>
      <trkpt lat="49.86589729785919" lon="6.108069280162454">
        <ele>217.44</ele>
        <time>2024-12-29T15:12:24.877Z</time>
      </trkpt>
      <trkpt lat="49.865834936499596" lon="6.108543947339058">
        <ele>214.59</ele>
        <time>2024-12-29T15:12:30.733Z</time>
      </trkpt>
      <trkpt lat="49.86586393788457" lon="6.108643943443894">
        <ele>212.06</ele>
        <time>2024-12-29T15:12:36.599Z</time>
      </trkpt>
      <trkpt lat="49.865831919014454" lon="6.108814934268594">
        <ele>209.62</ele>
        <time>2024-12-29T15:12:42.480Z</time>
      </trkpt>
      <trkpt lat="49.8658259678632" lon="6.108862962573767">
        <ele>207.35</ele>
        <time>2024-12-29T15:12:48.365Z</time>
      </trkpt>
      <trkpt lat="49.86580794677138" lon="6.108990954235196">
        <ele>205.22</ele>
        <time>2024-12-29T15:12:54.261Z</time>
      </trkpt>
      <trkpt lat="49.86577995121479" lon="6.109112994745374">
        <ele>203.22</ele>
        <time>2024-12-29T15:13:00.169Z</time>
      </trkpt>
      <trkpt lat="49.86573896370828" lon="6.109205950051546">
        <ele>201.38</ele>
        <time>2024-12-29T15:13:06.086Z</time>
      </trkpt>
      <trkpt lat="49.86568498425186" lon="6.1092549841851">
        <ele>199.74</ele>
        <time>2024-12-29T15:13:12.012Z</time>
      </trkpt>
      <trkpt lat="49.865617929026484" lon="6.109276944771409">
        <ele>198.27</ele>
        <time>2024-12-29T15:13:17.947Z</time>
      </trkpt>
      <trkpt lat="49.865359934046865" lon="6.1092944629490376">
        <ele>196.97</ele>
        <time>2024-12-29T15:13:23.916Z</time>
      </trkpt>
      <trkpt lat="49.865101939067245" lon="6.109311981126666">
        <ele>195.79</ele>
        <time>2024-12-29T15:13:29.920Z</time>
      </trkpt>
      <trkpt lat="49.864910999313" lon="6.1093539744615555">
        <ele>194.89</ele>
        <time>2024-12-29T15:13:35.949Z</time>
      </trkpt>
      <trkpt lat="49.86470245756209" lon="6.109419437125325">
        <ele>194.11</ele>
        <time>2024-12-29T15:13:42.007Z</time>
      </trkpt>
      <trkpt lat="49.86449399963021" lon="6.109484983608127">
        <ele>193.47</ele>
        <time>2024-12-29T15:13:48.093Z</time>
      </trkpt>
      <trkpt lat="49.86424840986729" lon="6.109562432393432">
        <ele>192.83</ele>
        <time>2024-12-29T15:13:54.213Z</time>
      </trkpt>
      <trkpt lat="49.864002987742424" lon="6.109639964997768">
        <ele>192.29</ele>
        <time>2024-12-29T15:14:00.366Z</time>
      </trkpt>
      <trkpt lat="49.86377592198551" lon="6.109687993302941">
        <ele>192.0</ele>
        <time>2024-12-29T15:14:06.550Z</time>
      </trkpt>
      <trkpt lat="49.86348859034479" lon="6.109703918918967">
        <ele>191.95</ele>
        <time>2024-12-29T15:14:12.772Z</time>
      </trkpt>
      <trkpt lat="49.863201258704066" lon="6.109719928354025">
        <ele>191.95</ele>
        <time>2024-12-29T15:14:19.033Z</time>
      </trkpt>
      <trkpt lat="49.862913927063346" lon="6.1097359377890825">
        <ele>192.03</ele>
        <time>2024-12-29T15:14:25.332Z</time>
      </trkpt>
      <trkpt lat="49.862867994233966" lon="6.1097639333456755">
        <ele>192.14</ele>
        <time>2024-12-29T15:14:31.637Z</time>
      </trkpt>
      <trkpt lat="49.86284997314215" lon="6.109811961650848">
        <ele>192.3</ele>
        <time>2024-12-29T15:14:37.947Z</time>
      </trkpt>
      <trkpt lat="49.8628559242934" lon="6.109904916957021">
        <ele>192.53</ele>
        <time>2024-12-29T15:14:44.265Z</time>
      </trkpt>
      <trkpt lat="49.86287704668939" lon="6.11023323610425">
        <ele>192.75</ele>
        <time>2024-12-29T15:14:50.612Z</time>
      </trkpt>
      <trkpt lat="49.86289808526635" lon="6.110561471432447">
        <ele>193.05</ele>
        <time>2024-12-29T15:14:56.987Z</time>
      </trkpt>
      <trkpt lat="49.86291895620525" lon="6.110886940732598">
        <ele>193.44</ele>
        <time>2024-12-29T15:15:03.390Z</time>
      </trkpt>
      <trkpt lat="49.86293898895383" lon="6.11119631677866">
        <ele>193.86</ele>
        <time>2024-12-29T15:15:09.820Z</time>
      </trkpt>
      <trkpt lat="49.86295893788338" lon="6.111503932625055">
        <ele>194.29</ele>
        <time>2024-12-29T15:15:16.277Z</time>
      </trkpt>
      <trkpt lat="49.862993974238634" lon="6.111621949821711">
        <ele>194.73</ele>
        <time>2024-12-29T15:15:22.745Z</time>
      </trkpt>
      <trkpt lat="49.86318298615515" lon="6.111624967306852">
        <ele>195.17</ele>
        <time>2024-12-29T15:15:29.238Z</time>
      </trkpt>
      <trkpt lat="49.86337199807167" lon="6.111627984791994">
        <ele>195.68</ele>
        <time>2024-12-29T15:15:35.757Z</time>
      </trkpt>
      <trkpt lat="49.86367944628" lon="6.111612478271127">
        <ele>196.16</ele>
        <time>2024-12-29T15:15:42.317Z</time>
      </trkpt>
      <trkpt lat="49.863986978307366" lon="6.111596971750259">
        <ele>196.55</ele>
        <time>2024-12-29T15:15:48.918Z</time>
      </trkpt>
      <trkpt lat="49.86429199576378" lon="6.11157794483006">
        <ele>196.89</ele>
        <time>2024-12-29T15:15:55.560Z</time>
      </trkpt>
      <trkpt lat="49.86459692940116" lon="6.111558917909861">
        <ele>197.25</ele>
        <time>2024-12-29T15:16:02.242Z</time>
      </trkpt>
      <trkpt lat="49.86486749723554" lon="6.111560678109527">
        <ele>197.8</ele>
        <time>2024-12-29T15:16:08.960Z</time>
      </trkpt>
      <trkpt lat="49.86513798125088" lon="6.111562438309193">
        <ele>198.35</ele>
        <time>2024-12-29T15:16:15.714Z</time>
      </trkpt>
      <trkpt lat="49.86540846526623" lon="6.111564198508859">
        <ele>198.9</ele>
        <time>2024-12-29T15:16:22.505Z</time>
      </trkpt>
      <trkpt lat="49.86567894928157" lon="6.111565958708525">
        <ele>199.39</ele>
        <time>2024-12-29T15:16:29.332Z</time>
      </trkpt>
      <trkpt lat="49.8657519556582" lon="6.111496975645423">
        <ele>199.8</ele>
        <time>2024-12-29T15:16:36.170Z</time>
      </trkpt>
      <trkpt lat="49.865896962583065" lon="6.1114979814738035">
        <ele>200.25</ele>
        <time>2024-12-29T15:16:43.027Z</time>
      </trkpt>
      <trkpt lat="49.86607398837805" lon="6.111476942896843">
        <ele>200.7</ele>
        <time>2024-12-29T15:16:49.908Z</time>
      </trkpt>
      <trkpt lat="49.866250930354" lon="6.111455988138914">
        <ele>201.14</ele>
        <time>2024-12-29T15:16:56.813Z</time>
      </trkpt>
      <trkpt lat="49.86633994616568" lon="6.111461939290166">
        <ele>201.59</ele>
        <time>2024-12-29T15:17:03.730Z</time>
      </trkpt>
      <trkpt lat="49.866499956697226" lon="6.11149194650352">
        <ele>202.04</ele>
        <time>2024-12-29T15:17:10.668Z</time>
      </trkpt>
      <trkpt lat="49.866733476519585" lon="6.1115471832454205">
        <ele>202.54</ele>
        <time>2024-12-29T15:17:17.638Z</time>
      </trkpt>
      <trkpt lat="49.866966996341944" lon="6.111602503806353">
        <ele>203.11</ele>
        <time>2024-12-29T15:17:24.639Z</time>
      </trkpt>
      <trkpt lat="49.8672005161643" lon="6.111657740548253">
        <ele>203.73</ele>
        <time>2024-12-29T15:17:31.672Z</time>
      </trkpt>
      <trkpt lat="49.86743395216763" lon="6.1117129772901535">
        <ele>204.35</ele>
        <time>2024-12-29T15:17:38.736Z</time>
      </trkpt>
      <trkpt lat="49.86749296076596" lon="6.11172697506845">
        <ele>204.96</ele>
        <time>2024-12-29T15:17:45.808Z</time>
      </trkpt>
      <trkpt lat="49.867654982954264" lon="6.111820936203003">
        <ele>205.63</ele>
        <time>2024-12-29T15:17:52.903Z</time>
      </trkpt>
      <trkpt lat="49.86779998987913" lon="6.111956974491477">
        <ele>206.39</ele>
        <time>2024-12-29T15:18:00.021Z</time>
      </trkpt>
      <trkpt lat="49.86779596656561" lon="6.1120719742029905">
        <ele>207.2</ele>
        <time>2024-12-29T15:18:07.149Z</time>
      </trkpt>
      <trkpt lat="49.86771994270384" lon="6.112102987244725">
        <ele>207.97</ele>
        <time>2024-12-29T15:18:14.287Z</time>
      </trkpt>
      <trkpt lat="49.867724971845746" lon="6.112197954207659">
        <ele>208.85</ele>
        <time>2024-12-29T15:18:21.434Z</time>
      </trkpt>
      <trkpt lat="49.8678794503212" lon="6.112148920074105">
        <ele>209.64</ele>
        <time>2024-12-29T15:18:28.602Z</time>
      </trkpt>
      <trkpt lat="49.86803392879665" lon="6.1120999697595835">
        <ele>210.43</ele>
        <time>2024-12-29T15:18:35.791Z</time>
      </trkpt>
      <trkpt lat="49.86807156354189" lon="6.112398281693459">
        <ele>211.65</ele>
        <time>2024-12-29T15:18:43.006Z</time>
      </trkpt>
      <trkpt lat="49.868108946830034" lon="6.112694917246699">
        <ele>212.87</ele>
        <time>2024-12-29T15:18:50.247Z</time>
      </trkpt>
      <trkpt lat="49.86816795542836" lon="6.112818969413638">
        <ele>214.05</ele>
        <time>2024-12-29T15:18:57.501Z</time>
      </trkpt>
      <trkpt lat="49.868258982896805" lon="6.112873954698443">
        <ele>215.2</ele>
        <time>2024-12-29T15:19:04.768Z</time>
      </trkpt>
      <trkpt lat="49.86840298399329" lon="6.112877978011966">
        <ele>216.37</ele>
        <time>2024-12-29T15:19:12.055Z</time>
      </trkpt>
      <trkpt lat="49.868412958458066" lon="6.112656947225332">
        <ele>217.56</ele>
        <time>2024-12-29T15:19:19.361Z</time>
      </trkpt>
      <trkpt lat="49.868435924872756" lon="6.112584946677089">
        <ele>218.87</ele>
        <time>2024-12-29T15:19:26.674Z</time>
      </trkpt>
      <trkpt lat="49.86853692680597" lon="6.112465923652053">
        <ele>220.25</ele>
        <time>2024-12-29T15:19:34.004Z</time>
      </trkpt>
      <trkpt lat="49.868603982031345" lon="6.112399958074093">
        <ele>221.79</ele>
        <time>2024-12-29T15:19:41.344Z</time>
      </trkpt>
      <trkpt lat="49.86868595704436" lon="6.112365927547216">
        <ele>223.44</ele>
        <time>2024-12-29T15:19:48.696Z</time>
      </trkpt>
      <trkpt lat="49.86875192262232" lon="6.112368945032358">
        <ele>225.18</ele>
        <time>2024-12-29T15:19:56.056Z</time>
      </trkpt>
      <trkpt lat="49.86882593482733" lon="6.112419990822673">
        <ele>227.04</ele>
        <time>2024-12-29T15:20:03.427Z</time>
      </trkpt>
      <trkpt lat="49.86889198422432" lon="6.112499954178929">
        <ele>229.0</ele>
        <time>2024-12-29T15:20:10.809Z</time>
      </trkpt>
      <trkpt lat="49.86893598921597" lon="6.112581929191947">
        <ele>231.03</ele>
        <time>2024-12-29T15:20:18.201Z</time>
      </trkpt>
      <trkpt lat="49.869034979492426" lon="6.112847970798612">
        <ele>233.28</ele>
        <time>2024-12-29T15:20:25.619Z</time>
      </trkpt>
      <trkpt lat="49.869120977818966" lon="6.112975962460041">
        <ele>235.53</ele>
        <time>2024-12-29T15:20:33.053Z</time>
      </trkpt>
      <trkpt lat="49.869246957823634" lon="6.113125998526812">
        <ele>237.82</ele>
        <time>2024-12-29T15:20:40.508Z</time>
      </trkpt>
      <trkpt lat="49.86941291950643" lon="6.113291960209608">
        <ele>240.2</ele>
        <time>2024-12-29T15:20:47.990Z</time>
      </trkpt>
      <trkpt lat="49.869610061869025" lon="6.113453060388565">
        <ele>242.64</ele>
        <time>2024-12-29T15:20:55.501Z</time>
      </trkpt>
      <trkpt lat="49.869806952774525" lon="6.113613992929459">
        <ele>245.07</ele>
        <time>2024-12-29T15:21:03.042Z</time>
      </trkpt>
      <trkpt lat="49.869894962757826" lon="6.113652968779206">
        <ele>247.36</ele>
        <time>2024-12-29T15:21:10.595Z</time>
      </trkpt>
      <trkpt lat="49.869959922507405" lon="6.113647939637303">
        <ele>249.59</ele>
        <time>2024-12-29T15:21:18.157Z</time>
      </trkpt>
      <trkpt lat="49.870067965239286" lon="6.113746929913759">
        <ele>251.81</ele>
        <time>2024-12-29T15:21:25.736Z</time>
      </trkpt>
      <trkpt lat="49.870150946080685" lon="6.113736955448985">
        <ele>253.92</ele>
        <time>2024-12-29T15:21:33.326Z</time>
      </trkpt>
      <trkpt lat="49.87020693719387" lon="6.113750953227282">
        <ele>255.93</ele>
        <time>2024-12-29T15:21:40.923Z</time>
      </trkpt>
      <trkpt lat="49.870383124798536" lon="6.113964691758156">
        <ele>257.95</ele>
        <time>2024-12-29T15:21:48.550Z</time>
      </trkpt>
      <trkpt lat="49.870558977127075" lon="6.11417792737484">
        <ele>259.81</ele>
        <time>2024-12-29T15:21:56.207Z</time>
      </trkpt>
      <trkpt lat="49.87067397683859" lon="6.114245988428593">
        <ele>261.51</ele>
        <time>2024-12-29T15:22:03.881Z</time>
      </trkpt>
      <trkpt lat="49.87081462517381" lon="6.114411111921072">
        <ele>263.07</ele>
        <time>2024-12-29T15:22:11.578Z</time>
      </trkpt>
      <trkpt lat="49.8709549382329" lon="6.114575983956456">
        <ele>264.49</ele>
        <time>2024-12-29T15:22:19.299Z</time>
      </trkpt>
      <trkpt lat="49.871094077825546" lon="6.1147481482476">
        <ele>265.72</ele>
        <time>2024-12-29T15:22:27.043Z</time>
      </trkpt>
      <trkpt lat="49.8712329659611" lon="6.114919977262616">
        <ele>266.8</ele>
        <time>2024-12-29T15:22:34.811Z</time>
      </trkpt>
      <trkpt lat="49.87132893875241" lon="6.115082921460271">
        <ele>267.7</ele>
        <time>2024-12-29T15:22:42.598Z</time>
      </trkpt>
      <trkpt lat="49.8714642226696" lon="6.115345945581794">
        <ele>268.49</ele>
        <time>2024-12-29T15:22:50.414Z</time>
      </trkpt>
      <trkpt lat="49.87159891985357" lon="6.115607963874936">
        <ele>269.11</ele>
        <time>2024-12-29T15:22:58.259Z</time>
      </trkpt>
      <trkpt lat="49.87171467393637" lon="6.115810805931687">
        <ele>269.54</ele>
        <time>2024-12-29T15:23:06.127Z</time>
      </trkpt>
      <trkpt lat="49.871829925104976" lon="6.116012977436185">
        <ele>269.79</ele>
        <time>2024-12-29T15:23:14.019Z</time>
      </trkpt>
      <trkpt lat="49.87197669222951" lon="6.11624582670629">
        <ele>269.9</ele>
        <time>2024-12-29T15:23:21.939Z</time>
      </trkpt>
      <trkpt lat="49.87212295643985" lon="6.11647792160511">
        <ele>269.82</ele>
        <time>2024-12-29T15:23:29.887Z</time>
      </trkpt>
      <trkpt lat="49.872235944494605" lon="6.116628963500261">
        <ele>269.57</ele>
        <time>2024-12-29T15:23:37.855Z</time>
      </trkpt>
      <trkpt lat="49.87234893254936" lon="6.116734994575381">
        <ele>269.15</ele>
        <time>2024-12-29T15:23:45.840Z</time>
      </trkpt>
      <trkpt lat="49.87251682206988" lon="6.116974633187056">
        <ele>268.6</ele>
        <time>2024-12-29T15:23:53.856Z</time>
      </trkpt>
      <trkpt lat="49.87268471159041" lon="6.11721427179873">
        <ele>267.98</ele>
        <time>2024-12-29T15:24:01.902Z</time>
      </trkpt>
      <trkpt lat="49.87285193055868" lon="6.117452988401055">
        <ele>267.23</ele>
        <time>2024-12-29T15:24:09.979Z</time>
      </trkpt>
      <trkpt lat="49.8728509247303" lon="6.117451982572675">
        <ele>266.38</ele>
        <time>2024-12-29T15:24:18.056Z</time>
      </trkpt>
      <trkpt lat="49.87293398939073" lon="6.11756999976933">
        <ele>265.37</ele>
        <time>2024-12-29T15:24:26.148Z</time>
      </trkpt>
      <trkpt lat="49.873148733749986" lon="6.117909466847777">
        <ele>264.09</ele>
        <time>2024-12-29T15:24:34.281Z</time>
      </trkpt>
      <trkpt lat="49.87336297519505" lon="6.118247928097844">
        <ele>263.06</ele>
        <time>2024-12-29T15:24:42.455Z</time>
      </trkpt>
      <trkpt lat="49.87348895519972" lon="6.118420930579305">
        <ele>262.01</ele>
        <time>2024-12-29T15:24:50.651Z</time>
      </trkpt>
      <trkpt lat="49.87360294908285" lon="6.118531990796328">
        <ele>260.83</ele>
        <time>2024-12-29T15:24:58.865Z</time>
      </trkpt>
      <trkpt lat="49.873654916882515" lon="6.118591921404004">
        <ele>259.69</ele>
        <time>2024-12-29T15:25:07.088Z</time>
      </trkpt>
      <trkpt lat="49.87375793047249" lon="6.118750926107168">
        <ele>258.52</ele>
        <time>2024-12-29T15:25:15.330Z</time>
      </trkpt>
      <trkpt lat="49.87390989437699" lon="6.119050495326519">
        <ele>257.28</ele>
        <time>2024-12-29T15:25:23.605Z</time>
      </trkpt>
      <trkpt lat="49.87406185828149" lon="6.119349980726838">
        <ele>256.11</ele>
        <time>2024-12-29T15:25:31.913Z</time>
      </trkpt>
      <trkpt lat="49.874212983995676" lon="6.119647957384586">
        <ele>254.99</ele>
        <time>2024-12-29T15:25:40.253Z</time>
      </trkpt>
      <trkpt lat="49.874233938753605" lon="6.11978592351079">
        <ele>254.09</ele>
        <time>2024-12-29T15:25:48.606Z</time>
      </trkpt>
      <trkpt lat="49.874231005087495" lon="6.120008463039994">
        <ele>253.25</ele>
        <time>2024-12-29T15:25:56.978Z</time>
      </trkpt>
      <trkpt lat="49.87423092126846" lon="6.120011983439326">
        <ele>252.6</ele>
        <time>2024-12-29T15:26:05.350Z</time>
      </trkpt>
      <trkpt lat="49.874258916825056" lon="6.120175933465362">
        <ele>251.96</ele>
        <time>2024-12-29T15:26:13.737Z</time>
      </trkpt>
      <trkpt lat="49.87426294013858" lon="6.120269978418946">
        <ele>251.53</ele>
        <time>2024-12-29T15:26:22.132Z</time>
      </trkpt>
      <trkpt lat="49.874275932088494" lon="6.120355976745486">
        <ele>251.21</ele>
        <time>2024-12-29T15:26:30.535Z</time>
      </trkpt>
      <trkpt lat="49.87439822405577" lon="6.120761409401894">
        <ele>251.17</ele>
        <time>2024-12-29T15:26:38.976Z</time>
      </trkpt>
      <trkpt lat="49.87452051602304" lon="6.121166842058301">
        <ele>251.44</ele>
        <time>2024-12-29T15:26:47.456Z</time>
      </trkpt>
      <trkpt lat="49.87464280799031" lon="6.121572274714708">
        <ele>251.71</ele>
        <time>2024-12-29T15:26:55.974Z</time>
      </trkpt>
      <trkpt lat="49.87476392649114" lon="6.1219739355146885">
        <ele>251.96</ele>
        <time>2024-12-29T15:27:04.531Z</time>
      </trkpt>
      <trkpt lat="49.87493592314422" lon="6.122338967397809">
        <ele>252.05</ele>
        <time>2024-12-29T15:27:13.127Z</time>
      </trkpt>
      <trkpt lat="49.87507808022201" lon="6.122491601854563">
        <ele>252.13</ele>
        <time>2024-12-29T15:27:21.746Z</time>
      </trkpt>
      <trkpt lat="49.875219985842705" lon="6.122643984854221">
        <ele>252.41</ele>
        <time>2024-12-29T15:27:30.388Z</time>
      </trkpt>
      <trkpt lat="49.875326938927174" lon="6.122895944863558">
        <ele>252.89</ele>
        <time>2024-12-29T15:27:39.056Z</time>
      </trkpt>
      <trkpt lat="49.87539365887642" lon="6.12320875748992">
        <ele>253.62</ele>
        <time>2024-12-29T15:27:47.752Z</time>
      </trkpt>
      <trkpt lat="49.875459959730506" lon="6.123519977554679">
        <ele>254.46</ele>
        <time>2024-12-29T15:27:56.476Z</time>
      </trkpt>
      <trkpt lat="49.875535648316145" lon="6.123798592016101">
        <ele>255.16</ele>
        <time>2024-12-29T15:28:05.226Z</time>
      </trkpt>
      <trkpt lat="49.875610917806625" lon="6.124075949192047">
        <ele>255.82</ele>
        <time>2024-12-29T15:28:14.002Z</time>
      </trkpt>
      <trkpt lat="49.875713931396604" lon="6.124335955828428">
        <ele>256.34</ele>
        <time>2024-12-29T15:28:22.805Z</time>
      </trkpt>
      <trkpt lat="49.87578165717423" lon="6.124680368229747">
        <ele>257.0</ele>
        <time>2024-12-29T15:28:31.639Z</time>
      </trkpt>
      <trkpt lat="49.8758489638567" lon="6.125022936612368">
        <ele>257.87</ele>
        <time>2024-12-29T15:28:40.504Z</time>
      </trkpt>
      <trkpt lat="49.875909984111786" lon="6.125095942988992">
        <ele>258.66</ele>
        <time>2024-12-29T15:28:49.379Z</time>
      </trkpt>
      <trkpt lat="49.87610704265535" lon="6.125190993770957">
        <ele>259.49</ele>
        <time>2024-12-29T15:28:58.282Z</time>
      </trkpt>
      <trkpt lat="49.87630393356085" lon="6.1252859607338905">
        <ele>260.39</ele>
        <time>2024-12-29T15:29:07.212Z</time>
      </trkpt>
      <trkpt lat="49.87653410062194" lon="6.125461561605334">
        <ele>261.38</ele>
        <time>2024-12-29T15:29:16.176Z</time>
      </trkpt>
      <trkpt lat="49.8767639324069" lon="6.125636994838715">
        <ele>262.4</ele>
        <time>2024-12-29T15:29:25.175Z</time>
      </trkpt>
      <trkpt lat="49.87701195292175" lon="6.125835981220007">
        <ele>263.47</ele>
        <time>2024-12-29T15:29:34.211Z</time>
      </trkpt>
      <trkpt lat="49.87721445970237" lon="6.125921476632357">
        <ele>264.51</ele>
        <time>2024-12-29T15:29:43.275Z</time>
      </trkpt>
      <trkpt lat="49.877416966483" lon="6.126006972044706">
        <ele>265.57</ele>
        <time>2024-12-29T15:29:52.367Z</time>
      </trkpt>
      <trkpt lat="49.87746298313141" lon="6.125870514661074">
        <ele>266.56</ele>
        <time>2024-12-29T15:30:01.472Z</time>
      </trkpt>
      <trkpt lat="49.877501958981156" lon="6.125754928216338">
        <ele>267.59</ele>
        <time>2024-12-29T15:30:10.588Z</time>
      </trkpt>
      <trkpt lat="49.87757697701454" lon="6.125577986240387">
        <ele>268.68</ele>
        <time>2024-12-29T15:30:19.723Z</time>
      </trkpt>
      <trkpt lat="49.87763799726963" lon="6.125534987077117">
        <ele>269.72</ele>
        <time>2024-12-29T15:30:28.867Z</time>
      </trkpt>
      <trkpt lat="49.877709997817874" lon="6.125513948500156">
        <ele>270.73</ele>
        <time>2024-12-29T15:30:38.020Z</time>
      </trkpt>
      <trkpt lat="49.87792348489165" lon="6.1256149504333735">
        <ele>271.8</ele>
        <time>2024-12-29T15:30:47.203Z</time>
      </trkpt>
      <trkpt lat="49.87813697196543" lon="6.1257159523665905">
        <ele>272.83</ele>
        <time>2024-12-29T15:30:56.416Z</time>
      </trkpt>
      <trkpt lat="49.87830293364823" lon="6.1258249171078205">
        <ele>273.77</ele>
        <time>2024-12-29T15:31:05.653Z</time>
      </trkpt>
      <trkpt lat="49.87843595445156" lon="6.125898929312825">
        <ele>274.64</ele>
        <time>2024-12-29T15:31:14.909Z</time>
      </trkpt>
      <trkpt lat="49.87867299467325" lon="6.126009989529848">
        <ele>275.57</ele>
        <time>2024-12-29T15:31:24.198Z</time>
      </trkpt>
      <trkpt lat="49.87883694469929" lon="6.126116942614317">
        <ele>276.35</ele>
        <time>2024-12-29T15:31:33.511Z</time>
      </trkpt>
      <trkpt lat="49.879092928022146" lon="6.126363957300782">
        <ele>277.02</ele>
        <time>2024-12-29T15:31:42.864Z</time>
      </trkpt>
      <trkpt lat="49.879343966022134" lon="6.126642990857363">
        <ele>277.58</ele>
        <time>2024-12-29T15:31:52.258Z</time>
      </trkpt>
      <trkpt lat="49.87956499680877" lon="6.126937950029969">
        <ele>278.07</ele>
        <time>2024-12-29T15:32:01.691Z</time>
      </trkpt>
      <trkpt lat="49.87973598763347" lon="6.127117993310094">
        <ele>278.54</ele>
        <time>2024-12-29T15:32:11.152Z</time>
      </trkpt>
      <trkpt lat="49.87981393933296" lon="6.1271419655531645">
        <ele>279.0</ele>
        <time>2024-12-29T15:32:20.623Z</time>
      </trkpt>
      <trkpt lat="49.87989298067987" lon="6.12713391892612">
        <ele>279.45</ele>
        <time>2024-12-29T15:32:30.105Z</time>
      </trkpt>
      <trkpt lat="49.88006992265582" lon="6.127031994983554">
        <ele>279.93</ele>
        <time>2024-12-29T15:32:39.612Z</time>
      </trkpt>
      <trkpt lat="49.88026195205748" lon="6.126937950029969">
        <ele>280.29</ele>
        <time>2024-12-29T15:32:49.146Z</time>
      </trkpt>
      <trkpt lat="49.880530927330256" lon="6.126729995012283">
        <ele>280.46</ele>
        <time>2024-12-29T15:32:58.720Z</time>
      </trkpt>
      <trkpt lat="49.880612986162305" lon="6.126678949221969">
        <ele>280.77</ele>
        <time>2024-12-29T15:33:08.306Z</time>
      </trkpt>
      <trkpt lat="49.88077492453158" lon="6.1266539711505175">
        <ele>281.11</ele>
        <time>2024-12-29T15:33:17.914Z</time>
      </trkpt>
      <trkpt lat="49.88088992424309" lon="6.126662939786911">
        <ele>281.55</ele>
        <time>2024-12-29T15:33:27.537Z</time>
      </trkpt>
      <trkpt lat="49.88103493116796" lon="6.12665799446404">
        <ele>282.12</ele>
        <time>2024-12-29T15:33:37.179Z</time>
      </trkpt>
      <trkpt lat="49.88111799582839" lon="6.126682972535491">
        <ele>282.72</ele>
        <time>2024-12-29T15:33:46.833Z</time>
      </trkpt>
      <trkpt lat="49.88126954063773" lon="6.126791015267372">
        <ele>283.42</ele>
        <time>2024-12-29T15:33:56.509Z</time>
      </trkpt>
      <trkpt lat="49.88142091780901" lon="6.126898974180222">
        <ele>284.15</ele>
        <time>2024-12-29T15:34:06.207Z</time>
      </trkpt>
      <trkpt lat="49.881572630256414" lon="6.127058062702417">
        <ele>284.99</ele>
        <time>2024-12-29T15:34:15.930Z</time>
      </trkpt>
      <trkpt lat="49.88172392360866" lon="6.12721698358655">
        <ele>285.9</ele>
        <time>2024-12-29T15:34:25.677Z</time>
      </trkpt>
      <trkpt lat="49.881815956905484" lon="6.127338940277696">
        <ele>286.77</ele>
        <time>2024-12-29T15:34:35.440Z</time>
      </trkpt>
      <trkpt lat="49.88193464465439" lon="6.1275021359324455">
        <ele>287.65</ele>
        <time>2024-12-29T15:34:45.224Z</time>
      </trkpt>
      <trkpt lat="49.882052997127175" lon="6.1276649963110685">
        <ele>288.55</ele>
        <time>2024-12-29T15:34:55.030Z</time>
      </trkpt>
      <trkpt lat="49.88215492106974" lon="6.127880997955799">
        <ele>289.43</ele>
        <time>2024-12-29T15:35:04.859Z</time>
      </trkpt>
      <trkpt lat="49.88218266516924" lon="6.127959787845612">
        <ele>290.35</ele>
        <time>2024-12-29T15:35:14.695Z</time>
      </trkpt>
      <trkpt lat="49.88227520138025" lon="6.128222728148103">
        <ele>291.26</ele>
        <time>2024-12-29T15:35:24.557Z</time>
      </trkpt>
      <trkpt lat="49.882395481690764" lon="6.128564458340406">
        <ele>292.27</ele>
        <time>2024-12-29T15:35:34.453Z</time>
      </trkpt>
      <trkpt lat="49.88251492381096" lon="6.128903925418854">
        <ele>293.37</ele>
        <time>2024-12-29T15:35:44.382Z</time>
      </trkpt>
      <trkpt lat="49.88264392130077" lon="6.12923895008862">
        <ele>294.53</ele>
        <time>2024-12-29T15:35:54.345Z</time>
      </trkpt>
      <trkpt lat="49.88270997069776" lon="6.1294809356331825">
        <ele>295.69</ele>
        <time>2024-12-29T15:36:04.330Z</time>
      </trkpt>
      <trkpt lat="49.882741989567876" lon="6.129674976691604">
        <ele>296.86</ele>
        <time>2024-12-29T15:36:14.333Z</time>
      </trkpt>
      <trkpt lat="49.882779037579894" lon="6.130018886178732">
        <ele>298.09</ele>
        <time>2024-12-29T15:36:24.366Z</time>
      </trkpt>
      <trkpt lat="49.882816169410944" lon="6.13036279566586">
        <ele>299.31</ele>
        <time>2024-12-29T15:36:34.429Z</time>
      </trkpt>
      <trkpt lat="49.88285296596587" lon="6.130703939124942">
        <ele>300.48</ele>
        <time>2024-12-29T15:36:44.522Z</time>
      </trkpt>
      <trkpt lat="49.88286193460226" lon="6.130803935229778">
        <ele>301.59</ele>
        <time>2024-12-29T15:36:54.623Z</time>
      </trkpt>
      <trkpt lat="49.88288599066436" lon="6.130882976576686">
        <ele>302.7</ele>
        <time>2024-12-29T15:37:04.732Z</time>
      </trkpt>
      <trkpt lat="49.88298699259758" lon="6.131097972393036">
        <ele>303.8</ele>
        <time>2024-12-29T15:37:14.864Z</time>
      </trkpt>
      <trkpt lat="49.883107943460345" lon="6.131545985117555">
        <ele>305.03</ele>
        <time>2024-12-29T15:37:25.038Z</time>
      </trkpt>
      <trkpt lat="49.883170975372195" lon="6.132014952600002">
        <ele>306.27</ele>
        <time>2024-12-29T15:37:35.253Z</time>
      </trkpt>
      <trkpt lat="49.883214980363846" lon="6.132186949253082">
        <ele>307.4</ele>
        <time>2024-12-29T15:37:45.484Z</time>
      </trkpt>
      <trkpt lat="49.88328396342695" lon="6.132315946742892">
        <ele>308.5</ele>
        <time>2024-12-29T15:37:55.729Z</time>
      </trkpt>
      <trkpt lat="49.88329184241593" lon="6.132325502112508">
        <ele>309.55</ele>
        <time>2024-12-29T15:38:05.976Z</time>
      </trkpt>
      <trkpt lat="49.883428970351815" lon="6.132490960881114">
        <ele>310.58</ele>
        <time>2024-12-29T15:38:16.246Z</time>
      </trkpt>
      <trkpt lat="49.883644971996546" lon="6.132630938664079">
        <ele>311.58</ele>
        <time>2024-12-29T15:38:26.547Z</time>
      </trkpt>
      <trkpt lat="49.883880503475666" lon="6.132713500410318">
        <ele>312.63</ele>
        <time>2024-12-29T15:38:36.880Z</time>
      </trkpt>
      <trkpt lat="49.884115951135755" lon="6.132795978337526">
        <ele>313.73</ele>
        <time>2024-12-29T15:38:47.246Z</time>
      </trkpt>
      <trkpt lat="49.88427856005728" lon="6.132950037717819">
        <ele>314.86</ele>
        <time>2024-12-29T15:38:57.637Z</time>
      </trkpt>
      <trkpt lat="49.884440917521715" lon="6.133103929460049">
        <ele>315.87</ele>
        <time>2024-12-29T15:39:08.053Z</time>
      </trkpt>
      <trkpt lat="49.884580140933394" lon="6.133297719061375">
        <ele>316.89</ele>
        <time>2024-12-29T15:39:18.494Z</time>
      </trkpt>
      <trkpt lat="49.884718945249915" lon="6.133490921929479">
        <ele>317.83</ele>
        <time>2024-12-29T15:39:28.960Z</time>
      </trkpt>
      <trkpt lat="49.88491114228964" lon="6.133731734007597">
        <ele>318.71</ele>
        <time>2024-12-29T15:39:39.459Z</time>
      </trkpt>
      <trkpt lat="49.8851029202342" lon="6.133971959352493">
        <ele>319.52</ele>
        <time>2024-12-29T15:39:49.991Z</time>
      </trkpt>
      <trkpt lat="49.885210962966084" lon="6.134035997092724">
        <ele>320.36</ele>
        <time>2024-12-29T15:40:00.539Z</time>
      </trkpt>
      <trkpt lat="49.88533794879913" lon="6.134055946022272">
        <ele>321.16</ele>
        <time>2024-12-29T15:40:11.104Z</time>
      </trkpt>
      <trkpt lat="49.885445991531014" lon="6.134098945185542">
        <ele>321.95</ele>
        <time>2024-12-29T15:40:21.684Z</time>
      </trkpt>
      <trkpt lat="49.88560792990029" lon="6.134188966825604">
        <ele>322.76</ele>
        <time>2024-12-29T15:40:32.287Z</time>
      </trkpt>
      <trkpt lat="49.88588562235236" lon="6.134393569082022">
        <ele>323.52</ele>
        <time>2024-12-29T15:40:42.931Z</time>
      </trkpt>
      <trkpt lat="49.88616297952831" lon="6.134597919881344">
        <ele>324.36</ele>
        <time>2024-12-29T15:40:53.616Z</time>
      </trkpt>
      <trkpt lat="49.88627093844116" lon="6.1346339620649815">
        <ele>325.12</ele>
        <time>2024-12-29T15:41:04.315Z</time>
      </trkpt>
      <trkpt lat="49.88635794259608" lon="6.134632956236601">
        <ele>325.87</ele>
        <time>2024-12-29T15:41:15.026Z</time>
      </trkpt>
      <trkpt lat="49.88640597090125" lon="6.134614935144782">
        <ele>326.62</ele>
        <time>2024-12-29T15:41:25.744Z</time>
      </trkpt>
      <trkpt lat="49.88657394424081" lon="6.1344849318265915">
        <ele>327.37</ele>
        <time>2024-12-29T15:41:36.487Z</time>
      </trkpt>
      <trkpt lat="49.88669699057937" lon="6.134318970143795">
        <ele>328.12</ele>
        <time>2024-12-29T15:41:47.252Z</time>
      </trkpt>
      <trkpt lat="49.886779971420765" lon="6.134159965440631">
        <ele>328.89</ele>
        <time>2024-12-29T15:41:58.034Z</time>
      </trkpt>
      <trkpt lat="49.88686898723245" lon="6.13392292521894">
        <ele>329.73</ele>
        <time>2024-12-29T15:42:08.840Z</time>
      </trkpt>
      <trkpt lat="49.886983232572675" lon="6.133539704605937">
        <ele>330.67</ele>
        <time>2024-12-29T15:42:19.682Z</time>
      </trkpt>
      <trkpt lat="49.8870974779129" lon="6.133156567811966">
        <ele>331.65</ele>
        <time>2024-12-29T15:42:30.561Z</time>
      </trkpt>
      <trkpt lat="49.887210968881845" lon="6.132775945588946">
        <ele>332.56</ele>
        <time>2024-12-29T15:42:41.476Z</time>
      </trkpt>
      <trkpt lat="49.887275928631425" lon="6.132608978077769">
        <ele>333.52</ele>
        <time>2024-12-29T15:42:52.408Z</time>
      </trkpt>
      <trkpt lat="49.88735396414995" lon="6.132486937567592">
        <ele>334.53</ele>
        <time>2024-12-29T15:43:03.354Z</time>
      </trkpt>
      <trkpt lat="49.88745798356831" lon="6.132393982261419">
        <ele>335.69</ele>
        <time>2024-12-29T15:43:14.316Z</time>
      </trkpt>
      <trkpt lat="49.8875689599663" lon="6.13233195617795">
        <ele>336.96</ele>
        <time>2024-12-29T15:43:25.294Z</time>
      </trkpt>
      <trkpt lat="49.88775998353958" lon="6.132294489070773">
        <ele>338.41</ele>
        <time>2024-12-29T15:43:36.298Z</time>
      </trkpt>
      <trkpt lat="49.88795092329383" lon="6.132256938144565">
        <ele>339.93</ele>
        <time>2024-12-29T15:43:47.328Z</time>
      </trkpt>
      <trkpt lat="49.88816633820534" lon="6.1322216503322124">
        <ele>341.54</ele>
        <time>2024-12-29T15:43:58.386Z</time>
      </trkpt>
      <trkpt lat="49.888381669297814" lon="6.1321862787008286">
        <ele>343.17</ele>
        <time>2024-12-29T15:44:09.473Z</time>
      </trkpt>
      <trkpt lat="49.88859691657126" lon="6.132150990888476">
        <ele>344.71</ele>
        <time>2024-12-29T15:44:20.589Z</time>
      </trkpt>
      <trkpt lat="49.888732954859734" lon="6.132155936211348">
        <ele>346.24</ele>
        <time>2024-12-29T15:44:31.723Z</time>
      </trkpt>
      <trkpt lat="49.88892096094787" lon="6.132230954244733">
        <ele>347.88</ele>
        <time>2024-12-29T15:44:42.883Z</time>
      </trkpt>
      <trkpt lat="49.88899698480964" lon="6.132280994206667">
        <ele>349.46</ele>
        <time>2024-12-29T15:44:54.054Z</time>
      </trkpt>
      <trkpt lat="49.88903998397291" lon="6.132344948127866">
        <ele>351.0</ele>
        <time>2024-12-29T15:45:05.233Z</time>
      </trkpt>
      <trkpt lat="49.889054987579584" lon="6.132435975596309">
        <ele>352.54</ele>
        <time>2024-12-29T15:45:16.420Z</time>
      </trkpt>
      <trkpt lat="49.88912899978459" lon="6.132637979462743">
        <ele>354.1</ele>
        <time>2024-12-29T15:45:27.627Z</time>
      </trkpt>
      <trkpt lat="49.88935028202832" lon="6.13268525339663">
        <ele>355.58</ele>
        <time>2024-12-29T15:45:38.864Z</time>
      </trkpt>
      <trkpt lat="49.88957164809108" lon="6.1327326111495495">
        <ele>357.1</ele>
        <time>2024-12-29T15:45:50.131Z</time>
      </trkpt>
      <trkpt lat="49.889792930334806" lon="6.132779968902469">
        <ele>358.56</ele>
        <time>2024-12-29T15:46:01.428Z</time>
      </trkpt>
      <trkpt lat="49.889956125989556" lon="6.132961101830006">
        <ele>359.96</ele>
        <time>2024-12-29T15:46:12.752Z</time>
      </trkpt>
      <trkpt lat="49.89011898636818" lon="6.1331419833004475">
        <ele>361.24</ele>
        <time>2024-12-29T15:46:24.102Z</time>
      </trkpt>
      <trkpt lat="49.890410928055644" lon="6.133259916678071">
        <ele>362.44</ele>
        <time>2024-12-29T15:46:35.493Z</time>
      </trkpt>
      <trkpt lat="49.89063346758485" lon="6.133202416822314">
        <ele>363.6</ele>
        <time>2024-12-29T15:46:46.914Z</time>
      </trkpt>
      <trkpt lat="49.89085592329502" lon="6.1331449169665575">
        <ele>364.66</ele>
        <time>2024-12-29T15:46:58.365Z</time>
      </trkpt>
      <trkpt lat="49.89090294577181" lon="6.133514977991581">
        <ele>365.39</ele>
        <time>2024-12-29T15:47:09.848Z</time>
      </trkpt>
      <trkpt lat="49.8909449391067" lon="6.133479941636324">
        <ele>366.08</ele>
        <time>2024-12-29T15:47:21.338Z</time>
      </trkpt>
      <trkpt lat="49.89102498628199" lon="6.133229993283749">
        <ele>366.7</ele>
        <time>2024-12-29T15:47:32.852Z</time>
      </trkpt>
      <trkpt lat="49.891097992658615" lon="6.133054979145527">
        <ele>367.08</ele>
        <time>2024-12-29T15:47:44.384Z</time>
      </trkpt>
      <trkpt lat="49.8911539837718" lon="6.132918940857053">
        <ele>367.3</ele>
        <time>2024-12-29T15:47:55.930Z</time>
      </trkpt>
      <trkpt lat="49.891314916312695" lon="6.1326719261705875">
        <ele>367.37</ele>
        <time>2024-12-29T15:48:07.506Z</time>
      </trkpt>
      <trkpt lat="49.89154793322086" lon="6.132371937856078">
        <ele>367.22</ele>
        <time>2024-12-29T15:48:19.122Z</time>
      </trkpt>
      <trkpt lat="49.89176292903721" lon="6.13203096203506">
        <ele>366.78</ele>
        <time>2024-12-29T15:48:30.780Z</time>
      </trkpt>
      <trkpt lat="49.89187717437744" lon="6.131831640377641">
        <ele>366.19</ele>
        <time>2024-12-29T15:48:42.460Z</time>
      </trkpt>
      <trkpt lat="49.89199091680348" lon="6.131632989272475">
        <ele>365.43</ele>
        <time>2024-12-29T15:48:54.163Z</time>
      </trkpt>
      <trkpt lat="49.89207699894905" lon="6.131389997899532">
        <ele>364.56</ele>
        <time>2024-12-29T15:49:05.890Z</time>
      </trkpt>
      <trkpt lat="49.89216995425522" lon="6.131038963794708">
        <ele>363.47</ele>
        <time>2024-12-29T15:49:17.650Z</time>
      </trkpt>
      <trkpt lat="49.892213959246874" lon="6.130722966045141">
        <ele>362.26</ele>
        <time>2024-12-29T15:49:29.438Z</time>
      </trkpt>
      <trkpt lat="49.892273135483265" lon="6.130307391285896">
        <ele>360.82</ele>
        <time>2024-12-29T15:49:41.263Z</time>
      </trkpt>
      <trkpt lat="49.892332311719656" lon="6.12989173270762">
        <ele>359.27</ele>
        <time>2024-12-29T15:49:53.124Z</time>
      </trkpt>
      <trkpt lat="49.892391404137015" lon="6.129476157948375">
        <ele>357.54</ele>
        <time>2024-12-29T15:50:05.022Z</time>
      </trkpt>
      <trkpt lat="49.892449993640184" lon="6.129064941778779">
        <ele>355.71</ele>
        <time>2024-12-29T15:50:16.956Z</time>
      </trkpt>
      <trkpt lat="49.892518976703286" lon="6.128766965121031">
        <ele>353.86</ele>
        <time>2024-12-29T15:50:28.918Z</time>
      </trkpt>
      <trkpt lat="49.89261092618108" lon="6.128493966534734">
        <ele>351.88</ele>
        <time>2024-12-29T15:50:40.906Z</time>
      </trkpt>
      <trkpt lat="49.89269549958408" lon="6.128272600471973">
        <ele>349.9</ele>
        <time>2024-12-29T15:50:52.916Z</time>
      </trkpt>
      <trkpt lat="49.89269558340311" lon="6.128272600471973">
        <ele>347.88</ele>
        <time>2024-12-29T15:51:04.926Z</time>
      </trkpt>
      <trkpt lat="49.89269566722214" lon="6.128272516652942">
        <ele>345.81</ele>
        <time>2024-12-29T15:51:16.936Z</time>
      </trkpt>
      <trkpt lat="49.89277998916805" lon="6.1280519887804985">
        <ele>343.58</ele>
        <time>2024-12-29T15:51:28.968Z</time>
      </trkpt>
      <trkpt lat="49.892923990264535" lon="6.1278449557721615">
        <ele>341.29</ele>
        <time>2024-12-29T15:51:41.027Z</time>
      </trkpt>
      <trkpt lat="49.89298593252897" lon="6.1277789901942015">
        <ele>339.09</ele>
        <time>2024-12-29T15:51:53.096Z</time>
      </trkpt>
      <trkpt lat="49.89320092834532" lon="6.127636916935444">
        <ele>336.7</ele>
        <time>2024-12-29T15:52:05.196Z</time>
      </trkpt>
      <trkpt lat="49.893217608332634" lon="6.127621242776513">
        <ele>334.55</ele>
        <time>2024-12-29T15:52:17.298Z</time>
      </trkpt>
      <trkpt lat="49.89325792528689" lon="6.127582937479019">
        <ele>332.42</ele>
        <time>2024-12-29T15:52:29.407Z</time>
      </trkpt>
      <trkpt lat="49.89328793250024" lon="6.127506997436285">
        <ele>330.29</ele>
        <time>2024-12-29T15:52:41.523Z</time>
      </trkpt>
      <trkpt lat="49.89329899661243" lon="6.1274129524827">
        <ele>328.19</ele>
        <time>2024-12-29T15:52:53.648Z</time>
      </trkpt>
      <trkpt lat="49.89328441210091" lon="6.127165267243981">
        <ele>326.07</ele>
        <time>2024-12-29T15:53:05.794Z</time>
      </trkpt>
      <trkpt lat="49.893269995227456" lon="6.12691892310977">
        <ele>324.07</ele>
        <time>2024-12-29T15:53:17.961Z</time>
      </trkpt>
      <trkpt lat="49.8932349588722" lon="6.1266539711505175">
        <ele>322.26</ele>
        <time>2024-12-29T15:53:30.152Z</time>
      </trkpt>
      <trkpt lat="49.89321794360876" lon="6.126409973949194">
        <ele>320.52</ele>
        <time>2024-12-29T15:53:42.364Z</time>
      </trkpt>
      <trkpt lat="49.89318039268255" lon="6.126058017835021">
        <ele>318.94</ele>
        <time>2024-12-29T15:53:54.607Z</time>
      </trkpt>
      <trkpt lat="49.893142925575376" lon="6.1257079895585775">
        <ele>317.44</ele>
        <time>2024-12-29T15:54:06.880Z</time>
      </trkpt>
      <trkpt lat="49.89308995194733" lon="6.125454939901829">
        <ele>316.12</ele>
        <time>2024-12-29T15:54:19.176Z</time>
      </trkpt>
      <trkpt lat="49.89299599081278" lon="6.125137936323881">
        <ele>314.86</ele>
        <time>2024-12-29T15:54:31.502Z</time>
      </trkpt>
      <trkpt lat="49.892922984436154" lon="6.124845994636416">
        <ele>313.79</ele>
        <time>2024-12-29T15:54:43.855Z</time>
      </trkpt>
      <trkpt lat="49.89282793365419" lon="6.124400999397039">
        <ele>312.97</ele>
        <time>2024-12-29T15:54:56.249Z</time>
      </trkpt>
      <trkpt lat="49.89274696446955" lon="6.124205952510238">
        <ele>312.22</ele>
        <time>2024-12-29T15:55:08.663Z</time>
      </trkpt>
      <trkpt lat="49.89263095892966" lon="6.123856930062175">
        <ele>311.64</ele>
        <time>2024-12-29T15:55:21.111Z</time>
      </trkpt>
      <trkpt lat="49.892538925632834" lon="6.123683927580714">
        <ele>311.26</ele>
        <time>2024-12-29T15:55:33.578Z</time>
      </trkpt>
      <trkpt lat="49.892536997795105" lon="6.123489970341325">
        <ele>311.05</ele>
        <time>2024-12-29T15:55:46.062Z</time>
      </trkpt>
      <trkpt lat="49.89262995310128" lon="6.1233769822865725">
        <ele>311.08</ele>
        <time>2024-12-29T15:55:58.561Z</time>
      </trkpt>
      <trkpt lat="49.89268192090094" lon="6.123346975073218">
        <ele>311.26</ele>
        <time>2024-12-29T15:56:11.068Z</time>
      </trkpt>
      <trkpt lat="49.89273497834802" lon="6.123337922617793">
        <ele>311.6</ele>
        <time>2024-12-29T15:56:23.582Z</time>
      </trkpt>
      <trkpt lat="49.89278292283416" lon="6.123374970629811">
        <ele>312.08</ele>
        <time>2024-12-29T15:56:36.103Z</time>
      </trkpt>
      <trkpt lat="49.89282994531095" lon="6.1234349850565195">
        <ele>312.7</ele>
        <time>2024-12-29T15:56:48.632Z</time>
      </trkpt>
      <trkpt lat="49.892859952524304" lon="6.123449988663197">
        <ele>313.46</ele>
        <time>2024-12-29T15:57:01.165Z</time>
      </trkpt>
      <trkpt lat="49.89286699332297" lon="6.123405983671546">
        <ele>314.36</ele>
        <time>2024-12-29T15:57:13.702Z</time>
      </trkpt>
      <trkpt lat="49.892835980281234" lon="6.123217977583408">
        <ele>315.4</ele>
        <time>2024-12-29T15:57:26.256Z</time>
      </trkpt>
      <trkpt lat="49.89283296279609" lon="6.123162992298603">
        <ele>316.55</ele>
        <time>2024-12-29T15:57:38.815Z</time>
      </trkpt>
      <trkpt lat="49.89284394308925" lon="6.123108929023147">
        <ele>317.86</ele>
        <time>2024-12-29T15:57:51.379Z</time>
      </trkpt>
      <trkpt lat="49.89287093281746" lon="6.123087974265218">
        <ele>319.29</ele>
        <time>2024-12-29T15:58:03.947Z</time>
      </trkpt>
      <trkpt lat="49.8928689211607" lon="6.122980937361717">
        <ele>320.82</ele>
        <time>2024-12-29T15:58:16.524Z</time>
      </trkpt>
      <trkpt lat="49.89299397915602" lon="6.123116975650191">
        <ele>322.55</ele>
        <time>2024-12-29T15:58:29.121Z</time>
      </trkpt>
      <trkpt lat="49.89303697831929" lon="6.1231849528849125">
        <ele>324.26</ele>
        <time>2024-12-29T15:58:41.727Z</time>
      </trkpt>
      <trkpt lat="49.893074948340654" lon="6.123216971755028">
        <ele>326.06</ele>
        <time>2024-12-29T15:58:54.338Z</time>
      </trkpt>
      <trkpt lat="49.893141919746995" lon="6.123304981738329">
        <ele>327.95</ele>
        <time>2024-12-29T15:59:06.961Z</time>
      </trkpt>
      <trkpt lat="49.893160946667194" lon="6.122951935976744">
        <ele>330.06</ele>
        <time>2024-12-29T15:59:19.615Z</time>
      </trkpt>
      <trkpt lat="49.89312297664583" lon="6.122601991519332">
        <ele>332.16</ele>
        <time>2024-12-29T15:59:32.299Z</time>
      </trkpt>
      <trkpt lat="49.89308693446219" lon="6.122144926339388">
        <ele>334.35</ele>
        <time>2024-12-29T15:59:45.023Z</time>
      </trkpt>
      <trkpt lat="49.89306698553264" lon="6.121775954961777">
        <ele>336.55</ele>
        <time>2024-12-29T15:59:57.779Z</time>
      </trkpt>
      <trkpt lat="49.89302298054099" lon="6.12144093029201">
        <ele>338.6</ele>
        <time>2024-12-29T16:00:10.564Z</time>
      </trkpt>
      <trkpt lat="49.892947962507606" lon="6.121131973341107">
        <ele>340.59</ele>
        <time>2024-12-29T16:00:23.378Z</time>
      </trkpt>
      <trkpt lat="49.89293094724417" lon="6.121028959751129">
        <ele>342.6</ele>
        <time>2024-12-29T16:00:36.201Z</time>
      </trkpt>
      <trkpt lat="49.89293094724417" lon="6.121026948094368">
        <ele>344.61</ele>
        <time>2024-12-29T16:00:49.024Z</time>
      </trkpt>
      <trkpt lat="49.89290798082948" lon="6.120884958654642">
        <ele>346.65</ele>
        <time>2024-12-29T16:01:01.860Z</time>
      </trkpt>
      <trkpt lat="49.89291192032397" lon="6.12083793617785">
        <ele>348.7</ele>
        <time>2024-12-29T16:01:14.700Z</time>
      </trkpt>
      <trkpt lat="49.89293094724417" lon="6.120828967541456">
        <ele>350.74</ele>
        <time>2024-12-29T16:01:27.542Z</time>
      </trkpt>
      <trkpt lat="49.89295592531562" lon="6.120859980583191">
        <ele>352.77</ele>
        <time>2024-12-29T16:01:40.389Z</time>
      </trkpt>
      <trkpt lat="49.893012922257185" lon="6.12100993283093">
        <ele>354.79</ele>
        <time>2024-12-29T16:01:53.251Z</time>
      </trkpt>
      <trkpt lat="49.89312113262713" lon="6.121244374662638">
        <ele>356.9</ele>
        <time>2024-12-29T16:02:06.138Z</time>
      </trkpt>
      <trkpt lat="49.893228923901916" lon="6.1214779783040285">
        <ele>358.92</ele>
        <time>2024-12-29T16:02:19.049Z</time>
      </trkpt>
      <trkpt lat="49.893327662721276" lon="6.121725998818874">
        <ele>360.92</ele>
        <time>2024-12-29T16:02:31.985Z</time>
      </trkpt>
      <trkpt lat="49.89342598244548" lon="6.121972929686308">
        <ele>362.94</ele>
        <time>2024-12-29T16:02:44.946Z</time>
      </trkpt>
      <trkpt lat="49.89356176927686" lon="6.12233167514205">
        <ele>364.9</ele>
        <time>2024-12-29T16:02:57.943Z</time>
      </trkpt>
      <trkpt lat="49.893696969375014" lon="6.1226889956742525">
        <ele>366.77</ele>
        <time>2024-12-29T16:03:10.976Z</time>
      </trkpt>
      <trkpt lat="49.89372597075999" lon="6.122722942382097">
        <ele>368.62</ele>
        <time>2024-12-29T16:03:24.014Z</time>
      </trkpt>
      <trkpt lat="49.89373493939638" lon="6.122665945440531">
        <ele>370.43</ele>
        <time>2024-12-29T16:03:37.057Z</time>
      </trkpt>
      <trkpt lat="49.89371398463845" lon="6.122542982921004">
        <ele>372.17</ele>
        <time>2024-12-29T16:03:50.111Z</time>
      </trkpt>
      <trkpt lat="49.89370392635465" lon="6.122369980439544">
        <ele>373.9</ele>
        <time>2024-12-29T16:04:03.180Z</time>
      </trkpt>
      <trkpt lat="49.89371691830456" lon="6.122014923021197">
        <ele>375.67</ele>
        <time>2024-12-29T16:04:16.280Z</time>
      </trkpt>
      <trkpt lat="49.89374206401408" lon="6.121714096516371">
        <ele>377.26</ele>
        <time>2024-12-29T16:04:29.406Z</time>
      </trkpt>
      <trkpt lat="49.8937669582665" lon="6.1214149463921785">
        <ele>378.79</ele>
        <time>2024-12-29T16:04:42.558Z</time>
      </trkpt>
      <trkpt lat="49.89380761049688" lon="6.1210479866713285">
        <ele>380.34</ele>
        <time>2024-12-29T16:04:55.742Z</time>
      </trkpt>
      <trkpt lat="49.893847927451134" lon="6.120682954788208">
        <ele>381.76</ele>
        <time>2024-12-29T16:05:08.958Z</time>
      </trkpt>
      <trkpt lat="49.89384398795664" lon="6.120485980063677">
        <ele>382.92</ele>
        <time>2024-12-29T16:05:22.191Z</time>
      </trkpt>
      <trkpt lat="49.893808951601386" lon="6.120306942611933">
        <ele>383.84</ele>
        <time>2024-12-29T16:05:35.440Z</time>
      </trkpt>
      <trkpt lat="49.89383292384446" lon="6.120003936812282">
        <ele>384.66</ele>
        <time>2024-12-29T16:05:48.715Z</time>
      </trkpt>
      <trkpt lat="49.893871983513236" lon="6.11982699483633">
        <ele>385.31</ele>
        <time>2024-12-29T16:06:02.006Z</time>
      </trkpt>
      <trkpt lat="49.89392495714128" lon="6.119774943217635">
        <ele>385.82</ele>
        <time>2024-12-29T16:06:15.306Z</time>
      </trkpt>
      <trkpt lat="49.894066946581006" lon="6.119737979024649">
        <ele>386.19</ele>
        <time>2024-12-29T16:06:28.625Z</time>
      </trkpt>
      <trkpt lat="49.89394733682275" lon="6.119569754227996">
        <ele>386.2</ele>
        <time>2024-12-29T16:06:41.965Z</time>
      </trkpt>
      <trkpt lat="49.893827978521585" lon="6.119401948526502">
        <ele>386.06</ele>
        <time>2024-12-29T16:06:55.327Z</time>
      </trkpt>
      <trkpt lat="49.89385295659304" lon="6.119360961019993">
        <ele>385.86</ele>
        <time>2024-12-29T16:07:08.694Z</time>
      </trkpt>
      <trkpt lat="49.89388598129153" lon="6.119344951584935">
        <ele>385.52</ele>
        <time>2024-12-29T16:07:22.065Z</time>
      </trkpt>
      <trkpt lat="49.89397097378969" lon="6.119362972676754">
        <ele>385.07</ele>
        <time>2024-12-29T16:07:35.448Z</time>
      </trkpt>
      <trkpt lat="49.894023947417736" lon="6.119412928819656">
        <ele>384.5</ele>
        <time>2024-12-29T16:07:48.839Z</time>
      </trkpt>
      <trkpt lat="49.89411698654294" lon="6.119466992095113">
        <ele>383.82</ele>
        <time>2024-12-29T16:08:02.243Z</time>
      </trkpt>
      <trkpt lat="49.894169960170984" lon="6.119467997923493">
        <ele>382.91</ele>
        <time>2024-12-29T16:08:15.655Z</time>
      </trkpt>
      <trkpt lat="49.894211953505874" lon="6.119483923539519">
        <ele>381.9</ele>
        <time>2024-12-29T16:08:29.072Z</time>
      </trkpt>
      <trkpt lat="49.89430298097432" lon="6.119437990710139">
        <ele>380.64</ele>
        <time>2024-12-29T16:08:42.502Z</time>
      </trkpt>
      <trkpt lat="49.894403982907534" lon="6.119459951296449">
        <ele>379.37</ele>
        <time>2024-12-29T16:08:55.946Z</time>
      </trkpt>
      <trkpt lat="49.8944609798491" lon="6.119514936581254">
        <ele>378.11</ele>
        <time>2024-12-29T16:09:09.399Z</time>
      </trkpt>
      <trkpt lat="49.89448696374893" lon="6.119517954066396">
        <ele>376.71</ele>
        <time>2024-12-29T16:09:22.855Z</time>
      </trkpt>
      <trkpt lat="49.89443399012089" lon="6.119370935484767">
        <ele>375.03</ele>
        <time>2024-12-29T16:09:36.326Z</time>
      </trkpt>
      <trkpt lat="49.89440096542239" lon="6.119318967685103">
        <ele>373.49</ele>
        <time>2024-12-29T16:09:49.803Z</time>
      </trkpt>
      <trkpt lat="49.89435997791588" lon="6.119293989613652">
        <ele>372.0</ele>
        <time>2024-12-29T16:10:03.286Z</time>
      </trkpt>
      <trkpt lat="49.89430499263108" lon="6.11928996630013">
        <ele>370.58</ele>
        <time>2024-12-29T16:10:16.776Z</time>
      </trkpt>
      <trkpt lat="49.89440197125077" lon="6.119128949940205">
        <ele>368.65</ele>
        <time>2024-12-29T16:10:30.285Z</time>
      </trkpt>
      <trkpt lat="49.89444094710052" lon="6.1191339790821075">
        <ele>367.21</ele>
        <time>2024-12-29T16:10:43.799Z</time>
      </trkpt>
      <trkpt lat="49.89448193460703" lon="6.119164992123842">
        <ele>365.9</ele>
        <time>2024-12-29T16:10:57.319Z</time>
      </trkpt>
      <trkpt lat="49.89450993016362" lon="6.119200950488448">
        <ele>364.69</ele>
        <time>2024-12-29T16:11:10.844Z</time>
      </trkpt>
      <trkpt lat="49.894490987062454" lon="6.119000958278775">
        <ele>363.11</ele>
        <time>2024-12-29T16:11:24.387Z</time>
      </trkpt>
      <trkpt lat="49.89461696706712" lon="6.119142947718501">
        <ele>362.3</ele>
        <time>2024-12-29T16:11:37.951Z</time>
      </trkpt>
      <trkpt lat="49.89469793625176" lon="6.119218971580267">
        <ele>361.54</ele>
        <time>2024-12-29T16:11:51.527Z</time>
      </trkpt>
      <trkpt lat="49.894815953448415" lon="6.119224922731519">
        <ele>360.75</ele>
        <time>2024-12-29T16:12:05.119Z</time>
      </trkpt>
      <trkpt lat="49.89498392678797" lon="6.119173960760236">
        <ele>359.93</ele>
        <time>2024-12-29T16:12:18.734Z</time>
      </trkpt>
      <trkpt lat="49.895097920671105" lon="6.11911796964705">
        <ele>359.29</ele>
        <time>2024-12-29T16:12:32.365Z</time>
      </trkpt>
      <trkpt lat="49.89518593065441" lon="6.119093997403979">
        <ele>359.0</ele>
        <time>2024-12-29T16:12:46.008Z</time>
      </trkpt>
      <trkpt lat="49.8952189553529" lon="6.119101960211992">
        <ele>359.0</ele>
        <time>2024-12-29T16:12:59.655Z</time>
      </trkpt>
      <trkpt lat="49.89538097754121" lon="6.119036916643381">
        <ele>359.0</ele>
        <time>2024-12-29T16:13:13.324Z</time>
      </trkpt>
      <trkpt lat="49.89544694311917" lon="6.118934992700815">
        <ele>359.01</ele>
        <time>2024-12-29T16:13:27.006Z</time>
      </trkpt>
      <trkpt lat="49.89545792341232" lon="6.119049992412329">
        <ele>359.98</ele>
        <time>2024-12-29T16:13:40.698Z</time>
      </trkpt>
      <trkpt lat="49.895479967817664" lon="6.119113946333528">
        <ele>360.96</ele>
        <time>2024-12-29T16:13:54.396Z</time>
      </trkpt>
      <trkpt lat="49.89557594060898" lon="6.119234981015325">
        <ele>362.26</ele>
        <time>2024-12-29T16:14:08.111Z</time>
      </trkpt>
      <trkpt lat="49.895633943378925" lon="6.119278986006975">
        <ele>363.53</ele>
        <time>2024-12-29T16:14:21.834Z</time>
      </trkpt>
      <trkpt lat="49.89568993449211" lon="6.1193569377064705">
        <ele>365.08</ele>
        <time>2024-12-29T16:14:35.567Z</time>
      </trkpt>
      <trkpt lat="49.89563696086407" lon="6.119372947141528">
        <ele>366.63</ele>
        <time>2024-12-29T16:14:49.308Z</time>
      </trkpt>
      <trkpt lat="49.89560192450881" lon="6.119401948526502">
        <ele>368.35</ele>
        <time>2024-12-29T16:15:03.054Z</time>
      </trkpt>
      <trkpt lat="49.89536798559129" lon="6.119515942409635">
        <ele>370.38</ele>
        <time>2024-12-29T16:15:16.833Z</time>
      </trkpt>
      <trkpt lat="49.89528198726475" lon="6.11954796127975">
        <ele>372.28</ele>
        <time>2024-12-29T16:15:30.623Z</time>
      </trkpt>
      <trkpt lat="49.895395981147885" lon="6.119668995961547">
        <ele>374.41</ele>
        <time>2024-12-29T16:15:44.432Z</time>
      </trkpt>
      <trkpt lat="49.89514393731952" lon="6.11972096376121">
        <ele>376.45</ele>
        <time>2024-12-29T16:15:58.275Z</time>
      </trkpt>
      <trkpt lat="49.89493899978697" lon="6.119895977899432">
        <ele>378.72</ele>
        <time>2024-12-29T16:16:12.149Z</time>
      </trkpt>
      <trkpt lat="49.89482793956995" lon="6.119936965405941">
        <ele>380.72</ele>
        <time>2024-12-29T16:16:26.038Z</time>
      </trkpt>
      <trkpt lat="49.894667929038405" lon="6.119967978447676">
        <ele>382.84</ele>
        <time>2024-12-29T16:16:39.949Z</time>
      </trkpt>
      <trkpt lat="49.894642950966954" lon="6.119989939033985">
        <ele>384.83</ele>
        <time>2024-12-29T16:16:53.864Z</time>
      </trkpt>
      <trkpt lat="49.894748982042074" lon="6.120249945670366">
        <ele>386.83</ele>
        <time>2024-12-29T16:17:07.805Z</time>
      </trkpt>
      <trkpt lat="49.89491050131619" lon="6.120261428877711">
        <ele>388.69</ele>
        <time>2024-12-29T16:17:21.768Z</time>
      </trkpt>
      <trkpt lat="49.895071936771274" lon="6.120272995904088">
        <ele>390.5</ele>
        <time>2024-12-29T16:17:35.752Z</time>
      </trkpt>
      <trkpt lat="49.89517595618963" lon="6.1203329265117645">
        <ele>392.27</ele>
        <time>2024-12-29T16:17:49.751Z</time>
      </trkpt>
      <trkpt lat="49.89525399170816" lon="6.120404927060008">
        <ele>393.97</ele>
        <time>2024-12-29T16:18:03.762Z</time>
      </trkpt>
      <trkpt lat="49.89534191787243" lon="6.1204309947788715">
        <ele>395.59</ele>
        <time>2024-12-29T16:18:17.785Z</time>
      </trkpt>
      <trkpt lat="49.89557845517993" lon="6.120446417480707">
        <ele>397.13</ele>
        <time>2024-12-29T16:18:31.840Z</time>
      </trkpt>
      <trkpt lat="49.89581499248743" lon="6.1204619240015745">
        <ele>398.57</ele>
        <time>2024-12-29T16:18:45.926Z</time>
      </trkpt>
      <trkpt lat="49.896085979416966" lon="6.120515987277031">
        <ele>399.97</ele>
        <time>2024-12-29T16:19:00.049Z</time>
      </trkpt>
      <trkpt lat="49.8963569663465" lon="6.120569966733456">
        <ele>401.36</ele>
        <time>2024-12-29T16:19:14.208Z</time>
      </trkpt>
      <trkpt lat="49.896597946062684" lon="6.120671974495053">
        <ele>402.72</ele>
        <time>2024-12-29T16:19:28.401Z</time>
      </trkpt>
      <trkpt lat="49.89675351418555" lon="6.120766522362828">
        <ele>403.9</ele>
        <time>2024-12-29T16:19:42.616Z</time>
      </trkpt>
      <trkpt lat="49.89690899848938" lon="6.1208609864115715">
        <ele>404.96</ele>
        <time>2024-12-29T16:19:56.853Z</time>
      </trkpt>
      <trkpt lat="49.8971463739872" lon="6.121031055226922">
        <ele>405.97</ele>
        <time>2024-12-29T16:20:11.125Z</time>
      </trkpt>
      <trkpt lat="49.89738383330405" lon="6.121201124042273">
        <ele>406.97</ele>
        <time>2024-12-29T16:20:25.432Z</time>
      </trkpt>
      <trkpt lat="49.89762095734477" lon="6.121370941400528">
        <ele>407.97</ele>
        <time>2024-12-29T16:20:39.774Z</time>
      </trkpt>
      <trkpt lat="49.897779542952776" lon="6.121498513966799">
        <ele>408.86</ele>
        <time>2024-12-29T16:20:54.140Z</time>
      </trkpt>
      <trkpt lat="49.89793796092272" lon="6.121625918895006">
        <ele>409.65</ele>
        <time>2024-12-29T16:21:08.530Z</time>
      </trkpt>
      <trkpt lat="49.89808556623757" lon="6.121794143691659">
        <ele>410.3</ele>
        <time>2024-12-29T16:21:22.944Z</time>
      </trkpt>
      <trkpt lat="49.898232920095325" lon="6.121961949393153">
        <ele>410.88</ele>
        <time>2024-12-29T16:21:37.383Z</time>
      </trkpt>
      <trkpt lat="49.89832998253405" lon="6.12208298407495">
        <ele>411.4</ele>
        <time>2024-12-29T16:21:51.838Z</time>
      </trkpt>
      <trkpt lat="49.89855268970132" lon="6.122356737032533">
        <ele>411.87</ele>
        <time>2024-12-29T16:22:06.331Z</time>
      </trkpt>
      <trkpt lat="49.89877497777343" lon="6.122629987075925">
        <ele>412.31</ele>
        <time>2024-12-29T16:22:20.862Z</time>
      </trkpt>
      <trkpt lat="49.89890263415873" lon="6.122794104740024">
        <ele>412.68</ele>
        <time>2024-12-29T16:22:35.415Z</time>
      </trkpt>
      <trkpt lat="49.899029955267906" lon="6.122957970947027">
        <ele>413.0</ele>
        <time>2024-12-29T16:22:49.990Z</time>
      </trkpt>
      <trkpt lat="49.89918711595237" lon="6.123159723356366">
        <ele>413.37</ele>
        <time>2024-12-29T16:23:04.593Z</time>
      </trkpt>
      <trkpt lat="49.89934394136071" lon="6.123360972851515">
        <ele>413.59</ele>
        <time>2024-12-29T16:23:19.223Z</time>
      </trkpt>
      <trkpt lat="49.8995759524405" lon="6.123596923425794">
        <ele>413.66</ele>
        <time>2024-12-29T16:23:33.890Z</time>
      </trkpt>
      <trkpt lat="49.8997606895864" lon="6.12385081127286">
        <ele>413.61</ele>
        <time>2024-12-29T16:23:48.590Z</time>
      </trkpt>
      <trkpt lat="49.89994492381811" lon="6.12410394474864">
        <ele>413.54</ele>
        <time>2024-12-29T16:24:03.323Z</time>
      </trkpt>
      <trkpt lat="49.900145502761006" lon="6.1243335250765085">
        <ele>413.49</ele>
        <time>2024-12-29T16:24:18.089Z</time>
      </trkpt>
      <trkpt lat="49.90034599788487" lon="6.124563105404377">
        <ele>413.44</ele>
        <time>2024-12-29T16:24:32.888Z</time>
      </trkpt>
      <trkpt lat="49.90054599009454" lon="6.12479193136096">
        <ele>413.38</ele>
        <time>2024-12-29T16:24:47.720Z</time>
      </trkpt>
      <trkpt lat="49.90065964870155" lon="6.124970717355609">
        <ele>413.3</ele>
        <time>2024-12-29T16:25:02.574Z</time>
      </trkpt>
      <trkpt lat="49.90077297203243" lon="6.125148916617036">
        <ele>413.19</ele>
        <time>2024-12-29T16:25:17.450Z</time>
      </trkpt>
      <trkpt lat="49.9009314738214" lon="6.124802744016051">
        <ele>412.95</ele>
        <time>2024-12-29T16:25:32.362Z</time>
      </trkpt>
      <trkpt lat="49.901089975610375" lon="6.124456487596035">
        <ele>412.76</ele>
        <time>2024-12-29T16:25:47.311Z</time>
      </trkpt>
      <trkpt lat="49.90124847739935" lon="6.124110231176019">
        <ele>412.51</ele>
        <time>2024-12-29T16:26:02.296Z</time>
      </trkpt>
      <trkpt lat="49.90140697918832" lon="6.123763974756002">
        <ele>412.26</ele>
        <time>2024-12-29T16:26:17.318Z</time>
      </trkpt>
      <trkpt lat="49.901563972234726" lon="6.123420987278223">
        <ele>412.0</ele>
        <time>2024-12-29T16:26:32.376Z</time>
      </trkpt>
      <trkpt lat="49.90171618759632" lon="6.123157544061542">
        <ele>411.72</ele>
        <time>2024-12-29T16:26:47.465Z</time>
      </trkpt>
      <trkpt lat="49.90186798386276" lon="6.122894939035177">
        <ele>411.52</ele>
        <time>2024-12-29T16:27:02.584Z</time>
      </trkpt>
      <trkpt lat="49.90207367576659" lon="6.122651193290949">
        <ele>411.38</ele>
        <time>2024-12-29T16:27:17.738Z</time>
      </trkpt>
      <trkpt lat="49.90227894857526" lon="6.122407950460911">
        <ele>411.24</ele>
        <time>2024-12-29T16:27:32.926Z</time>
      </trkpt>
      <trkpt lat="49.90242596715689" lon="6.1222089640796185">
        <ele>411.26</ele>
        <time>2024-12-29T16:27:48.140Z</time>
      </trkpt>
      <trkpt lat="49.90263492800295" lon="6.121977958828211">
        <ele>411.37</ele>
        <time>2024-12-29T16:28:03.388Z</time>
      </trkpt>
      <trkpt lat="49.902782533317804" lon="6.121886428445578">
        <ele>411.59</ele>
        <time>2024-12-29T16:28:18.658Z</time>
      </trkpt>
      <trkpt lat="49.90292997099459" lon="6.121794981881976">
        <ele>411.88</ele>
        <time>2024-12-29T16:28:33.949Z</time>
      </trkpt>
      <trkpt lat="49.90307698957622" lon="6.121650980785489">
        <ele>412.24</ele>
        <time>2024-12-29T16:28:49.263Z</time>
      </trkpt>
      <trkpt lat="49.90311152301729" lon="6.121407821774483">
        <ele>412.65</ele>
        <time>2024-12-29T16:29:04.599Z</time>
      </trkpt>
      <trkpt lat="49.90314597263932" lon="6.121165920048952">
        <ele>413.1</ele>
        <time>2024-12-29T16:29:19.956Z</time>
      </trkpt>
      <trkpt lat="49.90322794765234" lon="6.120816981419921">
        <ele>413.64</ele>
        <time>2024-12-29T16:29:35.345Z</time>
      </trkpt>
      <trkpt lat="49.90330011583865" lon="6.120597962290049">
        <ele>414.18</ele>
        <time>2024-12-29T16:29:50.755Z</time>
      </trkpt>
      <trkpt lat="49.90337194874883" lon="6.120379948988557">
        <ele>414.78</ele>
        <time>2024-12-29T16:30:06.186Z</time>
      </trkpt>
      <trkpt lat="49.90353095345199" lon="6.119959931820631">
        <ele>415.47</ele>
        <time>2024-12-29T16:30:21.659Z</time>
      </trkpt>
      <trkpt lat="49.90363312885165" lon="6.119734542444348">
        <ele>416.16</ele>
        <time>2024-12-29T16:30:37.156Z</time>
      </trkpt>
      <trkpt lat="49.903734968975186" lon="6.119509991258383">
        <ele>416.78</ele>
        <time>2024-12-29T16:30:52.677Z</time>
      </trkpt>
      <trkpt lat="49.903730945661664" lon="6.119231963530183">
        <ele>417.3</ele>
        <time>2024-12-29T16:31:08.222Z</time>
      </trkpt>
      <trkpt lat="49.903692891821265" lon="6.1188168078660965">
        <ele>417.81</ele>
        <time>2024-12-29T16:31:23.803Z</time>
      </trkpt>
      <trkpt lat="49.903654754161835" lon="6.11840165220201">
        <ele>418.31</ele>
        <time>2024-12-29T16:31:39.420Z</time>
      </trkpt>
      <trkpt lat="49.90361695177853" lon="6.117989933118224">
        <ele>418.64</ele>
        <time>2024-12-29T16:31:55.073Z</time>
      </trkpt>
      <trkpt lat="49.90358317270875" lon="6.117573603987694">
        <ele>418.95</ele>
        <time>2024-12-29T16:32:10.762Z</time>
      </trkpt>
      <trkpt lat="49.903549477458" lon="6.117157358676195">
        <ele>419.13</ele>
        <time>2024-12-29T16:32:26.487Z</time>
      </trkpt>
      <trkpt lat="49.90351569838822" lon="6.116741029545665">
        <ele>419.23</ele>
        <time>2024-12-29T16:32:42.248Z</time>
      </trkpt>
      <trkpt lat="49.90348191931844" lon="6.116324700415134">
        <ele>419.23</ele>
        <time>2024-12-29T16:32:58.045Z</time>
      </trkpt>
      <trkpt lat="49.903448140248656" lon="6.115908371284604">
        <ele>419.08</ele>
        <time>2024-12-29T16:33:13.879Z</time>
      </trkpt>
      <trkpt lat="49.9034268502146" lon="6.115645933896303">
        <ele>418.8</ele>
        <time>2024-12-29T16:33:29.735Z</time>
      </trkpt>
      <trkpt lat="49.9034149479121" lon="6.115498999133706">
        <ele>418.39</ele>
        <time>2024-12-29T16:33:45.604Z</time>
      </trkpt>
      <trkpt lat="49.9034149479121" lon="6.115496987476945">
        <ele>417.87</ele>
        <time>2024-12-29T16:34:01.473Z</time>
      </trkpt>
      <trkpt lat="49.903411930426955" lon="6.1154549941420555">
        <ele>417.2</ele>
        <time>2024-12-29T16:34:17.346Z</time>
      </trkpt>
      <trkpt lat="49.903129963204265" lon="6.115537974983454">
        <ele>416.15</ele>
        <time>2024-12-29T16:34:33.257Z</time>
      </trkpt>
      <trkpt lat="49.902895940467715" lon="6.115623973309994">
        <ele>415.08</ele>
        <time>2024-12-29T16:34:49.200Z</time>
      </trkpt>
      <trkpt lat="49.902807930484414" lon="6.115619949996471">
        <ele>413.96</ele>
        <time>2024-12-29T16:35:05.155Z</time>
      </trkpt>
      <trkpt lat="49.9027309846133" lon="6.11557493917644">
        <ele>412.71</ele>
        <time>2024-12-29T16:35:21.121Z</time>
      </trkpt>
      <trkpt lat="49.90253861993551" lon="6.115343766286969">
        <ele>411.23</ele>
        <time>2024-12-29T16:35:37.120Z</time>
      </trkpt>
      <trkpt lat="49.902538787573576" lon="6.115344017744064">
        <ele>408.25</ele>
        <time>2024-12-29T16:35:53.119Z</time>
      </trkpt>
      <trkpt lat="49.90234659053385" lon="6.115113096311688">
        <ele>406.38</ele>
        <time>2024-12-29T16:36:09.150Z</time>
      </trkpt>
      <trkpt lat="49.90215498022735" lon="6.114882929250598">
        <ele>404.38</ele>
        <time>2024-12-29T16:36:25.213Z</time>
      </trkpt>
      <trkpt lat="49.90198876708746" lon="6.114668687805533">
        <ele>402.47</ele>
        <time>2024-12-29T16:36:41.305Z</time>
      </trkpt>
      <trkpt lat="49.90182297304273" lon="6.114454949274659">
        <ele>400.5</ele>
        <time>2024-12-29T16:36:57.426Z</time>
      </trkpt>
      <trkpt lat="49.901634296402335" lon="6.11424976028502">
        <ele>398.4</ele>
        <time>2024-12-29T16:37:13.578Z</time>
      </trkpt>
      <trkpt lat="49.90144595503807" lon="6.114044990390539">
        <ele>396.2</ele>
        <time>2024-12-29T16:37:29.761Z</time>
      </trkpt>
      <trkpt lat="49.90120899863541" lon="6.11394097097218">
        <ele>393.84</ele>
        <time>2024-12-29T16:37:45.976Z</time>
      </trkpt>
      <trkpt lat="49.90094698034227" lon="6.113829994574189">
        <ele>391.52</ele>
        <time>2024-12-29T16:38:02.228Z</time>
      </trkpt>
      <trkpt lat="49.90086492151022" lon="6.1137279868125916">
        <ele>389.25</ele>
        <time>2024-12-29T16:38:18.494Z</time>
      </trkpt>
      <trkpt lat="49.90063391625881" lon="6.113647939637303">
        <ele>386.83</ele>
        <time>2024-12-29T16:38:34.791Z</time>
      </trkpt>
      <trkpt lat="49.900487987324595" lon="6.113494969904423">
        <ele>384.28</ele>
        <time>2024-12-29T16:38:51.112Z</time>
      </trkpt>
      <trkpt lat="49.90041892044246" lon="6.113268993794918">
        <ele>381.83</ele>
        <time>2024-12-29T16:39:07.454Z</time>
      </trkpt>
      <trkpt lat="49.90041598677635" lon="6.113113928586245">
        <ele>379.39</ele>
        <time>2024-12-29T16:39:23.810Z</time>
      </trkpt>
      <trkpt lat="49.90046292543411" lon="6.113015944138169">
        <ele>376.97</ele>
        <time>2024-12-29T16:39:40.176Z</time>
      </trkpt>
      <trkpt lat="49.90046393126249" lon="6.112925922498107">
        <ele>374.44</ele>
        <time>2024-12-29T16:39:56.550Z</time>
      </trkpt>
      <trkpt lat="49.90043291822076" lon="6.112835984677076">
        <ele>371.87</ele>
        <time>2024-12-29T16:40:12.933Z</time>
      </trkpt>
      <trkpt lat="49.900294952094555" lon="6.112626940011978">
        <ele>369.07</ele>
        <time>2024-12-29T16:40:29.342Z</time>
      </trkpt>
      <trkpt lat="49.90020325407386" lon="6.11231773160398">
        <ele>366.3</ele>
        <time>2024-12-29T16:40:45.780Z</time>
      </trkpt>
      <trkpt lat="49.90011197514832" lon="6.112009948119521">
        <ele>363.53</ele>
        <time>2024-12-29T16:41:02.247Z</time>
      </trkpt>
      <trkpt lat="49.90002396516502" lon="6.111787995323539">
        <ele>360.8</ele>
        <time>2024-12-29T16:41:18.737Z</time>
      </trkpt>
      <trkpt lat="49.89989295601845" lon="6.111459927633405">
        <ele>357.99</ele>
        <time>2024-12-29T16:41:35.260Z</time>
      </trkpt>
      <trkpt lat="49.89985096268356" lon="6.111320955678821">
        <ele>355.45</ele>
        <time>2024-12-29T16:41:51.796Z</time>
      </trkpt>
      <trkpt lat="49.89972397685051" lon="6.111056925728917">
        <ele>352.7</ele>
        <time>2024-12-29T16:42:08.361Z</time>
      </trkpt>
      <trkpt lat="49.899673936888576" lon="6.110892975702882">
        <ele>350.24</ele>
        <time>2024-12-29T16:42:24.941Z</time>
      </trkpt>
      <trkpt lat="49.89956094883382" lon="6.110647972673178">
        <ele>347.68</ele>
        <time>2024-12-29T16:42:41.547Z</time>
      </trkpt>
      <trkpt lat="49.899478973820806" lon="6.110547976568341">
        <ele>345.35</ele>
        <time>2024-12-29T16:42:58.167Z</time>
      </trkpt>
      <trkpt lat="49.89942792803049" lon="6.110445968806744">
        <ele>343.23</ele>
        <time>2024-12-29T16:43:14.798Z</time>
      </trkpt>
      <trkpt lat="49.89926892332733" lon="6.110195936635137">
        <ele>341.05</ele>
        <time>2024-12-29T16:43:31.459Z</time>
      </trkpt>
      <trkpt lat="49.89920396357775" lon="6.110133994370699">
        <ele>339.27</ele>
        <time>2024-12-29T16:43:48.131Z</time>
      </trkpt>
      <trkpt lat="49.89918393082917" lon="6.110087977722287">
        <ele>337.76</ele>
        <time>2024-12-29T16:44:04.807Z</time>
      </trkpt>
      <trkpt lat="49.89917999133468" lon="6.110046990215778">
        <ele>336.4</ele>
        <time>2024-12-29T16:44:21.487Z</time>
      </trkpt>
      <trkpt lat="49.89939792081714" lon="6.110132988542318">
        <ele>335.51</ele>
        <time>2024-12-29T16:44:38.197Z</time>
      </trkpt>
      <trkpt lat="49.89944494329393" lon="6.110130976885557">
        <ele>334.48</ele>
        <time>2024-12-29T16:44:54.913Z</time>
      </trkpt>
      <trkpt lat="49.89954896271229" lon="6.110211946070194">
        <ele>333.7</ele>
        <time>2024-12-29T16:45:11.645Z</time>
      </trkpt>
      <trkpt lat="49.899710984900594" lon="6.110245976597071">
        <ele>333.01</ele>
        <time>2024-12-29T16:45:28.399Z</time>
      </trkpt>
      <trkpt lat="49.89987292326987" lon="6.110279923304915">
        <ele>332.38</ele>
        <time>2024-12-29T16:45:45.174Z</time>
      </trkpt>
      <trkpt lat="49.90004542283714" lon="6.110305991023779">
        <ele>331.81</ele>
        <time>2024-12-29T16:46:01.973Z</time>
      </trkpt>
      <trkpt lat="49.90021792240441" lon="6.110331974923611">
        <ele>331.25</ele>
        <time>2024-12-29T16:46:18.795Z</time>
      </trkpt>
      <trkpt lat="49.90035253576934" lon="6.1103446315974">
        <ele>330.68</ele>
        <time>2024-12-29T16:46:35.635Z</time>
      </trkpt>
      <trkpt lat="49.90047298371792" lon="6.110355947166681">
        <ele>330.04</ele>
        <time>2024-12-29T16:46:52.491Z</time>
      </trkpt>
      <trkpt lat="49.900361923500896" lon="6.110070962458849">
        <ele>329.03</ele>
        <time>2024-12-29T16:47:09.375Z</time>
      </trkpt>
      <trkpt lat="49.900313979014754" lon="6.109865941107273">
        <ele>328.02</ele>
        <time>2024-12-29T16:47:26.278Z</time>
      </trkpt>
      <trkpt lat="49.900292940437794" lon="6.1096699722111225">
        <ele>326.96</ele>
        <time>2024-12-29T16:47:43.198Z</time>
      </trkpt>
      <trkpt lat="49.90031196735799" lon="6.10946998000145">
        <ele>325.99</ele>
        <time>2024-12-29T16:48:00.136Z</time>
      </trkpt>
      <trkpt lat="49.90043291822076" lon="6.109024984762073">
        <ele>325.13</ele>
        <time>2024-12-29T16:48:17.115Z</time>
      </trkpt>
      <trkpt lat="49.900443982332945" lon="6.108967987820506">
        <ele>324.48</ele>
        <time>2024-12-29T16:48:34.100Z</time>
      </trkpt>
      <trkpt lat="49.900440545752645" lon="6.108943093568087">
        <ele>323.84</ele>
        <time>2024-12-29T16:48:51.087Z</time>
      </trkpt>
      <trkpt lat="49.90043492987752" lon="6.108901938423514">
        <ele>323.23</ele>
        <time>2024-12-29T16:49:08.077Z</time>
      </trkpt>
      <trkpt lat="49.90040693432093" lon="6.108855921775103">
        <ele>322.61</ele>
        <time>2024-12-29T16:49:25.073Z</time>
      </trkpt>
      <trkpt lat="49.900357984006405" lon="6.108841923996806">
        <ele>322.03</ele>
        <time>2024-12-29T16:49:42.075Z</time>
      </trkpt>
      <trkpt lat="49.90010895766318" lon="6.108898920938373">
        <ele>321.44</ele>
        <time>2024-12-29T16:49:59.111Z</time>
      </trkpt>
      <trkpt lat="49.89987795241177" lon="6.108988942578435">
        <ele>320.94</ele>
        <time>2024-12-29T16:50:16.179Z</time>
      </trkpt>
      <trkpt lat="49.89983696490526" lon="6.108978968113661">
        <ele>320.52</ele>
        <time>2024-12-29T16:50:33.252Z</time>
      </trkpt>
      <trkpt lat="49.89966697990894" lon="6.108789956197143">
        <ele>320.15</ele>
        <time>2024-12-29T16:50:50.353Z</time>
      </trkpt>
      <trkpt lat="49.89959598518908" lon="6.108628939837217">
        <ele>319.82</ele>
        <time>2024-12-29T16:51:07.471Z</time>
      </trkpt>
      <trkpt lat="49.89953697659075" lon="6.108384942635894">
        <ele>319.56</ele>
        <time>2024-12-29T16:51:24.612Z</time>
      </trkpt>
      <trkpt lat="49.89948098547757" lon="6.108022928237915">
        <ele>319.33</ele>
        <time>2024-12-29T16:51:41.785Z</time>
      </trkpt>
      <trkpt lat="49.899456929415464" lon="6.10768798738718">
        <ele>319.14</ele>
        <time>2024-12-29T16:51:58.987Z</time>
      </trkpt>
      <trkpt lat="49.89946598187089" lon="6.107445918023586">
        <ele>319.03</ele>
        <time>2024-12-29T16:52:16.210Z</time>
      </trkpt>
      <trkpt lat="49.89949397742748" lon="6.107324967160821">
        <ele>319.02</ele>
        <time>2024-12-29T16:52:33.444Z</time>
      </trkpt>
      <trkpt lat="49.89953597076237" lon="6.107249949127436">
        <ele>319.14</ele>
        <time>2024-12-29T16:52:50.686Z</time>
      </trkpt>
      <trkpt lat="49.89957695826888" lon="6.107211979106069">
        <ele>319.34</ele>
        <time>2024-12-29T16:53:07.935Z</time>
      </trkpt>
      <trkpt lat="49.8997469432652" lon="6.107014920562506">
        <ele>319.63</ele>
        <time>2024-12-29T16:53:25.212Z</time>
      </trkpt>
      <trkpt lat="49.899846939370036" lon="6.106691965833306">
        <ele>319.95</ele>
        <time>2024-12-29T16:53:42.520Z</time>
      </trkpt>
      <trkpt lat="49.899903601035476" lon="6.106424750760198">
        <ele>320.3</ele>
        <time>2024-12-29T16:53:59.852Z</time>
      </trkpt>
      <trkpt lat="49.89995992742479" lon="6.106158960610628">
        <ele>320.8</ele>
        <time>2024-12-29T16:54:17.208Z</time>
      </trkpt>
      <trkpt lat="49.89998096600175" lon="6.1056779231876135">
        <ele>321.38</ele>
        <time>2024-12-29T16:54:34.606Z</time>
      </trkpt>
      <trkpt lat="49.899908965453506" lon="6.105259917676449">
        <ele>322.06</ele>
        <time>2024-12-29T16:54:52.041Z</time>
      </trkpt>
      <trkpt lat="49.899828750640154" lon="6.104844929650426">
        <ele>322.77</ele>
        <time>2024-12-29T16:55:09.513Z</time>
      </trkpt>
      <trkpt lat="49.8997485358268" lon="6.104429857805371">
        <ele>323.66</ele>
        <time>2024-12-29T16:55:27.023Z</time>
      </trkpt>
      <trkpt lat="49.899668991565704" lon="6.104017971083522">
        <ele>324.67</ele>
        <time>2024-12-29T16:55:44.570Z</time>
      </trkpt>
      <trkpt lat="49.899630937725306" lon="6.103846980258822">
        <ele>325.72</ele>
        <time>2024-12-29T16:56:02.133Z</time>
      </trkpt>
      <trkpt lat="49.8995899502188" lon="6.103688981384039">
        <ele>326.88</ele>
        <time>2024-12-29T16:56:19.710Z</time>
      </trkpt>
      <trkpt lat="49.89949624054134" lon="6.103437943384051">
        <ele>328.12</ele>
        <time>2024-12-29T16:56:37.312Z</time>
      </trkpt>
      <trkpt lat="49.89940294995904" lon="6.103187995031476">
        <ele>329.42</ele>
        <time>2024-12-29T16:56:54.939Z</time>
      </trkpt>
      <trkpt lat="49.89937495440245" lon="6.10311197116971">
        <ele>330.65</ele>
        <time>2024-12-29T16:57:12.574Z</time>
      </trkpt>
      <trkpt lat="49.8992669954896" lon="6.102757919579744">
        <ele>332.05</ele>
        <time>2024-12-29T16:57:30.242Z</time>
      </trkpt>
      <trkpt lat="49.89917295053601" lon="6.1024869326502085">
        <ele>333.45</ele>
        <time>2024-12-29T16:57:47.937Z</time>
      </trkpt>
      <trkpt lat="49.899048982188106" lon="6.102239917963743">
        <ele>334.73</ele>
        <time>2024-12-29T16:58:05.659Z</time>
      </trkpt>
      <trkpt lat="49.89891193807125" lon="6.10203598625958">
        <ele>335.91</ele>
        <time>2024-12-29T16:58:23.406Z</time>
      </trkpt>
      <trkpt lat="49.898791993036866" lon="6.101931966841221">
        <ele>336.88</ele>
        <time>2024-12-29T16:58:41.172Z</time>
      </trkpt>
      <trkpt lat="49.898624857887626" lon="6.101832389831543">
        <ele>337.67</ele>
        <time>2024-12-29T16:58:58.961Z</time>
      </trkpt>
      <trkpt lat="49.89845797419548" lon="6.1017329804599285">
        <ele>338.3</ele>
        <time>2024-12-29T16:59:16.774Z</time>
      </trkpt>
      <trkpt lat="49.89832294173539" lon="6.101598953828216">
        <ele>338.91</ele>
        <time>2024-12-29T16:59:34.609Z</time>
      </trkpt>
      <trkpt lat="49.89815019071102" lon="6.101331068202853">
        <ele>339.41</ele>
        <time>2024-12-29T16:59:52.476Z</time>
      </trkpt>
      <trkpt lat="49.897977942600846" lon="6.101063936948776">
        <ele>339.52</ele>
        <time>2024-12-29T17:00:10.376Z</time>
      </trkpt>
      <trkpt lat="49.897845927625895" lon="6.100775934755802">
        <ele>339.35</ele>
        <time>2024-12-29T17:00:28.306Z</time>
      </trkpt>
      <trkpt lat="49.89775791764259" lon="6.100484998896718">
        <ele>338.89</ele>
        <time>2024-12-29T17:00:46.264Z</time>
      </trkpt>
      <trkpt lat="49.89762196317315" lon="6.100203953683376">
        <ele>338.11</ele>
        <time>2024-12-29T17:01:04.252Z</time>
      </trkpt>
      <trkpt lat="49.89751392044127" lon="6.100106975063682">
        <ele>337.15</ele>
        <time>2024-12-29T17:01:22.257Z</time>
      </trkpt>
      <trkpt lat="49.897392969578505" lon="6.10008392482996">
        <ele>336.01</ele>
        <time>2024-12-29T17:01:40.278Z</time>
      </trkpt>
      <trkpt lat="49.897332955151796" lon="6.10003899782896">
        <ele>334.68</ele>
        <time>2024-12-29T17:01:58.308Z</time>
      </trkpt>
      <trkpt lat="49.897307977080345" lon="6.099915951490402">
        <ele>333.11</ele>
        <time>2024-12-29T17:02:16.349Z</time>
      </trkpt>
      <trkpt lat="49.89734292961657" lon="6.099773962050676">
        <ele>331.38</ele>
        <time>2024-12-29T17:02:34.403Z</time>
      </trkpt>
      <trkpt lat="49.89742993377149" lon="6.099639935418963">
        <ele>329.48</ele>
        <time>2024-12-29T17:02:52.474Z</time>
      </trkpt>
      <trkpt lat="49.89753998816013" lon="6.09952493570745">
        <ele>327.41</ele>
        <time>2024-12-29T17:03:10.563Z</time>
      </trkpt>
      <trkpt lat="49.897651970386505" lon="6.099349921569228">
        <ele>325.12</ele>
        <time>2024-12-29T17:03:28.673Z</time>
      </trkpt>
      <trkpt lat="49.89777677692473" lon="6.098970137536526">
        <ele>322.43</ele>
        <time>2024-12-29T17:03:46.819Z</time>
      </trkpt>
      <trkpt lat="49.89790099672973" lon="6.098591946065426">
        <ele>319.68</ele>
        <time>2024-12-29T17:04:05.002Z</time>
      </trkpt>
      <trkpt lat="49.89794307388365" lon="6.098325736820698">
        <ele>316.93</ele>
        <time>2024-12-29T17:04:23.209Z</time>
      </trkpt>
      <trkpt lat="49.89798498339951" lon="6.098060952499509">
        <ele>314.1</ele>
        <time>2024-12-29T17:04:41.439Z</time>
      </trkpt>
      <trkpt lat="49.898014068603516" lon="6.097757108509541">
        <ele>311.16</ele>
        <time>2024-12-29T17:04:59.696Z</time>
      </trkpt>
      <trkpt lat="49.89804298616946" lon="6.097454940900207">
        <ele>308.15</ele>
        <time>2024-12-29T17:05:17.979Z</time>
      </trkpt>
      <trkpt lat="49.89805597811937" lon="6.097131986171007">
        <ele>305.11</ele>
        <time>2024-12-29T17:05:36.290Z</time>
      </trkpt>
      <trkpt lat="49.89806595258415" lon="6.096700988709927">
        <ele>301.98</ele>
        <time>2024-12-29T17:05:54.638Z</time>
      </trkpt>
      <trkpt lat="49.89808699116111" lon="6.0965019185096025">
        <ele>299.08</ele>
        <time>2024-12-29T17:06:13.003Z</time>
      </trkpt>
      <trkpt lat="49.89811398088932" lon="6.096360934898257">
        <ele>296.25</ele>
        <time>2024-12-29T17:06:31.381Z</time>
      </trkpt>
      <trkpt lat="49.89817106164992" lon="6.096116853877902">
        <ele>293.43</ele>
        <time>2024-12-29T17:06:49.782Z</time>
      </trkpt>
      <trkpt lat="49.89822797477245" lon="6.095873946323991">
        <ele>290.66</ele>
        <time>2024-12-29T17:07:08.205Z</time>
      </trkpt>
      <trkpt lat="49.89834515377879" lon="6.0956360679119825">
        <ele>287.92</ele>
        <time>2024-12-29T17:07:26.654Z</time>
      </trkpt>
      <trkpt lat="49.898461997509" lon="6.09539894387126">
        <ele>285.15</ele>
        <time>2024-12-29T17:07:45.128Z</time>
      </trkpt>
      <trkpt lat="49.89849795587361" lon="6.095325937494636">
        <ele>282.47</ele>
        <time>2024-12-29T17:08:03.610Z</time>
      </trkpt>
      <trkpt lat="49.89855998195708" lon="6.095241950824857">
        <ele>279.81</ele>
        <time>2024-12-29T17:08:22.103Z</time>
      </trkpt>
      <trkpt lat="49.898579930886626" lon="6.095142960548401">
        <ele>277.16</ele>
        <time>2024-12-29T17:08:40.605Z</time>
      </trkpt>
      <trkpt lat="49.898573979735374" lon="6.095039946958423">
        <ele>274.56</ele>
        <time>2024-12-29T17:08:59.116Z</time>
      </trkpt>
      <trkpt lat="49.898530980572104" lon="6.09481992200017">
        <ele>271.87</ele>
        <time>2024-12-29T17:09:17.647Z</time>
      </trkpt>
      <trkpt lat="49.898490998893976" lon="6.094717998057604">
        <ele>269.35</ele>
        <time>2024-12-29T17:09:36.188Z</time>
      </trkpt>
      <trkpt lat="49.89837993867695" lon="6.094481963664293">
        <ele>266.85</ele>
        <time>2024-12-29T17:09:54.754Z</time>
      </trkpt>
      <trkpt lat="49.89832595922053" lon="6.094340980052948">
        <ele>264.49</ele>
        <time>2024-12-29T17:10:13.335Z</time>
      </trkpt>
      <trkpt lat="49.898297963663936" lon="6.094229919835925">
        <ele>262.17</ele>
        <time>2024-12-29T17:10:31.926Z</time>
      </trkpt>
      <trkpt lat="49.89830098114908" lon="6.094200918450952">
        <ele>259.92</ele>
        <time>2024-12-29T17:10:50.519Z</time>
      </trkpt>
      <trkpt lat="49.89823895506561" lon="6.093898918479681">
        <ele>257.6</ele>
        <time>2024-12-29T17:11:09.140Z</time>
      </trkpt>
      <trkpt lat="49.898212887346745" lon="6.093638241291046">
        <ele>255.31</ele>
        <time>2024-12-29T17:11:27.783Z</time>
      </trkpt>
      <trkpt lat="49.898186987265944" lon="6.09337898902595">
        <ele>253.06</ele>
        <time>2024-12-29T17:11:46.449Z</time>
      </trkpt>
      <trkpt lat="49.89812093786895" lon="6.0929519310593605">
        <ele>250.73</ele>
        <time>2024-12-29T17:12:05.153Z</time>
      </trkpt>
      <trkpt lat="49.898063940927386" lon="6.0927139688283205">
        <ele>248.56</ele>
        <time>2024-12-29T17:12:23.879Z</time>
      </trkpt>
      <trkpt lat="49.8980269767344" lon="6.092587988823652">
        <ele>246.59</ele>
        <time>2024-12-29T17:12:42.617Z</time>
      </trkpt>
      <trkpt lat="49.89798096008599" lon="6.092491932213306">
        <ele>244.75</ele>
        <time>2024-12-29T17:13:01.365Z</time>
      </trkpt>
      <trkpt lat="49.89801197312772" lon="6.092390930280089">
        <ele>242.97</ele>
        <time>2024-12-29T17:13:20.123Z</time>
      </trkpt>
      <trkpt lat="49.898099983111024" lon="6.092444993555546">
        <ele>241.36</ele>
        <time>2024-12-29T17:13:38.893Z</time>
      </trkpt>
      <trkpt lat="49.89816192537546" lon="6.092450944706798">
        <ele>239.79</ele>
        <time>2024-12-29T17:13:57.672Z</time>
      </trkpt>
      <trkpt lat="49.8982169944793" lon="6.092429989948869">
        <ele>238.33</ele>
        <time>2024-12-29T17:14:16.458Z</time>
      </trkpt>
      <trkpt lat="49.89830198697746" lon="6.092341979965568">
        <ele>236.89</ele>
        <time>2024-12-29T17:14:35.258Z</time>
      </trkpt>
      <trkpt lat="49.898319924250245" lon="6.092294957488775">
        <ele>235.51</ele>
        <time>2024-12-29T17:14:54.062Z</time>
      </trkpt>
      <trkpt lat="49.898317996412516" lon="6.092237960547209">
        <ele>234.17</ele>
        <time>2024-12-29T17:15:12.871Z</time>
      </trkpt>
      <trkpt lat="49.89826099947095" lon="6.092079961672425">
        <ele>232.81</ele>
        <time>2024-12-29T17:15:31.696Z</time>
      </trkpt>
      <trkpt lat="49.89817298948765" lon="6.091970996931195">
        <ele>231.54</ele>
        <time>2024-12-29T17:15:50.536Z</time>
      </trkpt>
      <trkpt lat="49.898101994767785" lon="6.091966973617673">
        <ele>230.39</ele>
        <time>2024-12-29T17:16:09.386Z</time>
      </trkpt>
      <trkpt lat="49.898057989776134" lon="6.091955993324518">
        <ele>229.32</ele>
        <time>2024-12-29T17:16:28.241Z</time>
      </trkpt>
      <trkpt lat="49.89800099283457" lon="6.091927997767925">
        <ele>228.3</ele>
        <time>2024-12-29T17:16:47.104Z</time>
      </trkpt>
      <trkpt lat="49.897952964529395" lon="6.091868989169598">
        <ele>227.33</ele>
        <time>2024-12-29T17:17:05.976Z</time>
      </trkpt>
      <trkpt lat="49.897890938445926" lon="6.091741919517517">
        <ele>226.36</ele>
        <time>2024-12-29T17:17:24.861Z</time>
      </trkpt>
      <trkpt lat="49.897866966202855" lon="6.091687940061092">
        <ele>225.5</ele>
        <time>2024-12-29T17:17:43.752Z</time>
      </trkpt>
      <trkpt lat="49.897869983688" lon="6.0915809869766235">
        <ele>224.68</ele>
        <time>2024-12-29T17:18:02.652Z</time>
      </trkpt>
      <trkpt lat="49.897823967039585" lon="6.0914889536798">
        <ele>223.93</ele>
        <time>2024-12-29T17:18:21.562Z</time>
      </trkpt>
      <trkpt lat="49.897760935127735" lon="6.091276975348592">
        <ele>223.21</ele>
        <time>2024-12-29T17:18:40.492Z</time>
      </trkpt>
      <trkpt lat="49.89773293957114" lon="6.0911869537085295">
        <ele>222.63</ele>
        <time>2024-12-29T17:18:59.431Z</time>
      </trkpt>
      <trkpt lat="49.897715924307704" lon="6.091127945110202">
        <ele>222.15</ele>
        <time>2024-12-29T17:19:18.376Z</time>
      </trkpt>
      <trkpt lat="49.89770796149969" lon="6.091099949553609">
        <ele>221.77</ele>
        <time>2024-12-29T17:19:37.323Z</time>
      </trkpt>
      <trkpt lat="49.89770695567131" lon="6.091098943725228">
        <ele>221.48</ele>
        <time>2024-12-29T17:19:56.270Z</time>
      </trkpt>
      <trkpt lat="49.89770594984293" lon="6.091091986745596">
        <ele>221.28</ele>
        <time>2024-12-29T17:20:15.218Z</time>
      </trkpt>
      <trkpt lat="49.897756995633245" lon="6.091059967875481">
        <ele>221.18</ele>
        <time>2024-12-29T17:20:34.173Z</time>
      </trkpt>
      <trkpt lat="49.89780896343291" lon="6.091007916256785">
        <ele>221.16</ele>
        <time>2024-12-29T17:20:53.137Z</time>
      </trkpt>
      <trkpt lat="49.89801314659417" lon="6.090774731710553">
        <ele>221.24</ele>
        <time>2024-12-29T17:21:12.134Z</time>
      </trkpt>
      <trkpt lat="49.8982169944793" lon="6.0905419662594795">
        <ele>221.4</ele>
        <time>2024-12-29T17:21:31.165Z</time>
      </trkpt>
      <trkpt lat="49.898188998922706" lon="6.090449932962656">
        <ele>221.51</ele>
        <time>2024-12-29T17:21:50.205Z</time>
      </trkpt>
      <trkpt lat="49.89836912602186" lon="6.090236697345972">
        <ele>221.8</ele>
        <time>2024-12-29T17:22:09.275Z</time>
      </trkpt>
      <trkpt lat="49.89854891784489" lon="6.090023964643478">
        <ele>222.21</ele>
        <time>2024-12-29T17:22:28.376Z</time>
      </trkpt>
      <trkpt lat="49.89872762002051" lon="6.089798239991069">
        <ele>222.69</ele>
        <time>2024-12-29T17:22:47.507Z</time>
      </trkpt>
      <trkpt lat="49.89890598692" lon="6.089572934433818">
        <ele>223.11</ele>
        <time>2024-12-29T17:23:06.669Z</time>
      </trkpt>
      <trkpt lat="49.898943956941366" lon="6.089550973847508">
        <ele>223.66</ele>
        <time>2024-12-29T17:23:25.836Z</time>
      </trkpt>
      <trkpt lat="49.89897195249796" lon="6.089594978839159">
        <ele>224.31</ele>
        <time>2024-12-29T17:23:45.009Z</time>
      </trkpt>
      <trkpt lat="49.89920597523451" lon="6.089299935847521">
        <ele>224.98</ele>
        <time>2024-12-29T17:24:04.222Z</time>
      </trkpt>
      <trkpt lat="49.8992669954896" lon="6.089191976934671">
        <ele>225.7</ele>
        <time>2024-12-29T17:24:23.447Z</time>
      </trkpt>
      <trkpt lat="49.89928996190429" lon="6.0891209822148085">
        <ele>226.5</ele>
        <time>2024-12-29T17:24:42.679Z</time>
      </trkpt>
      <trkpt lat="49.89930999465287" lon="6.0890379175543785">
        <ele>227.35</ele>
        <time>2024-12-29T17:25:01.919Z</time>
      </trkpt>
      <trkpt lat="49.89932097494602" lon="6.088942950591445">
        <ele>228.28</ele>
        <time>2024-12-29T17:25:21.167Z</time>
      </trkpt>
      <trkpt lat="49.89935492165387" lon="6.0889489855617285">
        <ele>229.29</ele>
        <time>2024-12-29T17:25:40.420Z</time>
      </trkpt>
      <trkpt lat="49.899372942745686" lon="6.0889519192278385">
        <ele>230.35</ele>
        <time>2024-12-29T17:25:59.675Z</time>
      </trkpt>
      <trkpt lat="49.89959799684584" lon="6.089010927826166">
        <ele>231.6</ele>
        <time>2024-12-29T17:26:18.961Z</time>
      </trkpt>
      <trkpt lat="49.899819949641824" lon="6.0891009494662285">
        <ele>232.93</ele>
        <time>2024-12-29T17:26:38.277Z</time>
      </trkpt>
      <trkpt lat="49.89994391798973" lon="6.089117964729667">
        <ele>234.26</ele>
        <time>2024-12-29T17:26:57.610Z</time>
      </trkpt>
      <trkpt lat="49.900054978206754" lon="6.089116958901286">
        <ele>235.59</ele>
        <time>2024-12-29T17:27:16.958Z</time>
      </trkpt>
      <trkpt lat="49.89998096600175" lon="6.088849995285273">
        <ele>236.73</ele>
        <time>2024-12-29T17:27:36.331Z</time>
      </trkpt>
      <trkpt lat="49.899972919374704" lon="6.088749999180436">
        <ele>237.97</ele>
        <time>2024-12-29T17:27:55.712Z</time>
      </trkpt>
      <trkpt lat="49.899992952123284" lon="6.088660983368754">
        <ele>239.25</ele>
        <time>2024-12-29T17:28:15.102Z</time>
      </trkpt>
      <trkpt lat="49.900058917701244" lon="6.088555958122015">
        <ele>240.6</ele>
        <time>2024-12-29T17:28:34.504Z</time>
      </trkpt>
      <trkpt lat="49.90019294433296" lon="6.088135940954089">
        <ele>241.95</ele>
        <time>2024-12-29T17:28:53.947Z</time>
      </trkpt>
      <trkpt lat="49.900269974023104" lon="6.08796595595777">
        <ele>243.28</ele>
        <time>2024-12-29T17:29:13.408Z</time>
      </trkpt>
      <trkpt lat="49.900312973186374" lon="6.087888926267624">
        <ele>244.55</ele>
        <time>2024-12-29T17:29:32.877Z</time>
      </trkpt>
      <trkpt lat="49.90038698539138" lon="6.087715923786163">
        <ele>245.85</ele>
        <time>2024-12-29T17:29:52.364Z</time>
      </trkpt>
      <trkpt lat="49.9004499334842" lon="6.087590949609876">
        <ele>247.04</ele>
        <time>2024-12-29T17:30:11.865Z</time>
      </trkpt>
      <trkpt lat="49.9006122071296" lon="6.087355669587851">
        <ele>248.27</ele>
        <time>2024-12-29T17:30:31.396Z</time>
      </trkpt>
      <trkpt lat="49.90077439695597" lon="6.087120305746794">
        <ele>249.48</ele>
        <time>2024-12-29T17:30:50.956Z</time>
      </trkpt>
      <trkpt lat="49.90093591623008" lon="6.0868859477341175">
        <ele>250.79</ele>
        <time>2024-12-29T17:31:10.546Z</time>
      </trkpt>
      <trkpt lat="49.90107296034694" lon="6.086663994938135">
        <ele>251.87</ele>
        <time>2024-12-29T17:31:30.162Z</time>
      </trkpt>
      <trkpt lat="49.90123397670686" lon="6.086338944733143">
        <ele>252.92</ele>
        <time>2024-12-29T17:31:49.814Z</time>
      </trkpt>
      <trkpt lat="49.90127496421337" lon="6.086297957226634">
        <ele>253.78</ele>
        <time>2024-12-29T17:32:09.472Z</time>
      </trkpt>
      <trkpt lat="49.90131192840636" lon="6.0863119550049305">
        <ele>254.63</ele>
        <time>2024-12-29T17:32:29.135Z</time>
      </trkpt>
      <trkpt lat="49.90131595171988" lon="6.086381943896413">
        <ele>255.42</ele>
        <time>2024-12-29T17:32:48.804Z</time>
      </trkpt>
      <trkpt lat="49.90126691758633" lon="6.086470959708095">
        <ele>256.13</ele>
        <time>2024-12-29T17:33:08.483Z</time>
      </trkpt>
      <trkpt lat="49.9012269359082" lon="6.086582941934466">
        <ele>256.8</ele>
        <time>2024-12-29T17:33:28.173Z</time>
      </trkpt>
      <trkpt lat="49.90114822983742" lon="6.086891731247306">
        <ele>257.32</ele>
        <time>2024-12-29T17:33:47.892Z</time>
      </trkpt>
      <trkpt lat="49.901069942861795" lon="6.087198927998543">
        <ele>257.83</ele>
        <time>2024-12-29T17:34:07.639Z</time>
      </trkpt>
      <trkpt lat="49.900960978120565" lon="6.087579969316721">
        <ele>258.31</ele>
        <time>2024-12-29T17:34:27.422Z</time>
      </trkpt>
      <trkpt lat="49.90088780410588" lon="6.087885741144419">
        <ele>258.86</ele>
        <time>2024-12-29T17:34:47.233Z</time>
      </trkpt>
      <trkpt lat="49.90081496536732" lon="6.088189920410514">
        <ele>259.38</ele>
        <time>2024-12-29T17:35:07.072Z</time>
      </trkpt>
      <trkpt lat="49.90080691874027" lon="6.088263932615519">
        <ele>259.94</ele>
        <time>2024-12-29T17:35:26.918Z</time>
      </trkpt>
      <trkpt lat="49.9008159711957" lon="6.088330987840891">
        <ele>260.54</ele>
        <time>2024-12-29T17:35:46.770Z</time>
      </trkpt>
      <trkpt lat="49.90084195509553" lon="6.0883699636906385">
        <ele>261.2</ele>
        <time>2024-12-29T17:36:06.627Z</time>
      </trkpt>
      <trkpt lat="49.900874979794025" lon="6.088367952033877">
        <ele>261.93</ele>
        <time>2024-12-29T17:36:26.488Z</time>
      </trkpt>
      <trkpt lat="49.90089995786548" lon="6.088333921507001">
        <ele>262.71</ele>
        <time>2024-12-29T17:36:46.353Z</time>
      </trkpt>
      <trkpt lat="49.90094396285713" lon="6.088193943724036">
        <ele>263.59</ele>
        <time>2024-12-29T17:37:06.232Z</time>
      </trkpt>
      <trkpt lat="49.901000959798694" lon="6.088060922920704">
        <ele>264.56</ele>
        <time>2024-12-29T17:37:26.125Z</time>
      </trkpt>
      <trkpt lat="49.90105393342674" lon="6.087963944301009">
        <ele>265.64</ele>
        <time>2024-12-29T17:37:46.029Z</time>
      </trkpt>
      <trkpt lat="49.90116893313825" lon="6.08781298622489">
        <ele>266.86</ele>
        <time>2024-12-29T17:38:05.953Z</time>
      </trkpt>
      <trkpt lat="49.90142097696662" lon="6.087524984031916">
        <ele>268.35</ele>
        <time>2024-12-29T17:38:25.919Z</time>
      </trkpt>
      <trkpt lat="49.90150697529316" lon="6.087458934634924">
        <ele>269.8</ele>
        <time>2024-12-29T17:38:45.897Z</time>
      </trkpt>
      <trkpt lat="49.901579981669784" lon="6.087424987927079">
        <ele>271.34</ele>
        <time>2024-12-29T17:39:05.886Z</time>
      </trkpt>
      <trkpt lat="49.9016569275409" lon="6.087408978492022">
        <ele>273.03</ele>
        <time>2024-12-29T17:39:25.885Z</time>
      </trkpt>
      <trkpt lat="49.90172264166176" lon="6.087418869137764">
        <ele>274.83</ele>
        <time>2024-12-29T17:39:45.893Z</time>
      </trkpt>
      <trkpt lat="49.90172297693789" lon="6.087418952956796">
        <ele>276.69</ele>
        <time>2024-12-29T17:40:05.901Z</time>
      </trkpt>
      <trkpt lat="49.90172306075692" lon="6.087418952956796">
        <ele>278.68</ele>
        <time>2024-12-29T17:40:25.909Z</time>
      </trkpt>
      <trkpt lat="49.90190092474222" lon="6.08747192658484">
        <ele>280.97</ele>
        <time>2024-12-29T17:40:45.941Z</time>
      </trkpt>
      <trkpt lat="49.90206697024405" lon="6.087506962940097">
        <ele>283.34</ele>
        <time>2024-12-29T17:41:05.995Z</time>
      </trkpt>
      <trkpt lat="49.90236897021532" lon="6.087519954890013">
        <ele>285.97</ele>
        <time>2024-12-29T17:41:26.090Z</time>
      </trkpt>
      <trkpt lat="49.902587486431" lon="6.08755893073976">
        <ele>288.66</ele>
        <time>2024-12-29T17:41:46.214Z</time>
      </trkpt>
      <trkpt lat="49.90280591882765" lon="6.08759799040854">
        <ele>291.49</ele>
        <time>2024-12-29T17:42:06.367Z</time>
      </trkpt>
      <trkpt lat="49.90294396877289" lon="6.087606959044933">
        <ele>294.38</ele>
        <time>2024-12-29T17:42:26.539Z</time>
      </trkpt>
      <trkpt lat="49.90312200039625" lon="6.087633445858955">
        <ele>297.4</ele>
        <time>2024-12-29T17:42:46.735Z</time>
      </trkpt>
      <trkpt lat="49.90329994820058" lon="6.0876599326729774">
        <ele>300.51</ele>
        <time>2024-12-29T17:43:06.954Z</time>
      </trkpt>
      <trkpt lat="49.90337697789073" lon="6.087688934057951">
        <ele>303.65</ele>
        <time>2024-12-29T17:43:27.184Z</time>
      </trkpt>
      <trkpt lat="49.903665985912085" lon="6.087870988994837">
        <ele>307.14</ele>
        <time>2024-12-29T17:43:47.456Z</time>
      </trkpt>
      <trkpt lat="49.90382792428136" lon="6.087955981492996">
        <ele>310.58</ele>
        <time>2024-12-29T17:44:07.751Z</time>
      </trkpt>
      <trkpt lat="49.90393596701324" lon="6.0880389623343945">
        <ele>314.06</ele>
        <time>2024-12-29T17:44:28.062Z</time>
      </trkpt>
      <trkpt lat="49.90413000807166" lon="6.088124457746744">
        <ele>317.66</ele>
        <time>2024-12-29T17:44:48.400Z</time>
      </trkpt>
      <trkpt lat="49.90432396531105" lon="6.088209953159094">
        <ele>321.3</ele>
        <time>2024-12-29T17:45:08.764Z</time>
      </trkpt>
      <trkpt lat="49.90457399748266" lon="6.088257981464267">
        <ele>325.05</ele>
        <time>2024-12-29T17:45:29.162Z</time>
      </trkpt>
      <trkpt lat="49.904703916981816" lon="6.088307937607169">
        <ele>328.67</ele>
        <time>2024-12-29T17:45:49.578Z</time>
      </trkpt>
      <trkpt lat="49.90477197803557" lon="6.088365940377116">
        <ele>332.23</ele>
        <time>2024-12-29T17:46:10.004Z</time>
      </trkpt>
      <trkpt lat="49.90486292168498" lon="6.088464930653572">
        <ele>335.85</ele>
        <time>2024-12-29T17:46:30.445Z</time>
      </trkpt>
      <trkpt lat="49.90503592416644" lon="6.088590994477272">
        <ele>339.59</ele>
        <time>2024-12-29T17:46:50.912Z</time>
      </trkpt>
      <trkpt lat="49.905195934697986" lon="6.0886559542268515">
        <ele>343.21</ele>
        <time>2024-12-29T17:47:11.401Z</time>
      </trkpt>
      <trkpt lat="49.905362986028194" lon="6.088774977251887">
        <ele>346.8</ele>
        <time>2024-12-29T17:47:31.914Z</time>
      </trkpt>
      <trkpt lat="49.905514949932694" lon="6.088918978348374">
        <ele>350.33</ele>
        <time>2024-12-29T17:47:52.451Z</time>
      </trkpt>
      <trkpt lat="49.905668925493956" lon="6.08903992921114">
        <ele>353.78</ele>
        <time>2024-12-29T17:48:13.011Z</time>
      </trkpt>
      <trkpt lat="49.90588593296707" lon="6.0892499797046185">
        <ele>357.2</ele>
        <time>2024-12-29T17:48:33.605Z</time>
      </trkpt>
      <trkpt lat="49.90597293712199" lon="6.0893509816378355">
        <ele>360.44</ele>
        <time>2024-12-29T17:48:54.214Z</time>
      </trkpt>
      <trkpt lat="49.906051978468895" lon="6.08946992084384">
        <ele>363.6</ele>
        <time>2024-12-29T17:49:14.838Z</time>
      </trkpt>
      <trkpt lat="49.90612791851163" lon="6.089648958295584">
        <ele>366.72</ele>
        <time>2024-12-29T17:49:35.480Z</time>
      </trkpt>
      <trkpt lat="49.90616798400879" lon="6.089720958843827">
        <ele>369.74</ele>
        <time>2024-12-29T17:49:56.130Z</time>
      </trkpt>
      <trkpt lat="49.906223975121975" lon="6.089779967442155">
        <ele>372.72</ele>
        <time>2024-12-29T17:50:16.789Z</time>
      </trkpt>
      <trkpt lat="49.90636998787522" lon="6.089847944676876">
        <ele>375.78</ele>
        <time>2024-12-29T17:50:37.469Z</time>
      </trkpt>
      <trkpt lat="49.90658196620643" lon="6.089959926903248">
        <ele>378.84</ele>
        <time>2024-12-29T17:50:58.178Z</time>
      </trkpt>
      <trkpt lat="49.906801991164684" lon="6.090024970471859">
        <ele>381.78</ele>
        <time>2024-12-29T17:51:18.917Z</time>
      </trkpt>
      <trkpt lat="49.90694993175566" lon="6.09011298045516">
        <ele>384.61</ele>
        <time>2024-12-29T17:51:39.678Z</time>
      </trkpt>
      <trkpt lat="49.90711111575365" lon="6.090265614911914">
        <ele>387.42</ele>
        <time>2024-12-29T17:52:00.464Z</time>
      </trkpt>
      <trkpt lat="49.90727196447551" lon="6.0904179979115725">
        <ele>390.18</ele>
        <time>2024-12-29T17:52:21.275Z</time>
      </trkpt>
      <trkpt lat="49.90739199332893" lon="6.090548923239112">
        <ele>392.95</ele>
        <time>2024-12-29T17:52:42.106Z</time>
      </trkpt>
      <trkpt lat="49.90746499970555" lon="6.090616984292865">
        <ele>395.67</ele>
        <time>2024-12-29T17:53:02.948Z</time>
      </trkpt>
      <trkpt lat="49.90769600495696" lon="6.090733492746949">
        <ele>398.49</ele>
        <time>2024-12-29T17:53:23.822Z</time>
      </trkpt>
      <trkpt lat="49.90792692638934" lon="6.090849917382002">
        <ele>401.37</ele>
        <time>2024-12-29T17:53:44.729Z</time>
      </trkpt>
      <trkpt lat="49.90819891914725" lon="6.090944968163967">
        <ele>404.18</ele>
        <time>2024-12-29T17:54:05.673Z</time>
      </trkpt>
      <trkpt lat="49.90829396992922" lon="6.090993918478489">
        <ele>406.81</ele>
        <time>2024-12-29T17:54:26.630Z</time>
      </trkpt>
      <trkpt lat="49.908368987962604" lon="6.091097937896848">
        <ele>409.43</ele>
        <time>2024-12-29T17:54:47.601Z</time>
      </trkpt>
      <trkpt lat="49.90842095576227" lon="6.091199945658445">
        <ele>412.0</ele>
        <time>2024-12-29T17:55:08.583Z</time>
      </trkpt>
      <trkpt lat="49.90857493132353" lon="6.091345958411694">
        <ele>414.6</ele>
        <time>2024-12-29T17:55:29.589Z</time>
      </trkpt>
      <trkpt lat="49.90874893963337" lon="6.091481996700168">
        <ele>417.15</ele>
        <time>2024-12-29T17:55:50.621Z</time>
      </trkpt>
      <trkpt lat="49.90889704786241" lon="6.091620046645403">
        <ele>419.74</ele>
        <time>2024-12-29T17:56:11.676Z</time>
      </trkpt>
      <trkpt lat="49.90904498845339" lon="6.091757928952575">
        <ele>422.31</ele>
        <time>2024-12-29T17:56:32.754Z</time>
      </trkpt>
      <trkpt lat="49.90916493348777" lon="6.091901930049062">
        <ele>424.8</ele>
        <time>2024-12-29T17:56:53.852Z</time>
      </trkpt>
      <trkpt lat="49.90929393097758" lon="6.092224968597293">
        <ele>427.3</ele>
        <time>2024-12-29T17:57:14.983Z</time>
      </trkpt>
      <trkpt lat="49.90931295789778" lon="6.092241983860731">
        <ele>429.41</ele>
        <time>2024-12-29T17:57:36.117Z</time>
      </trkpt>
      <trkpt lat="49.90935092791915" lon="6.092222956940532">
        <ele>431.43</ele>
        <time>2024-12-29T17:57:57.256Z</time>
      </trkpt>
      <trkpt lat="49.90937598980963" lon="6.092227986082435">
        <ele>433.39</ele>
        <time>2024-12-29T17:58:18.399Z</time>
      </trkpt>
      <trkpt lat="49.909401973709464" lon="6.092249946668744">
        <ele>435.29</ele>
        <time>2024-12-29T17:58:39.546Z</time>
      </trkpt>
      <trkpt lat="49.90943399257958" lon="6.092241983860731">
        <ele>437.11</ele>
        <time>2024-12-29T17:59:00.697Z</time>
      </trkpt>
      <trkpt lat="49.90964496508241" lon="6.092097982764244">
        <ele>438.94</ele>
        <time>2024-12-29T17:59:21.879Z</time>
      </trkpt>
      <trkpt lat="49.90978494286537" lon="6.092114998027682">
        <ele>440.69</ele>
        <time>2024-12-29T17:59:43.080Z</time>
      </trkpt>
      <trkpt lat="49.90982098504901" lon="6.09213394112885">
        <ele>442.34</ele>
        <time>2024-12-29T18:00:04.286Z</time>
      </trkpt>
      <trkpt lat="49.909851998090744" lon="6.092188926413655">
        <ele>443.97</ele>
        <time>2024-12-29T18:00:25.498Z</time>
      </trkpt>
      <trkpt lat="49.90985996089876" lon="6.092295963317156">
        <ele>445.56</ele>
        <time>2024-12-29T18:00:46.719Z</time>
      </trkpt>
      <trkpt lat="49.909921986982226" lon="6.092481957748532">
        <ele>447.2</ele>
        <time>2024-12-29T18:01:07.958Z</time>
      </trkpt>
      <trkpt lat="49.90996599197388" lon="6.092550940811634">
        <ele>448.69</ele>
        <time>2024-12-29T18:01:29.206Z</time>
      </trkpt>
      <trkpt lat="49.90997093729675" lon="6.092605926096439">
        <ele>450.09</ele>
        <time>2024-12-29T18:01:50.458Z</time>
      </trkpt>
      <trkpt lat="49.909986946731806" lon="6.092642974108458">
        <ele>451.46</ele>
        <time>2024-12-29T18:02:11.714Z</time>
      </trkpt>
      <trkpt lat="49.90999298170209" lon="6.09271296299994">
        <ele>452.8</ele>
        <time>2024-12-29T18:02:32.976Z</time>
      </trkpt>
      <trkpt lat="49.910010918974876" lon="6.092746993526816">
        <ele>454.1</ele>
        <time>2024-12-29T18:02:54.242Z</time>
      </trkpt>
      <trkpt lat="49.91017092950642" lon="6.09290792606771">
        <ele>455.57</ele>
        <time>2024-12-29T18:03:15.534Z</time>
      </trkpt>
      <trkpt lat="49.91025793366134" lon="6.09294799156487">
        <ele>456.79</ele>
        <time>2024-12-29T18:03:36.838Z</time>
      </trkpt>
      <trkpt lat="49.910370921716094" lon="6.09307992272079">
        <ele>458.01</ele>
        <time>2024-12-29T18:03:58.161Z</time>
      </trkpt>
      <trkpt lat="49.91042397916317" lon="6.093193916603923">
        <ele>459.12</ele>
        <time>2024-12-29T18:04:19.496Z</time>
      </trkpt>
      <trkpt lat="49.910457925871015" lon="6.093332972377539">
        <ele>460.18</ele>
        <time>2024-12-29T18:04:40.844Z</time>
      </trkpt>
      <trkpt lat="49.91050897166133" lon="6.09340094961226">
        <ele>461.15</ele>
        <time>2024-12-29T18:05:02.201Z</time>
      </trkpt>
      <trkpt lat="49.910669988021255" lon="6.093483930453658">
        <ele>462.07</ele>
        <time>2024-12-29T18:05:23.580Z</time>
      </trkpt>
      <trkpt lat="49.910736959427595" lon="6.0935459565371275">
        <ele>462.95</ele>
        <time>2024-12-29T18:05:44.970Z</time>
      </trkpt>
      <trkpt lat="49.910820946097374" lon="6.093584932386875">
        <ele>463.74</ele>
        <time>2024-12-29T18:06:06.371Z</time>
      </trkpt>
      <trkpt lat="49.91096595302224" lon="6.093612927943468">
        <ele>464.46</ele>
        <time>2024-12-29T18:06:27.792Z</time>
      </trkpt>
      <trkpt lat="49.911080952733755" lon="6.093619968742132">
        <ele>465.08</ele>
        <time>2024-12-29T18:06:49.228Z</time>
      </trkpt>
      <trkpt lat="49.91114096716046" lon="6.093609994277358">
        <ele>465.61</ele>
        <time>2024-12-29T18:07:10.672Z</time>
      </trkpt>
      <trkpt lat="49.91125697270036" lon="6.093645952641964">
        <ele>466.12</ele>
        <time>2024-12-29T18:07:32.132Z</time>
      </trkpt>
      <trkpt lat="49.911289159208536" lon="6.093760868534446">
        <ele>466.63</ele>
        <time>2024-12-29T18:07:53.603Z</time>
      </trkpt>
      <trkpt lat="49.911293936893344" lon="6.093777967616916">
        <ele>466.96</ele>
        <time>2024-12-29T18:08:15.075Z</time>
      </trkpt>
      <trkpt lat="49.91138999350369" lon="6.093954993411899">
        <ele>467.38</ele>
        <time>2024-12-29T18:08:36.567Z</time>
      </trkpt>
      <trkpt lat="49.911448918282986" lon="6.0940259881317616">
        <ele>467.62</ele>
        <time>2024-12-29T18:08:58.069Z</time>
      </trkpt>
      <trkpt lat="49.91148496046662" lon="6.094024982303381">
        <ele>467.72</ele>
        <time>2024-12-29T18:09:19.576Z</time>
      </trkpt>
      <trkpt lat="49.911640947684646" lon="6.09402297064662">
        <ele>467.7</ele>
        <time>2024-12-29T18:09:41.104Z</time>
      </trkpt>
      <trkpt lat="49.91172191686928" lon="6.094073932617903">
        <ele>467.68</ele>
        <time>2024-12-29T18:10:02.644Z</time>
      </trkpt>
      <trkpt lat="49.91188595071435" lon="6.094104442745447">
        <ele>467.53</ele>
        <time>2024-12-29T18:10:24.206Z</time>
      </trkpt>
      <trkpt lat="49.91204998455942" lon="6.094134952872992">
        <ele>467.29</ele>
        <time>2024-12-29T18:10:45.790Z</time>
      </trkpt>
      <trkpt lat="49.912156937643886" lon="6.09413294121623">
        <ele>467.05</ele>
        <time>2024-12-29T18:11:07.388Z</time>
      </trkpt>
      <trkpt lat="49.91228895261884" lon="6.094080973416567">
        <ele>466.69</ele>
        <time>2024-12-29T18:11:29.004Z</time>
      </trkpt>
      <trkpt lat="49.912408981472254" lon="6.094091953709722">
        <ele>466.41</ele>
        <time>2024-12-29T18:11:50.636Z</time>
      </trkpt>
      <trkpt lat="49.91250495426357" lon="6.094124978408217">
        <ele>466.21</ele>
        <time>2024-12-29T18:12:12.281Z</time>
      </trkpt>
      <trkpt lat="49.91261995397508" lon="6.094207959249616">
        <ele>466.05</ele>
        <time>2024-12-29T18:12:33.943Z</time>
      </trkpt>
      <trkpt lat="49.91274895146489" lon="6.094355983659625">
        <ele>465.94</ele>
        <time>2024-12-29T18:12:55.627Z</time>
      </trkpt>
      <trkpt lat="49.91281198337674" lon="6.094510965049267">
        <ele>465.99</ele>
        <time>2024-12-29T18:13:17.327Z</time>
      </trkpt>
      <trkpt lat="49.91288716904819" lon="6.094784131273627">
        <ele>466.09</ele>
        <time>2024-12-29T18:13:39.052Z</time>
      </trkpt>
      <trkpt lat="49.91296193562448" lon="6.09505595639348">
        <ele>466.15</ele>
        <time>2024-12-29T18:14:00.803Z</time>
      </trkpt>
      <trkpt lat="49.91304298862815" lon="6.095472956076264">
        <ele>466.29</ele>
        <time>2024-12-29T18:14:22.591Z</time>
      </trkpt>
      <trkpt lat="49.913133680820465" lon="6.095728520303965">
        <ele>466.43</ele>
        <time>2024-12-29T18:14:44.404Z</time>
      </trkpt>
      <trkpt lat="49.91322395391762" lon="6.0959829948842525">
        <ele>466.55</ele>
        <time>2024-12-29T18:15:06.242Z</time>
      </trkpt>
      <trkpt lat="49.91330098360777" lon="6.09625599347055">
        <ele>466.7</ele>
        <time>2024-12-29T18:15:28.106Z</time>
      </trkpt>
      <trkpt lat="49.91340215317905" lon="6.096544079482555">
        <ele>466.84</ele>
        <time>2024-12-29T18:15:49.998Z</time>
      </trkpt>
      <trkpt lat="49.9135029874742" lon="6.096830992028117">
        <ele>466.98</ele>
        <time>2024-12-29T18:16:11.918Z</time>
      </trkpt>
      <trkpt lat="49.91349896416068" lon="6.097028972581029">
        <ele>467.15</ele>
        <time>2024-12-29T18:16:33.855Z</time>
      </trkpt>
      <trkpt lat="49.91340793669224" lon="6.097231982275844">
        <ele>467.36</ele>
        <time>2024-12-29T18:16:55.814Z</time>
      </trkpt>
      <trkpt lat="49.91343794390559" lon="6.097329966723919">
        <ele>467.31</ele>
        <time>2024-12-29T18:17:17.782Z</time>
      </trkpt>
      <trkpt lat="49.91351120173931" lon="6.097306748852134">
        <ele>467.11</ele>
        <time>2024-12-29T18:17:39.760Z</time>
      </trkpt>
      <trkpt lat="49.913656963035464" lon="6.097260480746627">
        <ele>466.75</ele>
        <time>2024-12-29T18:18:01.758Z</time>
      </trkpt>
      <trkpt lat="49.91387598216534" lon="6.097190994769335">
        <ele>466.42</ele>
        <time>2024-12-29T18:18:23.786Z</time>
      </trkpt>
      <trkpt lat="49.913917975500226" lon="6.097147995606065">
        <ele>466.09</ele>
        <time>2024-12-29T18:18:45.820Z</time>
      </trkpt>
      <trkpt lat="49.91412676870823" lon="6.096838535740972">
        <ele>465.66</ele>
        <time>2024-12-29T18:19:07.893Z</time>
      </trkpt>
      <trkpt lat="49.91433497518301" lon="6.096529997885227">
        <ele>465.05</ele>
        <time>2024-12-29T18:19:30.005Z</time>
      </trkpt>
      <trkpt lat="49.91437596268952" lon="6.096490938216448">
        <ele>464.52</ele>
        <time>2024-12-29T18:19:52.123Z</time>
      </trkpt>
      <trkpt lat="49.91442893631756" lon="6.0964709892869">
        <ele>463.93</ele>
        <time>2024-12-29T18:20:14.248Z</time>
      </trkpt>
      <trkpt lat="49.91455625742674" lon="6.096060527488589">
        <ele>463.03</ele>
        <time>2024-12-29T18:20:36.412Z</time>
      </trkpt>
      <trkpt lat="49.914683578535914" lon="6.095650065690279">
        <ele>462.25</ele>
        <time>2024-12-29T18:20:58.616Z</time>
      </trkpt>
      <trkpt lat="49.91481081582606" lon="6.095239687711">
        <ele>461.42</ele>
        <time>2024-12-29T18:21:20.859Z</time>
      </trkpt>
      <trkpt lat="49.91493696346879" lon="6.094832997769117">
        <ele>460.48</ele>
        <time>2024-12-29T18:21:43.141Z</time>
      </trkpt>
      <trkpt lat="49.915025141090155" lon="6.09462202526629">
        <ele>459.51</ele>
        <time>2024-12-29T18:22:05.444Z</time>
      </trkpt>
      <trkpt lat="49.91511298343539" lon="6.094411974772811">
        <ele>458.42</ele>
        <time>2024-12-29T18:22:27.769Z</time>
      </trkpt>
      <trkpt lat="49.915293948724866" lon="6.0940539836883545">
        <ele>457.27</ele>
        <time>2024-12-29T18:22:50.133Z</time>
      </trkpt>
      <trkpt lat="49.91538195870817" lon="6.0938269179314375">
        <ele>455.96</ele>
        <time>2024-12-29T18:23:12.520Z</time>
      </trkpt>
      <trkpt lat="49.915439961478114" lon="6.093578981235623">
        <ele>454.49</ele>
        <time>2024-12-29T18:23:34.930Z</time>
      </trkpt>
      <trkpt lat="49.91550165228546" lon="6.093188971281052">
        <ele>452.98</ele>
        <time>2024-12-29T18:23:57.374Z</time>
      </trkpt>
      <trkpt lat="49.91556325927377" lon="6.092798877507448">
        <ele>451.57</ele>
        <time>2024-12-29T18:24:19.853Z</time>
      </trkpt>
      <trkpt lat="49.91562495008111" lon="6.0924088675528765">
        <ele>450.1</ele>
        <time>2024-12-29T18:24:42.367Z</time>
      </trkpt>
      <trkpt lat="49.9156859703362" lon="6.092022964730859">
        <ele>448.47</ele>
        <time>2024-12-29T18:25:04.915Z</time>
      </trkpt>
      <trkpt lat="49.91571396589279" lon="6.091864965856075">
        <ele>446.78</ele>
        <time>2024-12-29T18:25:27.477Z</time>
      </trkpt>
      <trkpt lat="49.9157393630594" lon="6.091784164309502">
        <ele>445.05</ele>
        <time>2024-12-29T18:25:50.047Z</time>
      </trkpt>
      <trkpt lat="49.91575696505606" lon="6.091727921739221">
        <ele>443.25</ele>
        <time>2024-12-29T18:26:12.622Z</time>
      </trkpt>
      <trkpt lat="49.91587699390948" lon="6.091558942571282">
        <ele>441.43</ele>
        <time>2024-12-29T18:26:35.219Z</time>
      </trkpt>
      <trkpt lat="49.91586098447442" lon="6.091441931203008">
        <ele>439.34</ele>
        <time>2024-12-29T18:26:57.826Z</time>
      </trkpt>
      <trkpt lat="49.91601177491248" lon="6.091117383912206">
        <ele>437.13</ele>
        <time>2024-12-29T18:27:20.468Z</time>
      </trkpt>
      <trkpt lat="49.91616197861731" lon="6.090793926268816">
        <ele>434.85</ele>
        <time>2024-12-29T18:27:43.144Z</time>
      </trkpt>
      <trkpt lat="49.916194919496775" lon="6.090702982619405">
        <ele>432.67</ele>
        <time>2024-12-29T18:28:05.829Z</time>
      </trkpt>
      <trkpt lat="49.91620095446706" lon="6.090570967644453">
        <ele>430.32</ele>
        <time>2024-12-29T18:28:28.525Z</time>
      </trkpt>
      <trkpt lat="49.91617999970913" lon="6.090508941560984">
        <ele>427.97</ele>
        <time>2024-12-29T18:28:51.227Z</time>
      </trkpt>
      <trkpt lat="49.91614496335387" lon="6.090490920469165">
        <ele>425.63</ele>
        <time>2024-12-29T18:29:13.934Z</time>
      </trkpt>
      <trkpt lat="49.91613599471748" lon="6.090450938791037">
        <ele>423.27</ele>
        <time>2024-12-29T18:29:36.645Z</time>
      </trkpt>
      <trkpt lat="49.916191985830665" lon="6.090148938819766">
        <ele>420.62</ele>
        <time>2024-12-29T18:29:59.383Z</time>
      </trkpt>
      <trkpt lat="49.916194919496775" lon="6.090103927999735">
        <ele>418.25</ele>
        <time>2024-12-29T18:30:22.125Z</time>
      </trkpt>
      <trkpt lat="49.91617597639561" lon="6.090016923844814">
        <ele>415.77</ele>
        <time>2024-12-29T18:30:44.875Z</time>
      </trkpt>
      <trkpt lat="49.91615694947541" lon="6.090000998228788">
        <ele>413.4</ele>
        <time>2024-12-29T18:31:07.628Z</time>
      </trkpt>
      <trkpt lat="49.91605997085571" lon="6.09002597630024">
        <ele>410.9</ele>
        <time>2024-12-29T18:31:30.394Z</time>
      </trkpt>
      <trkpt lat="49.9160469789058" lon="6.090014996007085">
        <ele>408.61</ele>
        <time>2024-12-29T18:31:53.162Z</time>
      </trkpt>
      <trkpt lat="49.916042955592275" lon="6.089971996843815">
        <ele>406.33</ele>
        <time>2024-12-29T18:32:15.934Z</time>
      </trkpt>
      <trkpt lat="49.91608092561364" lon="6.089738979935646">
        <ele>404.09</ele>
        <time>2024-12-29T18:32:38.726Z</time>
      </trkpt>
      <trkpt lat="49.916068939492106" lon="6.089710984379053">
        <ele>401.94</ele>
        <time>2024-12-29T18:33:01.521Z</time>
      </trkpt>
      <trkpt lat="49.91604094393551" lon="6.0896949749439955">
        <ele>399.81</ele>
        <time>2024-12-29T18:33:24.320Z</time>
      </trkpt>
      <trkpt lat="49.915980929508805" lon="6.08968198299408">
        <ele>397.64</ele>
        <time>2024-12-29T18:33:47.127Z</time>
      </trkpt>
      <trkpt lat="49.91594396531582" lon="6.0896519757807255">
        <ele>395.6</ele>
        <time>2024-12-29T18:34:09.940Z</time>
      </trkpt>
      <trkpt lat="49.915894931182265" lon="6.08964191749692">
        <ele>393.59</ele>
        <time>2024-12-29T18:34:32.759Z</time>
      </trkpt>
      <trkpt lat="49.91586098447442" lon="6.089613921940327">
        <ele>391.71</ele>
        <time>2024-12-29T18:34:55.583Z</time>
      </trkpt>
      <trkpt lat="49.91586492396891" lon="6.08948995359242">
        <ele>390.0</ele>
        <time>2024-12-29T18:35:18.418Z</time>
      </trkpt>
      <trkpt lat="49.91599098779261" lon="6.08916993252933">
        <ele>388.53</ele>
        <time>2024-12-29T18:35:41.285Z</time>
      </trkpt>
      <trkpt lat="49.91603893227875" lon="6.089025931432843">
        <ele>386.94</ele>
        <time>2024-12-29T18:36:04.166Z</time>
      </trkpt>
      <trkpt lat="49.91607195697725" lon="6.088970946148038">
        <ele>385.5</ele>
        <time>2024-12-29T18:36:27.054Z</time>
      </trkpt>
      <trkpt lat="49.9161019641906" lon="6.088857958093286">
        <ele>384.01</ele>
        <time>2024-12-29T18:36:49.952Z</time>
      </trkpt>
      <trkpt lat="49.91616692394018" lon="6.088702976703644">
        <ele>382.57</ele>
        <time>2024-12-29T18:37:12.866Z</time>
      </trkpt>
      <trkpt lat="49.9162229988724" lon="6.088605998083949">
        <ele>381.22</ele>
        <time>2024-12-29T18:37:35.792Z</time>
      </trkpt>
      <trkpt lat="49.91622392088175" lon="6.088502984493971">
        <ele>379.85</ele>
        <time>2024-12-29T18:37:58.726Z</time>
      </trkpt>
      <trkpt lat="49.91624294780195" lon="6.088468953967094">
        <ele>378.77</ele>
        <time>2024-12-29T18:38:21.664Z</time>
      </trkpt>
      <trkpt lat="49.91630799137056" lon="6.08845897950232">
        <ele>377.85</ele>
        <time>2024-12-29T18:38:44.611Z</time>
      </trkpt>
      <trkpt lat="49.916406981647015" lon="6.088355965912342">
        <ele>376.87</ele>
        <time>2024-12-29T18:39:07.574Z</time>
      </trkpt>
      <trkpt lat="49.91641393862665" lon="6.088338950648904">
        <ele>375.92</ele>
        <time>2024-12-29T18:39:30.539Z</time>
      </trkpt>
      <trkpt lat="49.91640496999025" lon="6.088320929557085">
        <ele>374.97</ele>
        <time>2024-12-29T18:39:53.506Z</time>
      </trkpt>
      <trkpt lat="49.91635392419994" lon="6.088295951485634">
        <ele>373.98</ele>
        <time>2024-12-29T18:40:16.480Z</time>
      </trkpt>
      <trkpt lat="49.91631897166371" lon="6.08830894343555">
        <ele>373.09</ele>
        <time>2024-12-29T18:40:39.459Z</time>
      </trkpt>
      <trkpt lat="49.91628795862198" lon="6.088290922343731">
        <ele>372.14</ele>
        <time>2024-12-29T18:41:02.442Z</time>
      </trkpt>
      <trkpt lat="49.91622995585203" lon="6.08828698284924">
        <ele>371.17</ele>
        <time>2024-12-29T18:41:25.433Z</time>
      </trkpt>
      <trkpt lat="49.916213946416974" lon="6.088274996727705">
        <ele>370.23</ele>
        <time>2024-12-29T18:41:48.426Z</time>
      </trkpt>
      <trkpt lat="49.91622392088175" lon="6.088235937058926">
        <ele>369.27</ele>
        <time>2024-12-29T18:42:11.423Z</time>
      </trkpt>
      <trkpt lat="49.91626197472215" lon="6.0882029961794615">
        <ele>368.3</ele>
        <time>2024-12-29T18:42:34.426Z</time>
      </trkpt>
      <trkpt lat="49.91638099774718" lon="6.088169971480966">
        <ele>367.39</ele>
        <time>2024-12-29T18:42:57.445Z</time>
      </trkpt>
      <trkpt lat="49.91643992252648" lon="6.088126972317696">
        <ele>366.29</ele>
        <time>2024-12-29T18:43:20.472Z</time>
      </trkpt>
      <trkpt lat="49.916448974981904" lon="6.088109957054257">
        <ele>365.07</ele>
        <time>2024-12-29T18:43:43.501Z</time>
      </trkpt>
      <trkpt lat="49.91644092835486" lon="6.088090930134058">
        <ele>363.73</ele>
        <time>2024-12-29T18:44:06.532Z</time>
      </trkpt>
      <trkpt lat="49.91628795862198" lon="6.087951958179474">
        <ele>361.99</ele>
        <time>2024-12-29T18:44:29.587Z</time>
      </trkpt>
      <trkpt lat="49.916280917823315" lon="6.087927985936403">
        <ele>360.52</ele>
        <time>2024-12-29T18:44:52.644Z</time>
      </trkpt>
      <trkpt lat="49.91629399359226" lon="6.087900996208191">
        <ele>358.98</ele>
        <time>2024-12-29T18:45:15.704Z</time>
      </trkpt>
      <trkpt lat="49.916408993303776" lon="6.087740985676646">
        <ele>357.29</ele>
        <time>2024-12-29T18:45:38.785Z</time>
      </trkpt>
      <trkpt lat="49.916406981647015" lon="6.087718941271305">
        <ele>355.58</ele>
        <time>2024-12-29T18:46:01.868Z</time>
      </trkpt>
      <trkpt lat="49.91631293669343" lon="6.0876449290663">
        <ele>353.61</ele>
        <time>2024-12-29T18:46:24.965Z</time>
      </trkpt>
      <trkpt lat="49.91622995585203" lon="6.087617939338088">
        <ele>351.66</ele>
        <time>2024-12-29T18:46:48.073Z</time>
      </trkpt>
      <trkpt lat="49.91618293337524" lon="6.087586926296353">
        <ele>349.65</ele>
        <time>2024-12-29T18:47:11.188Z</time>
      </trkpt>
      <trkpt lat="49.916041949763894" lon="6.087566977366805">
        <ele>347.4</ele>
        <time>2024-12-29T18:47:34.322Z</time>
      </trkpt>
      <trkpt lat="49.916002973914146" lon="6.087539987638593">
        <ele>345.39</ele>
        <time>2024-12-29T18:47:57.462Z</time>
      </trkpt>
      <trkpt lat="49.91599693894386" lon="6.087463963776827">
        <ele>343.4</ele>
        <time>2024-12-29T18:48:20.608Z</time>
      </trkpt>
      <trkpt lat="49.915956957265735" lon="6.0874219704419374">
        <ele>341.36</ele>
        <time>2024-12-29T18:48:43.761Z</time>
      </trkpt>
      <trkpt lat="49.91587892174721" lon="6.0874219704419374">
        <ele>339.15</ele>
        <time>2024-12-29T18:49:06.924Z</time>
      </trkpt>
      <trkpt lat="49.91584095172584" lon="6.087440997362137">
        <ele>337.18</ele>
        <time>2024-12-29T18:49:30.092Z</time>
      </trkpt>
      <trkpt lat="49.91582594811916" lon="6.087433956563473">
        <ele>335.31</ele>
        <time>2024-12-29T18:49:53.262Z</time>
      </trkpt>
      <trkpt lat="49.91581496782601" lon="6.087353993207216">
        <ele>333.4</ele>
        <time>2024-12-29T18:50:16.439Z</time>
      </trkpt>
      <trkpt lat="49.91579099558294" lon="6.087354999035597">
        <ele>331.54</ele>
        <time>2024-12-29T18:50:39.620Z</time>
      </trkpt>
      <trkpt lat="49.91577196866274" lon="6.087333960458636">
        <ele>329.7</ele>
        <time>2024-12-29T18:51:02.804Z</time>
      </trkpt>
      <trkpt lat="49.915766939520836" lon="6.087281992658973">
        <ele>327.91</ele>
        <time>2024-12-29T18:51:25.992Z</time>
      </trkpt>
      <trkpt lat="49.91577498614788" lon="6.087238993495703">
        <ele>326.17</ele>
        <time>2024-12-29T18:51:49.184Z</time>
      </trkpt>
      <trkpt lat="49.91578998975456" lon="6.087208986282349">
        <ele>324.42</ele>
        <time>2024-12-29T18:52:12.379Z</time>
      </trkpt>
      <trkpt lat="49.91581597365439" lon="6.0871869418770075">
        <ele>322.65</ele>
        <time>2024-12-29T18:52:35.578Z</time>
      </trkpt>
      <trkpt lat="49.915847992524505" lon="6.087113935500383">
        <ele>320.73</ele>
        <time>2024-12-29T18:52:58.785Z</time>
      </trkpt>
      <trkpt lat="49.91592695005238" lon="6.087059956043959">
        <ele>318.96</ele>
        <time>2024-12-29T18:53:22.004Z</time>
      </trkpt>
      <trkpt lat="49.91590297780931" lon="6.087020980194211">
        <ele>316.69</ele>
        <time>2024-12-29T18:53:45.227Z</time>
      </trkpt>
      <trkpt lat="49.91582293063402" lon="6.086958954110742">
        <ele>314.19</ele>
        <time>2024-12-29T18:54:08.462Z</time>
      </trkpt>
      <trkpt lat="49.9157739803195" lon="6.086959959939122">
        <ele>311.82</ele>
        <time>2024-12-29T18:54:31.704Z</time>
      </trkpt>
      <trkpt lat="49.91575797088444" lon="6.086929952725768">
        <ele>309.44</ele>
        <time>2024-12-29T18:54:54.949Z</time>
      </trkpt>
      <trkpt lat="49.91559896618128" lon="6.0868279449641705">
        <ele>306.58</ele>
        <time>2024-12-29T18:55:18.217Z</time>
      </trkpt>
      <trkpt lat="49.91541096009314" lon="6.086751921102405">
        <ele>303.83</ele>
        <time>2024-12-29T18:55:41.511Z</time>
      </trkpt>
      <trkpt lat="49.915416995063424" lon="6.086617978289723">
        <ele>301.53</ele>
        <time>2024-12-29T18:56:04.816Z</time>
      </trkpt>
      <trkpt lat="49.915397968143225" lon="6.086552934721112">
        <ele>299.13</ele>
        <time>2024-12-29T18:56:28.128Z</time>
      </trkpt>
      <trkpt lat="49.91538698785007" lon="6.086403988301754">
        <ele>296.71</ele>
        <time>2024-12-29T18:56:51.453Z</time>
      </trkpt>
      <trkpt lat="49.91536192595959" lon="6.086297957226634">
        <ele>294.15</ele>
        <time>2024-12-29T18:57:14.787Z</time>
      </trkpt>
      <trkpt lat="49.91531892679632" lon="6.08620491810143">
        <ele>291.43</ele>
        <time>2024-12-29T18:57:38.131Z</time>
      </trkpt>
      <trkpt lat="49.91523292846978" lon="6.086100982502103">
        <ele>288.52</ele>
        <time>2024-12-29T18:58:01.490Z</time>
      </trkpt>
      <trkpt lat="49.91521499119699" lon="6.086036944761872">
        <ele>285.83</ele>
        <time>2024-12-29T18:58:24.855Z</time>
      </trkpt>
      <trkpt lat="49.91521197371185" lon="6.085969973355532">
        <ele>283.1</ele>
        <time>2024-12-29T18:58:48.226Z</time>
      </trkpt>
      <trkpt lat="49.91516897454858" lon="6.085813986137509">
        <ele>280.12</ele>
        <time>2024-12-29T18:59:11.611Z</time>
      </trkpt>
      <trkpt lat="49.9150609318167" lon="6.085630925372243">
        <ele>276.94</ele>
        <time>2024-12-29T18:59:35.017Z</time>
      </trkpt>
      <trkpt lat="49.91504198871553" lon="6.085807951167226">
        <ele>274.03</ele>
        <time>2024-12-29T18:59:58.439Z</time>
      </trkpt>
      <trkpt lat="49.91502195596695" lon="6.085890932008624">
        <ele>271.08</ele>
        <time>2024-12-29T19:00:21.869Z</time>
      </trkpt>
      <trkpt lat="49.91501399315894" lon="6.086214976385236">
        <ele>267.99</ele>
        <time>2024-12-29T19:00:45.327Z</time>
      </trkpt>
      <trkpt lat="49.9149589240551" lon="6.086570955812931">
        <ele>264.73</ele>
        <time>2024-12-29T19:01:08.816Z</time>
      </trkpt>
      <trkpt lat="49.91486999206245" lon="6.086861975491047">
        <ele>261.49</ele>
        <time>2024-12-29T19:01:32.333Z</time>
      </trkpt>
      <trkpt lat="49.91484694182873" lon="6.08688997104764">
        <ele>258.74</ele>
        <time>2024-12-29T19:01:55.854Z</time>
      </trkpt>
      <trkpt lat="49.91481592878699" lon="6.087020980194211">
        <ele>256.06</ele>
        <time>2024-12-29T19:02:19.387Z</time>
      </trkpt>
      <trkpt lat="49.914713921025395" lon="6.087333960458636">
        <ele>253.32</ele>
        <time>2024-12-29T19:02:42.950Z</time>
      </trkpt>
      <trkpt lat="49.91464393213391" lon="6.0874799732118845">
        <ele>250.57</ele>
        <time>2024-12-29T19:03:06.529Z</time>
      </trkpt>
      <trkpt lat="49.914547791704535" lon="6.087731514126062">
        <ele>247.82</ele>
        <time>2024-12-29T19:03:30.133Z</time>
      </trkpt>
      <trkpt lat="49.914451986551285" lon="6.087981965392828">
        <ele>245.27</ele>
        <time>2024-12-29T19:03:53.762Z</time>
      </trkpt>
      <trkpt lat="49.91439691744745" lon="6.088198972865939">
        <ele>242.9</ele>
        <time>2024-12-29T19:04:17.411Z</time>
      </trkpt>
      <trkpt lat="49.91437294520438" lon="6.088234931230545">
        <ele>240.76</ele>
        <time>2024-12-29T19:04:41.065Z</time>
      </trkpt>
      <trkpt lat="49.914368921890855" lon="6.0882839653640985">
        <ele>238.87</ele>
        <time>2024-12-29T19:05:04.723Z</time>
      </trkpt>
      <trkpt lat="49.91435199044645" lon="6.088335933163762">
        <ele>236.97</ele>
        <time>2024-12-29T19:05:28.386Z</time>
      </trkpt>
      <trkpt lat="49.91434092633426" lon="6.0882609989494085">
        <ele>235.0</ele>
        <time>2024-12-29T19:05:52.055Z</time>
      </trkpt>
      <trkpt lat="49.914346961304545" lon="6.088195955380797">
        <ele>233.31</ele>
        <time>2024-12-29T19:06:15.730Z</time>
      </trkpt>
      <trkpt lat="49.91431393660605" lon="6.088163936510682">
        <ele>231.58</ele>
        <time>2024-12-29T19:06:39.410Z</time>
      </trkpt>
      <trkpt lat="49.914216957986355" lon="6.08850097283721">
        <ele>230.28</ele>
        <time>2024-12-29T19:07:03.122Z</time>
      </trkpt>
      <trkpt lat="49.91418896242976" lon="6.0884789284318686">
        <ele>228.9</ele>
        <time>2024-12-29T19:07:26.838Z</time>
      </trkpt>
      <trkpt lat="49.914172952994704" lon="6.088465936481953">
        <ele>227.71</ele>
        <time>2024-12-29T19:07:50.557Z</time>
      </trkpt>
      <trkpt lat="49.913981510326266" lon="6.088316235691309">
        <ele>226.35</ele>
        <time>2024-12-29T19:08:14.304Z</time>
      </trkpt>
      <trkpt lat="49.91379006765783" lon="6.088166451081634">
        <ele>225.89</ele>
        <time>2024-12-29T19:08:38.080Z</time>
      </trkpt>
      <trkpt lat="49.91359896026552" lon="6.088016917929053">
        <ele>225.71</ele>
        <time>2024-12-29T19:09:01.885Z</time>
      </trkpt>
      <trkpt lat="49.913569958880544" lon="6.08798892237246">
        <ele>225.52</ele>
        <time>2024-12-29T19:09:25.694Z</time>
      </trkpt>
      <trkpt lat="49.913526959717274" lon="6.087940977886319">
        <ele>225.48</ele>
        <time>2024-12-29T19:09:49.510Z</time>
      </trkpt>
      <trkpt lat="49.91348094306886" lon="6.08785891905427">
        <ele>225.57</ele>
        <time>2024-12-29T19:10:13.336Z</time>
      </trkpt>
      <trkpt lat="49.913444984704256" lon="6.087739979848266">
        <ele>225.76</ele>
        <time>2024-12-29T19:10:37.173Z</time>
      </trkpt>
      <trkpt lat="49.91342796944082" lon="6.087605953216553">
        <ele>226.0</ele>
        <time>2024-12-29T19:11:01.022Z</time>
      </trkpt>
      <trkpt lat="49.91341397166252" lon="6.087431944906712">
        <ele>226.28</ele>
        <time>2024-12-29T19:11:24.886Z</time>
      </trkpt>
      <trkpt lat="49.913447918370366" lon="6.08742599375546">
        <ele>226.55</ele>
        <time>2024-12-29T19:11:48.754Z</time>
      </trkpt>
      <trkpt lat="49.91347298026085" lon="6.08738693408668">
        <ele>227.0</ele>
        <time>2024-12-29T19:12:12.627Z</time>
      </trkpt>
      <trkpt lat="49.91348194889724" lon="6.087329937145114">
        <ele>227.61</ele>
        <time>2024-12-29T19:12:36.505Z</time>
      </trkpt>
      <trkpt lat="49.9134929291904" lon="6.086922995746136">
        <ele>228.4</ele>
        <time>2024-12-29T19:13:00.418Z</time>
      </trkpt>
      <trkpt lat="49.91347993724048" lon="6.086702970787883">
        <ele>229.29</ele>
        <time>2024-12-29T19:13:24.350Z</time>
      </trkpt>
      <trkpt lat="49.91343894973397" lon="6.086436929181218">
        <ele>230.35</ele>
        <time>2024-12-29T19:13:48.306Z</time>
      </trkpt>
      <trkpt lat="49.913336941972375" lon="6.086076004430652">
        <ele>231.64</ele>
        <time>2024-12-29T19:14:12.296Z</time>
      </trkpt>
    </trkseg>
  </trk>
</gpx>
